ftp/pub/palmer/observations_modified/2019/October/original_files/AR191030_BASE.txt
Download
Sample DateTime Unit Id WS Avg 2min WD Avg 2min WGS 10min WGD 10min Air Temp Rel Humidity Dew Point Pyranometer Quantum Air Pressure Snow Level Rainfall PW Current Visibility CBase 1 CBase 2 CBase 3 Vert Vis
2019/10/30 00:00:01 BASE 20.54 11 23.87 9 0.7 100 0.7 0 0 977.8 NA 0.0000 -SN BR 2800 0 0 0 1800
2019/10/30 00:01:01 BASE 20.36 11 23.87 9 0.7 100 0.7 0 0 977.8 NA 0.0000 -SN BR 3100 0 0 0 1900
2019/10/30 00:02:01 BASE 20.13 12 23.87 9 0.7 100 0.7 0 0 977.8 NA 0.0000 -SN BR 3100 0 0 0 1870
2019/10/30 00:03:01 BASE 20.05 14 23.87 9 0.7 100 0.7 0 0 977.9 NA 0.0000 -SN BR 2600 0 0 0 1900
2019/10/30 00:04:01 BASE 20.68 13 23.87 9 0.7 100 0.7 0 0 977.8 NA 0.0000 -SN BR 3100 0 0 0 1900
2019/10/30 00:05:01 BASE 21.17 9 23.87 9 0.7 100 0.7 0 0 977.8 NA 0.0000 -SN BR 3200 0 0 0 1770
2019/10/30 00:06:01 BASE 20.21 10 23.10 12 0.7 100 0.7 0 0 977.9 NA 0.0000 -SN BR 4000 0 0 0 1940
2019/10/30 00:07:01 BASE 20.32 12 23.10 14 0.7 100 0.7 0 0 977.8 NA 0.0000 -SN BR 4600 0 0 0 1900
2019/10/30 00:08:01 BASE 20.26 13 23.10 14 0.7 100 0.7 0 0 977.9 NA 0.0000 -SN BR 3000 0 0 0 1740
2019/10/30 00:09:01 BASE 20.37 11 23.20 10 0.8 100 0.8 0 0 977.9 NA 0.0000 -SN BR 2900 0 0 0 1480
2019/10/30 00:10:00 BASE 20.51 9 23.20 10 0.8 100 0.8 0 0 977.9 NA 0.0000 -SN BR 3400 0 0 0 1440
2019/10/30 00:11:00 BASE 19.78 11 23.20 10 0.8 100 0.8 0 0 977.9 NA 0.0000 -SN BR 3600 0 0 0 1710
2019/10/30 00:12:00 BASE 19.36 12 23.20 10 0.8 100 0.8 0 0 977.9 NA 0.0000 -SN BR 2100 0 0 0 1840
2019/10/30 00:13:00 BASE 20.17 9 23.20 10 0.8 100 0.8 0 0 977.9 NA 0.0000 -SN BR 2600 0 0 0 1770
2019/10/30 00:14:00 BASE 21.29 9 23.20 10 0.8 100 0.8 0 0 977.9 NA 0.0000 -SN BR 3600 0 0 0 1740
2019/10/30 00:15:00 BASE 22.16 14 23.97 17 0.8 100 0.8 0 0 977.8 NA 0.2540 -SN BR 2600 0 0 0 1710
2019/10/30 00:16:00 BASE 21.95 15 23.97 17 0.8 100 0.8 0 0 977.9 NA 0.0000 -SN BR 2500 0 0 0 1740
2019/10/30 00:17:00 BASE 20.72 15 23.97 17 0.8 100 0.8 0 0 977.9 NA 0.0000 -SN BR 2500 0 0 0 1710
2019/10/30 00:18:00 BASE 20.78 13 23.97 17 0.8 100 0.8 0 0 977.9 NA 0.0000 -SN BR 3500 0 0 0 1710
2019/10/30 00:19:00 BASE 20.27 12 23.97 17 0.8 100 0.8 0 0 977.9 NA 0.0000 -SN BR 3400 0 0 0 1800
2019/10/30 00:20:00 BASE 20.42 13 23.97 17 0.8 100 0.8 0 0 977.9 NA 0.0000 -SN BR 3500 0 0 0 1770
2019/10/30 00:21:00 BASE 21.59 13 23.97 17 0.8 100 0.8 0 0 977.8 NA 0.0000 -SN BR 2800 0 0 0 1940
2019/10/30 00:22:00 BASE 22.05 13 24.85 14 0.8 100 0.8 0 0 977.8 NA 0.0000 -SN BR 3400 0 0 0 1840
2019/10/30 00:23:00 BASE 22.27 14 24.85 14 0.8 100 0.8 0 0 977.8 NA 0.0000 -SN BR 2400 0 0 0 1710
2019/10/30 00:24:00 BASE 21.64 15 24.85 14 0.8 100 0.8 0 0 977.9 NA 0.0000 -SN BR 2700 0 0 0 1800
2019/10/30 00:25:00 BASE 21.52 14 24.85 14 0.8 100 0.8 0 0 977.8 NA 0.0000 -SN BR 2400 0 0 0 1800
2019/10/30 00:26:00 BASE 21.59 13 24.85 14 0.8 100 0.8 0 0 977.8 NA 0.0000 -SN BR 2800 0 0 0 1770
2019/10/30 00:27:00 BASE 21.93 14 24.85 14 0.8 100 0.8 0 0 977.8 NA 0.0000 -SN BR 2400 0 0 0 1740
2019/10/30 00:28:00 BASE 22.61 15 24.85 14 0.9 100 0.9 0 0 977.8 NA 0.0000 -SN BR 2600 0 0 0 1770
2019/10/30 00:29:00 BASE 22.20 16 24.85 14 0.9 100 0.9 0 0 977.9 NA 0.0000 -SN BR 2500 0 0 0 1800
2019/10/30 00:30:00 BASE 21.65 17 24.85 14 0.9 100 0.9 0 0 977.9 NA 0.0000 -SN BR 2600 0 0 0 1670
2019/10/30 00:31:00 BASE 21.60 14 24.85 14 0.9 100 0.9 0 0 977.9 NA 0.0000 -SN BR 2300 0 0 0 1710
2019/10/30 00:32:00 BASE 21.61 11 24.44 16 0.9 100 0.9 0 0 977.9 NA 0.0000 -SN BR 2900 0 0 0 1710
2019/10/30 00:33:00 BASE 21.40 9 24.44 16 0.9 100 0.9 0 0 977.9 NA 0.2540 -SN BR 3300 0 0 0 1710
2019/10/30 00:34:00 BASE 21.61 10 24.44 16 0.9 100 0.9 0 0 977.8 NA 0.0000 -SN BR 4300 0 0 0 1840
2019/10/30 00:35:00 BASE 22.76 11 24.44 16 1.0 100 1.0 0 0 977.8 NA 0.0000 -SN BR 3500 0 0 0 1940
2019/10/30 00:36:00 BASE 22.10 12 24.44 16 1.0 100 1.0 0 0 977.9 NA 0.0000 -SN BR 4000 0 0 0 1940
2019/10/30 00:37:00 BASE 21.81 13 24.44 16 1.0 100 1.0 0 0 977.8 NA 0.0000 -SN BR 4600 200 0 0 0
2019/10/30 00:38:00 BASE 22.83 12 25.16 2 1.1 100 1.1 0 0 977.8 NA 0.0000 -SN BR 3500 0 0 0 1900
2019/10/30 00:39:00 BASE 21.98 9 25.16 2 1.1 100 1.1 0 0 977.9 NA 0.0000 -SN BR 5000 260 0 0 0
2019/10/30 00:40:00 BASE 20.42 8 25.16 2 1.1 100 1.1 0 0 978.0 NA 0.0000 -SN BR 4200 230 0 0 0
2019/10/30 00:41:00 BASE 19.39 8 25.16 2 1.1 100 1.1 0 0 978.0 NA 0.0000 -SN BR 4800 0 0 0 1840
2019/10/30 00:42:00 BASE 19.93 10 25.16 2 1.1 100 1.1 0 0 978.0 NA 0.2540 -SN BR 4900 230 0 0 0
2019/10/30 00:43:00 BASE 20.55 11 25.16 2 1.1 100 1.1 0 0 978.0 NA 0.0000 -SN BR 2700 0 0 0 1770
2019/10/30 00:44:00 BASE 20.23 12 25.16 2 1.1 100 1.1 0 0 978.0 NA 0.0000 -SN BR 2400 0 0 0 1840
2019/10/30 00:45:00 BASE 20.72 10 25.16 2 1.1 100 1.1 0 0 977.9 NA 0.0000 -SN BR 3100 230 0 0 0
2019/10/30 00:46:00 BASE 20.97 9 25.16 2 1.1 100 1.1 0 0 978.0 NA 0.0000 -SN BR 5000 0 0 0 1940
2019/10/30 00:47:00 BASE 20.31 9 25.16 2 1.0 100 1.0 0 0 978.1 NA 0.0000 -SN BR 4000 0 0 0 1770
2019/10/30 00:48:00 BASE 20.08 9 23.51 8 1.0 100 1.0 0 0 978.0 NA 0.0000 -SN BR 3100 0 0 0 1740
2019/10/30 00:49:00 BASE 20.62 10 23.51 8 1.0 100 1.0 0 0 978.0 NA 0.0000 -SN BR 3300 0 0 0 1740
2019/10/30 00:50:00 BASE 20.85 10 23.51 8 1.0 100 1.0 0 0 978.0 NA 0.0000 -SN BR 3100 0 0 0 1870
2019/10/30 00:51:00 BASE 20.93 9 23.51 8 0.9 100 0.9 0 0 978.0 NA 0.0000 -SN BR 4500 0 0 0 1770
2019/10/30 00:52:00 BASE 21.91 11 23.87 9 0.9 100 0.9 0 0 978.0 NA 0.0000 -SN BR 4200 0 0 0 1510
2019/10/30 00:53:00 BASE 22.16 10 23.87 9 0.9 100 0.9 0 0 978.0 NA 0.0000 -SN BR 2500 0 0 0 1670
2019/10/30 00:54:00 BASE 21.40 10 23.87 9 0.9 100 0.9 0 0 978.0 NA 0.0000 -SN BR 3300 0 0 0 1610
2019/10/30 00:55:00 BASE 21.24 12 23.87 9 0.9 100 0.9 0 0 978.0 NA 0.0000 -SN BR 3200 0 0 0 1640
2019/10/30 00:56:00 BASE 21.21 12 23.87 9 0.9 100 0.9 0 0 978.1 NA 0.0000 -SN BR 2700 0 0 0 1570
2019/10/30 00:57:00 BASE 21.66 12 23.87 9 0.9 100 0.9 0 0 978.1 NA 0.0000 -SN BR 2100 0 0 0 1610
2019/10/30 00:58:00 BASE 21.16 12 23.87 9 0.9 100 0.9 0 0 978.1 NA 0.0000 -SN BR 2500 0 0 0 1480
2019/10/30 00:59:00 BASE 20.18 12 23.87 9 0.9 100 0.9 0 0 978.1 NA 0.0000 -SN BR 4600 0 0 0 1540
2019/10/30 01:00:00 BASE 20.33 9 23.87 9 0.9 100 0.9 0 0 978.2 NA 0.0000 -SN BR 3200 0 0 0 1610
2019/10/30 01:01:00 BASE 20.39 9 23.87 9 0.9 100 0.9 0 0 978.2 NA 0.0000 -SN BR 3600 0 0 0 1710
2019/10/30 01:02:00 BASE 20.60 11 23.72 14 0.9 100 0.9 0 0 978.1 NA 0.2540 -SN BR 2600 0 0 0 1610
2019/10/30 01:03:00 BASE 20.70 10 23.72 14 0.9 100 0.9 0 0 978.1 NA 0.0000 -SN BR 3500 0 0 0 1610
2019/10/30 01:04:00 BASE 20.66 11 23.72 14 1.0 100 1.0 0 0 978.1 NA 0.0000 -SN BR 3500 0 0 0 1540
2019/10/30 01:05:00 BASE 21.09 12 23.41 16 1.0 100 1.0 0 0 978.1 NA 0.0000 -SN BR 3500 0 0 0 1440
2019/10/30 01:06:01 BASE 20.94 11 23.41 16 1.0 100 1.0 0 0 978.2 NA 0.0000 -SN BR 2600 0 0 0 1440
2019/10/30 01:07:01 BASE 19.56 10 23.05 15 1.0 100 1.0 0 0 978.2 NA 0.0000 -SN BR 2300 0 0 0 1350
2019/10/30 01:08:01 BASE 19.48 11 23.10 16 1.0 100 1.0 0 0 978.1 NA 0.0000 -SN BR 3200 0 0 0 1310
2019/10/30 01:09:01 BASE 20.83 11 24.33 9 0.9 100 0.9 0 0 978.1 NA 0.0000 -SN BR 3200 0 0 0 1350
2019/10/30 01:10:01 BASE 20.63 10 24.33 9 0.9 100 0.9 0 0 978.2 NA 0.0000 -SN BR 3400 0 0 0 1410
2019/10/30 01:11:01 BASE 21.10 11 24.33 9 0.9 100 0.9 0 0 978.1 NA 0.2540 -SN BR 3300 0 0 0 1350
2019/10/30 01:12:01 BASE 22.41 12 24.33 9 0.9 100 0.9 0 0 978.1 NA 0.0000 -SN BR 3100 0 0 0 1250
2019/10/30 01:13:01 BASE 20.72 11 24.33 9 0.9 100 0.9 0 0 978.3 NA 0.0000 -SN BR 3100 0 0 0 1280
2019/10/30 01:14:01 BASE 19.82 11 24.33 9 0.9 100 0.9 0 0 978.2 NA 0.0000 -SN BR 3200 0 0 0 1280
2019/10/30 01:15:01 BASE 20.63 10 24.33 9 0.9 100 0.9 0 0 978.2 NA 0.0000 -SN BR 5000 0 0 0 1150
2019/10/30 01:16:01 BASE 20.35 11 24.33 9 0.9 100 0.9 0 0 978.2 NA 0.0000 -SN BR 3400 0 0 0 1120
2019/10/30 01:17:01 BASE 20.02 13 24.33 9 0.9 100 0.9 0 0 978.2 NA 0.0000 -SN BR 3100 0 0 0 1120
2019/10/30 01:18:01 BASE 20.81 13 24.33 9 0.9 100 0.9 0 0 978.1 NA 0.2540 -SN BR 2500 0 0 0 1180
2019/10/30 01:19:01 BASE 21.79 11 23.97 13 0.9 100 0.9 0 0 978.1 NA 0.0000 -SN BR 2900 200 0 0 0
2019/10/30 01:20:01 BASE 21.60 9 23.97 10 0.9 100 0.9 0 0 978.2 NA 0.0000 -SN BR 3600 0 0 0 1310
2019/10/30 01:21:01 BASE 21.54 10 23.97 10 0.9 100 0.9 0 0 978.1 NA 0.0000 -SN BR 3400 0 0 0 1250
2019/10/30 01:22:01 BASE 21.83 14 23.97 10 0.9 100 0.9 0 0 978.2 NA 0.0000 -SN BR 2400 0 0 0 1280
2019/10/30 01:23:01 BASE 21.03 14 23.97 10 0.9 100 0.9 0 0 978.2 NA 0.0000 -SN BR 2300 0 0 0 1210
2019/10/30 01:24:01 BASE 21.05 11 23.97 10 0.8 100 0.8 0 0 978.1 NA 0.0000 -SN BR 2300 0 0 0 1410
2019/10/30 01:25:01 BASE 21.48 12 23.97 10 0.8 100 0.8 0 0 978.2 NA 0.0000 -SN BR 3200 0 0 0 1480
2019/10/30 01:26:01 BASE 21.44 15 23.97 10 0.8 100 0.8 0 0 978.2 NA 0.0000 -SN BR 3300 260 0 0 0
2019/10/30 01:27:01 BASE 21.69 17 23.97 10 0.8 100 0.8 0 0 978.2 NA 0.2540 -SN BR 3300 230 0 0 0
2019/10/30 01:28:01 BASE 21.63 16 23.97 10 0.9 100 0.9 0 0 978.2 NA 0.0000 -SN BR 2900 0 0 0 1900
2019/10/30 01:29:01 BASE 21.80 15 24.44 13 0.9 100 0.9 0 0 978.2 NA 0.0000 -SN BR 3000 230 0 0 0
2019/10/30 01:30:01 BASE 21.84 13 24.49 12 0.9 100 0.9 0 0 978.1 NA 0.0000 -SN BR 2700 0 0 0 1900
2019/10/30 01:31:01 BASE 21.85 14 24.49 12 0.9 100 0.9 0 0 978.1 NA 0.0000 -SN BR 2500 200 0 0 0
2019/10/30 01:32:01 BASE 21.92 13 24.49 12 0.9 100 0.9 0 0 978.2 NA 0.2540 -SN BR 1900 0 0 0 1870
2019/10/30 01:33:01 BASE 20.88 9 24.49 12 0.9 100 0.9 0 0 978.3 NA 0.0000 -SN BR 2400 0 0 0 1870
2019/10/30 01:34:01 BASE 20.83 8 24.49 12 0.9 100 0.9 0 0 978.2 NA 0.0000 -SN BR 3800 230 0 0 0
2019/10/30 01:35:01 BASE 20.76 10 24.49 12 1.0 100 1.0 0 0 978.3 NA 0.0000 -SN BR 3700 0 0 0 1870
2019/10/30 01:36:01 BASE 20.20 12 24.49 12 1.0 100 1.0 0 0 978.3 NA 0.0000 -SN BR 3200 0 0 0 1770
2019/10/30 01:37:01 BASE 20.92 12 24.49 12 1.0 100 1.0 0 0 978.2 NA 0.0000 -SN BR 2700 0 0 0 1800
2019/10/30 01:38:01 BASE 21.22 11 24.49 12 1.0 100 1.0 0 0 978.3 NA 0.2540 -SN BR 3200 260 0 0 0
2019/10/30 01:39:01 BASE 21.65 10 24.49 12 1.0 100 1.0 0 0 978.2 NA 0.0000 -SN BR 3400 0 0 0 1770
2019/10/30 01:40:01 BASE 22.75 8 25.88 6 1.0 100 1.0 0 0 978.1 NA 0.0000 -SN BR 2800 0 0 0 1640
2019/10/30 01:41:01 BASE 22.33 8 25.88 6 1.0 100 1.0 0 0 978.3 NA 0.0000 -SN BR 4000 230 0 0 0
2019/10/30 01:42:01 BASE 20.98 10 25.88 6 1.1 100 1.1 0 0 978.3 NA 0.0000 -SN BR 4900 0 0 0 1670
2019/10/30 01:43:01 BASE 20.77 9 25.88 6 1.1 100 1.1 0 0 978.3 NA 0.0000 -SN BR 6000 0 0 0 1610
2019/10/30 01:44:01 BASE 20.79 10 25.88 6 1.0 100 1.0 0 0 978.3 NA 0.0000 -SN BR 3600 0 0 0 1540
2019/10/30 01:45:01 BASE 21.25 11 25.88 6 1.0 100 1.0 0 0 978.3 NA 0.2540 -SN BR 2600 0 0 0 1410
2019/10/30 01:46:01 BASE 21.80 11 25.88 6 1.0 100 1.0 0 0 978.3 NA 0.0000 -SN BR 3100 0 0 0 1570
2019/10/30 01:47:01 BASE 21.07 10 25.88 6 0.9 100 0.9 0 0 978.4 NA 0.0000 -SN BR 3200 0 0 0 1440
2019/10/30 01:48:01 BASE 19.82 9 25.88 6 0.9 100 0.9 0 0 978.5 NA 0.0000 -SN BR 4100 0 0 0 1670
2019/10/30 01:49:01 BASE 20.20 10 25.88 6 0.9 100 0.9 0 0 978.4 NA 0.0000 -SN BR 3300 0 0 0 1670
2019/10/30 01:50:01 BASE 21.64 12 24.08 16 0.9 100 0.9 0 0 978.3 NA 0.0000 -SN BR 2600 200 0 0 0
2019/10/30 01:51:01 BASE 21.39 14 24.08 16 0.9 100 0.9 0 0 978.4 NA 0.0000 -SN BR 3000 0 0 0 1940
2019/10/30 01:52:01 BASE 20.83 15 24.08 16 0.9 100 0.9 0 0 978.4 NA 0.0000 -SN BR 2900 200 0 0 0
2019/10/30 01:53:01 BASE 21.17 15 24.08 16 0.9 100 0.9 0 0 978.3 NA 0.0000 -SN BR 2900 0 0 0 1800
2019/10/30 01:54:01 BASE 22.00 12 24.08 16 0.9 100 0.9 0 0 978.3 NA 0.0000 -SN BR 2800 200 0 0 0
2019/10/30 01:55:01 BASE 22.23 12 24.08 16 0.9 100 0.9 0 0 978.3 NA 0.0000 -SN BR 2200 230 0 0 0
2019/10/30 01:56:01 BASE 22.10 15 24.08 16 0.9 100 0.9 0 0 978.4 NA 0.0000 -SN BR 2900 0 0 0 1610
2019/10/30 01:57:01 BASE 22.72 16 25.21 22 0.9 100 0.9 0 0 978.3 NA 0.2540 -SN BR 2400 0 0 0 1510
2019/10/30 01:58:01 BASE 21.87 16 25.21 22 0.9 100 0.9 0 0 978.4 NA 0.0000 -SN BR 2100 0 0 0 1640
2019/10/30 01:59:01 BASE 21.31 15 25.21 22 0.9 100 0.9 0 0 978.4 NA 0.0000 -SN BR 2100 0 0 0 1710
2019/10/30 02:00:01 BASE 22.06 15 25.21 22 0.9 100 0.9 0 0 978.4 NA 0.0000 -SN BR 2200 0 0 0 1800
2019/10/30 02:01:01 BASE 22.23 13 25.21 22 0.9 100 0.9 0 0 978.3 NA 0.2540 -SN BR 2500 0 0 0 1800
2019/10/30 02:02:01 BASE 21.75 14 25.21 22 0.9 100 0.9 0 0 978.5 NA 0.0000 -SN BR 2200 0 0 0 1800
2019/10/30 02:03:01 BASE 21.02 17 25.21 22 0.9 100 0.9 0 0 978.5 NA 0.0000 -SN BR 1600 0 0 0 1770
2019/10/30 02:04:01 BASE 21.42 15 25.21 22 0.9 100 0.9 0 0 978.4 NA 0.0000 -SN BR 2300 0 0 0 1710
2019/10/30 02:05:01 BASE 21.25 12 25.21 22 0.9 100 0.9 0 0 978.5 NA 0.0000 -SN BR 3400 200 0 0 0
2019/10/30 02:06:01 BASE 20.36 12 25.21 22 0.9 100 0.9 0 0 978.5 NA 0.2540 -SN BR 3900 260 0 0 0
2019/10/30 02:07:01 BASE 20.73 13 24.69 19 0.9 100 0.9 0 0 978.4 NA 0.0000 -SN BR 3400 260 0 0 0
2019/10/30 02:08:01 BASE 20.21 15 24.69 19 0.9 100 0.9 0 0 978.5 NA 0.0000 -SN BR 3300 230 0 0 0
2019/10/30 02:09:01 BASE 20.40 15 24.33 12 0.9 100 0.9 0 0 978.5 NA 0.0000 -SN BR 3400 230 0 0 0
2019/10/30 02:10:01 BASE 21.66 15 23.77 17 0.9 100 0.9 0 0 978.4 NA 0.2540 -SN BR 3500 230 0 0 0
2019/10/30 02:11:01 BASE 21.69 14 23.77 17 0.9 100 0.9 0 0 978.4 NA 0.0000 -SN BR 3000 230 0 0 0
2019/10/30 02:12:01 BASE 21.58 13 23.77 17 0.9 100 0.9 0 0 978.5 NA 0.0000 -SN BR 2700 260 0 0 0
2019/10/30 02:13:01 BASE 21.25 11 23.77 17 1.0 100 1.0 0 0 978.5 NA 0.0000 -SN BR 3300 260 0 0 0
2019/10/30 02:14:01 BASE 20.86 12 23.77 17 1.0 100 1.0 0 0 978.5 NA 0.2540 -SN BR 3000 260 0 0 0
2019/10/30 02:15:01 BASE 20.44 14 23.77 17 1.0 100 1.0 0 0 978.6 NA 0.0000 -SN BR 2900 230 0 0 0
2019/10/30 02:16:01 BASE 20.08 12 23.77 17 1.0 100 1.0 0 0 978.6 NA 0.0000 -SN BR 2900 200 0 0 0
2019/10/30 02:17:00 BASE 20.86 13 23.77 17 1.0 100 1.0 0 0 978.5 NA 0.0000 -SN BR 3100 0 0 0 1670
2019/10/30 02:18:01 BASE 21.67 13 23.77 17 1.0 100 1.0 0 0 978.6 NA 0.0000 -SN BR 2500 0 0 0 1770
2019/10/30 02:19:00 BASE 21.57 15 23.77 15 1.0 100 1.0 0 0 978.5 NA 0.0000 -SN BR 2600 200 0 0 0
2019/10/30 02:20:00 BASE 21.94 16 24.59 17 1.0 100 1.0 0 0 978.5 NA 0.0000 -SN BR 2600 0 0 0 1640
2019/10/30 02:21:00 BASE 22.49 14 24.59 17 1.0 100 1.0 0 0 978.6 NA 0.2540 -SN BR 2600 0 0 0 1540
2019/10/30 02:22:00 BASE 22.08 14 24.59 17 1.0 100 1.0 0 0 978.6 NA 0.0000 -SN BR 2400 0 0 0 1540
2019/10/30 02:23:01 BASE 21.73 14 24.59 17 1.0 100 1.0 0 0 978.6 NA 0.0000 -SN BR 2700 0 0 0 1570
2019/10/30 02:24:01 BASE 21.93 16 24.59 17 1.0 100 1.0 0 0 978.6 NA 0.0000 -SN BR 2200 0 0 0 1540
2019/10/30 02:25:01 BASE 22.28 15 24.59 17 1.0 100 1.0 0 0 978.6 NA 0.0000 -SN BR 2000 0 0 0 1540
2019/10/30 02:26:01 BASE 22.71 16 24.59 17 1.0 100 1.0 0 0 978.6 NA 0.2540 -SN BR 2200 0 0 0 1570
2019/10/30 02:27:01 BASE 22.21 15 24.59 17 1.0 100 1.0 0 0 978.7 NA 0.0000 -SN BR 1700 0 0 0 1670
2019/10/30 02:28:01 BASE 21.63 13 24.59 17 1.0 100 1.0 0 0 978.6 NA 0.0000 -SN BR 2500 0 0 0 1640
2019/10/30 02:29:01 BASE 21.61 15 24.59 17 1.0 100 1.0 0 0 978.7 NA 0.0000 -SN BR 2600 0 0 0 1670
2019/10/30 02:30:01 BASE 22.37 17 25.26 18 1.0 100 1.0 0 0 978.6 NA 0.0000 -SN BR 2500 230 0 0 0
2019/10/30 02:31:00 BASE 23.53 17 25.31 18 1.0 100 1.0 0 0 978.6 NA 0.2540 -SN BR 2300 0 0 0 1570
2019/10/30 02:32:00 BASE 22.22 17 25.31 18 1.0 100 1.0 0 0 978.7 NA 0.0000 -SN BR 2300 200 0 0 0
2019/10/30 02:33:00 BASE 21.98 18 25.31 18 1.0 100 1.0 0 0 978.7 NA 0.0000 -SN BR 2200 0 0 0 1610
2019/10/30 02:34:00 BASE 23.11 18 25.31 18 1.0 100 1.0 0 0 978.6 NA 0.0000 -SN BR 1400 0 0 0 1610
2019/10/30 02:35:00 BASE 23.05 17 25.31 18 1.0 100 1.0 0 0 978.7 NA 0.2540 -SN BR 1400 0 0 0 1640
2019/10/30 02:36:00 BASE 22.78 17 25.31 18 1.0 100 1.0 0 0 978.7 NA 0.0000 -SN BR 1500 0 0 0 1570
2019/10/30 02:37:00 BASE 21.77 14 25.31 18 0.9 100 0.9 0 0 978.7 NA 0.0000 -SN BR 1700 230 0 0 0
2019/10/30 02:38:00 BASE 21.06 16 25.31 18 0.9 100 0.9 0 0 978.8 NA 0.0000 -SN BR 2000 0 0 0 1570
2019/10/30 02:39:00 BASE 21.68 16 25.31 18 0.9 100 0.9 0 0 978.7 NA 0.0000 -SN BR 1600 260 0 0 0
2019/10/30 02:40:00 BASE 21.99 13 25.31 18 0.9 100 0.9 0 0 978.7 NA 0.2540 -SN BR 2300 260 0 0 0
2019/10/30 02:41:00 BASE 21.69 11 24.90 13 0.9 100 0.9 0 0 978.7 NA 0.0000 -SN BR 3500 260 0 0 0
2019/10/30 02:42:00 BASE 21.35 13 24.90 13 0.9 100 0.9 0 0 978.8 NA 0.0000 -SN BR 3300 260 0 0 0
2019/10/30 02:43:00 BASE 21.55 15 24.90 13 1.0 100 1.0 0 0 978.7 NA 0.0000 -SN BR 3500 260 0 0 0
2019/10/30 02:44:00 BASE 22.03 15 24.59 12 1.0 100 1.0 0 0 978.8 NA 0.0000 -SN BR 3000 230 0 0 0
2019/10/30 02:45:00 BASE 21.60 15 24.59 12 1.0 100 1.0 0 0 978.8 NA 0.2540 -SN BR 3000 300 0 0 0
2019/10/30 02:46:00 BASE 21.34 16 24.59 12 1.0 100 1.0 0 0 978.8 NA 0.0000 -SN BR 3400 300 0 0 0
2019/10/30 02:47:00 BASE 21.21 16 24.59 12 0.9 100 0.9 0 0 978.9 NA 0.0000 -SN BR 2900 260 0 0 0
2019/10/30 02:48:00 BASE 20.60 17 24.59 12 0.9 100 0.9 0 0 978.9 NA 0.0000 -SN BR 3600 260 0 0 0
2019/10/30 02:49:00 BASE 21.51 18 24.59 12 0.9 100 0.9 0 0 978.8 NA 0.0000 -SN BR 3500 260 0 0 0
2019/10/30 02:50:00 BASE 22.57 15 24.59 12 0.9 100 0.9 0 0 978.8 NA 0.2540 -SN BR 3200 260 0 0 0
2019/10/30 02:51:00 BASE 22.45 15 25.10 21 0.9 100 0.9 0 0 978.8 NA 0.0000 -SN BR 3500 230 0 0 0
2019/10/30 02:52:00 BASE 21.77 15 25.10 21 0.9 100 0.9 0 0 978.9 NA 0.0000 -SN BR 3500 260 0 0 0
2019/10/30 02:53:00 BASE 21.63 14 25.10 21 0.9 100 0.9 0 0 978.8 NA 0.0000 -SN BR 3700 260 0 0 0
2019/10/30 02:54:01 BASE 22.38 15 25.10 21 0.9 100 0.9 0 0 978.8 NA 0.2540 -SN BR 3700 260 0 0 0
2019/10/30 02:55:01 BASE 22.29 17 25.10 21 0.9 100 0.9 0 0 978.8 NA 0.0000 -SN BR 3700 260 0 0 0
2019/10/30 02:56:01 BASE 21.70 17 25.10 21 0.9 100 0.9 0 0 978.9 NA 0.0000 -SN BR 3800 230 0 0 0
2019/10/30 02:57:01 BASE 21.36 15 25.10 21 0.9 100 0.9 0 0 978.8 NA 0.0000 -SN BR 3400 260 0 0 0
2019/10/30 02:58:01 BASE 21.92 16 25.10 21 0.9 100 0.9 0 0 978.8 NA 0.0000 -SN BR 3200 230 0 0 0
2019/10/30 02:59:01 BASE 22.50 17 25.10 21 0.9 100 0.9 0 0 978.8 NA 0.2540 -SN BR 2900 230 0 0 0
2019/10/30 03:00:01 BASE 21.81 17 25.10 21 0.9 100 0.9 0 0 978.9 NA 0.0000 -SN BR 2900 230 0 0 0
2019/10/30 03:01:01 BASE 22.19 20 24.90 19 0.9 100 0.9 0 0 978.8 NA 0.0000 -SN BR 3400 300 0 0 0
2019/10/30 03:02:01 BASE 23.79 22 25.57 17 0.9 100 0.9 0 0 978.8 NA 0.0000 -SN BR 3100 260 0 0 0
2019/10/30 03:03:01 BASE 23.50 20 25.57 17 0.9 100 0.9 0 0 978.9 NA 0.2540 -SN BR 3400 260 0 0 0
2019/10/30 03:04:01 BASE 22.42 19 25.57 17 1.0 100 1.0 0 0 978.9 NA 0.0000 -SN BR 3500 230 0 0 0
2019/10/30 03:05:01 BASE 21.91 17 25.57 17 1.0 100 1.0 0 0 978.9 NA 0.0000 -SN BR 3200 300 0 0 0
2019/10/30 03:06:01 BASE 22.38 17 25.57 17 1.0 100 1.0 0 0 978.9 NA 0.0000 -SN BR 3600 300 0 0 0
2019/10/30 03:07:01 BASE 21.93 16 25.57 17 1.0 100 1.0 0 0 978.9 NA 0.2540 -SN BR 3000 230 0 0 0
2019/10/30 03:08:01 BASE 20.79 14 25.57 17 1.0 100 1.0 0 0 978.9 NA 0.0000 -SN BR 3700 260 0 0 0
2019/10/30 03:09:01 BASE 20.82 16 25.57 17 1.0 100 1.0 0 0 978.9 NA 0.0000 -SN BR 4600 260 0 0 0
2019/10/30 03:10:01 BASE 20.99 17 25.57 17 1.0 100 1.0 0 0 978.9 NA 0.0000 -SN BR 3300 260 0 0 0
2019/10/30 03:11:01 BASE 21.51 17 25.57 17 1.0 100 1.0 0 0 978.9 NA 0.0000 -SN BR 3100 300 0 0 0
2019/10/30 03:12:01 BASE 22.36 16 25.00 22 1.0 100 1.0 0 0 978.9 NA 0.2540 -SN BR 2600 260 0 0 0
2019/10/30 03:13:01 BASE 22.16 15 25.00 22 1.0 100 1.0 0 0 978.9 NA 0.0000 -SN BR 2500 260 0 0 0
2019/10/30 03:14:01 BASE 21.72 14 25.00 22 1.0 100 1.0 0 0 978.9 NA 0.0000 -SN BR 2400 260 0 0 0
2019/10/30 03:15:01 BASE 21.56 12 25.00 22 1.1 100 1.1 0 0 978.9 NA 0.0000 -SN BR 2700 260 0 0 0
2019/10/30 03:16:01 BASE 21.50 11 24.23 15 1.1 100 1.1 0 0 979.0 NA 0.0000 -SN BR 3400 0 0 0 1480
2019/10/30 03:17:01 BASE 21.10 12 24.23 15 1.1 100 1.1 0 0 979.0 NA 0.0000 -SN BR 2600 230 0 0 0
2019/10/30 03:18:01 BASE 20.92 10 24.23 15 1.1 100 1.1 0 0 978.9 NA 0.2540 -SN BR 2500 300 0 0 0
2019/10/30 03:19:01 BASE 21.38 11 24.38 9 1.1 100 1.1 0 0 979.0 NA 0.0000 -SN BR 3700 300 0 0 0
2019/10/30 03:20:01 BASE 21.26 11 24.38 9 1.1 100 1.1 0 0 979.0 NA 0.0000 -SN BR 3700 330 0 0 0
2019/10/30 03:21:01 BASE 21.14 10 24.38 9 1.1 100 1.1 0 0 979.0 NA 0.2540 -SN BR 3600 300 0 0 0
2019/10/30 03:22:01 BASE 20.81 11 24.38 9 1.1 100 1.1 0 0 979.1 NA 0.0000 -SN BR 4200 300 0 0 0
2019/10/30 03:23:01 BASE 20.25 11 24.38 9 1.1 100 1.1 0 0 979.1 NA 0.0000 -SN BR 3400 260 0 0 0
2019/10/30 03:24:01 BASE 19.87 10 24.38 9 1.1 100 1.1 0 0 979.1 NA 0.0000 -SN BR 3500 230 0 0 0
2019/10/30 03:25:01 BASE 20.72 10 24.38 9 1.1 100 1.1 0 0 979.0 NA 0.0000 -SN BR 4500 300 0 0 0
2019/10/30 03:26:01 BASE 20.76 10 24.38 9 1.1 100 1.1 0 0 979.1 NA 0.2540 -SN BR 3500 260 0 0 0
2019/10/30 03:27:01 BASE 20.06 11 24.38 9 1.1 100 1.1 0 0 979.2 NA 0.0000 -SN BR 3700 230 0 0 0
2019/10/30 03:28:01 BASE 20.43 13 24.38 9 1.1 100 1.1 0 0 979.1 NA 0.0000 -SN BR 2600 0 0 0 1310
2019/10/30 03:29:01 BASE 20.55 12 23.87 7 1.0 100 1.0 0 0 979.1 NA 0.0000 -SN BR 1700 230 0 0 0
2019/10/30 03:30:01 BASE 20.99 11 23.87 7 1.0 100 1.0 0 0 979.0 NA 0.0000 -SN BR 2500 200 0 0 0
2019/10/30 03:31:01 BASE 21.70 12 23.87 7 1.0 100 1.0 0 0 979.0 NA 0.2540 -SN BR 2300 230 0 0 0
2019/10/30 03:32:01 BASE 21.56 13 23.87 7 1.0 100 1.0 0 0 979.0 NA 0.0000 -SN BR 2200 0 0 0 1640
2019/10/30 03:33:01 BASE 21.44 14 23.87 7 1.0 100 1.0 0 0 979.1 NA 0.0000 -SN BR 2200 0 0 0 1640
2019/10/30 03:34:01 BASE 21.96 17 24.08 20 1.0 100 1.0 0 0 979.0 NA 0.0000 -SN BR 2300 230 0 0 0
2019/10/30 03:35:01 BASE 22.02 18 24.08 20 1.0 100 1.0 0 0 979.0 NA 0.0000 -SN BR 2600 230 0 0 0
2019/10/30 03:36:01 BASE 22.04 17 24.08 20 1.0 100 1.0 0 0 979.0 NA 0.2540 -SN BR 2500 260 0 0 0
2019/10/30 03:37:01 BASE 22.65 16 24.95 15 1.0 100 1.0 0 0 979.0 NA 0.0000 -SN BR 2500 300 0 0 0
2019/10/30 03:38:01 BASE 22.55 12 24.95 15 1.0 100 1.0 0 0 979.1 NA 0.0000 -SN BR 2300 260 0 0 0
2019/10/30 03:39:01 BASE 21.72 12 24.95 15 1.0 100 1.0 0 0 979.1 NA 0.0000 -SN BR 3200 230 0 0 0
2019/10/30 03:40:01 BASE 21.08 16 24.95 15 1.0 100 1.0 0 0 979.2 NA 0.2540 -SN BR 2600 230 0 0 0
2019/10/30 03:41:01 BASE 20.96 16 24.95 15 1.0 100 1.0 0 0 979.2 NA 0.0000 -SN BR 2300 0 0 0 1670
2019/10/30 03:42:01 BASE 21.21 15 24.95 15 1.0 100 1.0 0 0 979.2 NA 0.0000 -SN BR 2700 0 0 0 1670
2019/10/30 03:43:01 BASE 21.98 17 24.95 8 1.0 100 1.0 0 0 979.1 NA 0.0000 -SN BR 2700 0 0 0 1570
2019/10/30 03:44:01 BASE 22.92 14 26.44 9 1.0 100 1.0 0 0 979.0 NA 0.0000 -SN BR 2100 0 0 0 1510
2019/10/30 03:45:01 BASE 22.59 9 26.44 9 1.0 100 1.0 0 0 979.1 NA 0.0000 -SN BR 2600 0 0 0 1570
2019/10/30 03:46:01 BASE 21.53 11 26.44 9 1.0 100 1.0 0 0 979.2 NA 0.2540 -SN BR 2500 0 0 0 1440
2019/10/30 03:47:01 BASE 20.88 12 26.44 9 1.0 100 1.0 0 0 979.2 NA 0.0000 -SN BR 2400 230 0 0 0
2019/10/30 03:48:01 BASE 21.00 11 26.44 9 1.0 100 1.0 0 0 979.1 NA 0.0000 -SN BR 2200 230 0 0 0
2019/10/30 03:49:01 BASE 21.03 12 26.44 9 1.1 100 1.1 0 0 979.2 NA 0.0000 -SN BR 3200 230 0 0 0
2019/10/30 03:50:01 BASE 21.15 14 26.44 9 1.0 100 1.0 0 0 979.1 NA 0.2540 -SN BR 2300 230 0 0 0
2019/10/30 03:51:01 BASE 21.63 15 26.44 9 1.0 100 1.0 0 0 979.1 NA 0.0000 -SN BR 2600 0 0 0 1310
2019/10/30 03:52:01 BASE 21.76 14 26.44 9 1.0 100 1.0 0 0 979.2 NA 0.0000 -SN BR 2400 0 0 0 1280
2019/10/30 03:53:01 BASE 21.81 13 26.44 9 1.0 100 1.0 0 0 979.1 NA 0.0000 -SN BR 2600 200 0 0 0
2019/10/30 03:54:01 BASE 22.58 13 25.26 11 1.0 100 1.0 0 0 979.1 NA 0.0000 -SN BR 1900 0 0 0 1250
2019/10/30 03:55:01 BASE 23.12 14 25.26 11 1.0 100 1.0 0 0 979.1 NA 0.2540 -SN BR 2700 0 0 0 1250
2019/10/30 03:56:01 BASE 22.51 14 25.26 11 1.0 100 1.0 0 0 979.2 NA 0.0000 -SN BR 2200 0 0 0 1250
2019/10/30 03:57:01 BASE 22.15 14 25.26 11 1.0 100 1.0 0 0 979.1 NA 0.0000 -SN BR 2600 230 0 0 0
2019/10/30 03:58:01 BASE 22.56 12 25.26 11 1.0 100 1.0 0 0 979.0 NA 0.0000 -SN BR 2900 230 0 0 0
2019/10/30 03:59:01 BASE 22.94 12 25.41 26 1.0 100 1.0 0 0 979.1 NA 0.2540 -SN BR 2600 0 0 0 1120
2019/10/30 04:00:01 BASE 22.31 15 25.41 26 1.0 100 1.0 0 0 979.2 NA 0.0000 -SN BR 2700 200 0 0 0
2019/10/30 04:01:00 BASE 21.31 15 25.41 26 1.0 100 1.0 0 0 979.3 NA 0.0000 -SN BR 2300 230 0 0 0
2019/10/30 04:02:00 BASE 21.71 14 25.41 26 1.0 100 1.0 0 0 979.2 NA 0.0000 -SN BR 3600 230 0 0 0
2019/10/30 04:03:00 BASE 22.67 17 25.41 26 0.9 100 0.9 0 0 979.2 NA 0.0000 -SN BR 2900 230 0 0 0
2019/10/30 04:04:00 BASE 22.69 18 25.41 26 0.9 100 0.9 0 0 979.2 NA 0.0000 -SN BR 2400 260 0 0 0
2019/10/30 04:05:00 BASE 22.23 17 25.41 26 0.9 100 0.9 0 0 979.2 NA 0.2540 -SN BR 2800 260 0 0 0
2019/10/30 04:06:00 BASE 22.87 18 27.21 17 0.9 100 0.9 0 0 979.1 NA 0.0000 -SN BR 3500 300 0 0 0
2019/10/30 04:07:00 BASE 22.96 19 27.21 17 0.9 100 0.9 0 0 979.2 NA 0.0000 -SN BR 2600 260 0 0 0
2019/10/30 04:08:00 BASE 22.42 18 27.21 17 0.9 100 0.9 0 0 979.2 NA 0.0000 -SN BR 3100 300 0 0 0
2019/10/30 04:09:00 BASE 22.46 18 27.21 17 0.9 100 0.9 0 0 979.3 NA 0.2540 -SN BR 2600 260 0 0 0
2019/10/30 04:10:00 BASE 23.32 19 27.27 18 0.9 100 0.9 0 0 979.2 NA 0.0000 -SN BR 3400 260 0 0 0
2019/10/30 04:11:00 BASE 24.36 18 27.27 18 0.9 100 0.9 0 0 979.1 NA 0.0000 -SN BR 2600 260 0 0 0
2019/10/30 04:12:00 BASE 23.39 19 27.27 18 0.9 100 0.9 0 0 979.2 NA 0.0000 -SN BR 2600 230 0 0 0
2019/10/30 04:13:00 BASE 23.39 20 27.27 18 0.9 100 0.9 0 0 979.2 NA 0.2540 -SN BR 3000 260 0 0 0
2019/10/30 04:14:00 BASE 23.96 19 27.27 18 0.9 100 0.9 0 0 979.2 NA 0.0000 -SN BR 2400 200 0 0 0
2019/10/30 04:15:00 BASE 23.10 18 27.27 18 0.9 100 0.9 0 0 979.2 NA 0.0000 -SN BR 2600 200 0 0 0
2019/10/30 04:16:00 BASE 23.27 18 27.27 18 0.9 100 0.9 0 0 979.2 NA 0.0000 -SN BR 2600 230 0 0 0
2019/10/30 04:17:00 BASE 24.09 19 27.27 18 0.9 100 0.9 0 0 979.2 NA 0.0000 -SN BR 2300 230 0 0 0
2019/10/30 04:18:00 BASE 24.21 20 27.27 18 0.9 100 0.9 0 0 979.2 NA 0.2540 -SN BR 2200 200 0 0 0
2019/10/30 04:19:00 BASE 24.35 20 27.27 18 0.9 100 0.9 0 0 979.1 NA 0.0000 -SN BR 1500 0 0 0 1440
2019/10/30 04:20:00 BASE 24.00 18 27.06 22 0.9 100 0.9 0 0 979.2 NA 0.0000 -SN BR 2200 0 0 0 1480
2019/10/30 04:21:00 BASE 23.99 19 27.06 22 1.0 100 1.0 0 0 979.2 NA 0.0000 -SN BR 2600 0 0 0 1440
2019/10/30 04:22:00 BASE 24.41 22 27.06 22 1.0 100 1.0 0 0 979.2 NA 0.0000 -SN BR 1900 0 0 0 1510
2019/10/30 04:23:00 BASE 25.16 20 28.14 16 1.0 100 1.0 0 0 979.1 NA 0.2540 -SN BR 1600 0 0 0 1510
2019/10/30 04:24:00 BASE 24.97 18 28.14 16 1.0 100 1.0 0 0 979.2 NA 0.0000 -SN BR 1700 0 0 0 1540
2019/10/30 04:25:00 BASE 23.84 19 28.14 16 1.0 100 1.0 0 0 979.3 NA 0.0000 -SN BR 1700 0 0 0 1510
2019/10/30 04:26:00 BASE 24.21 19 28.14 16 0.9 100 0.9 0 0 979.2 NA 0.0000 -SN BR 2000 0 0 0 1540
2019/10/30 04:27:00 BASE 24.90 20 28.14 16 0.9 100 0.9 0 0 979.2 NA 0.2540 -SN BR 2300 0 0 0 1440
2019/10/30 04:28:00 BASE 23.94 19 28.14 16 0.9 100 0.9 0 0 979.3 NA 0.0000 -SN BR 1800 230 0 0 0
2019/10/30 04:29:00 BASE 23.22 19 28.14 16 0.9 100 0.9 0 0 979.3 NA 0.0000 -SN BR 2500 330 0 0 0
2019/10/30 04:30:00 BASE 23.78 21 28.14 16 0.9 100 0.9 0 0 979.3 NA 0.0000 -SN BR 2600 260 0 0 0
2019/10/30 04:31:00 BASE 24.02 21 28.14 16 0.9 100 0.9 0 0 979.3 NA 0.0000 -SN BR 2200 260 0 0 0
2019/10/30 04:32:00 BASE 23.93 20 28.14 16 1.0 100 1.0 0 0 979.3 NA 0.2540 -SN BR 2200 230 0 0 0
2019/10/30 04:33:00 BASE 24.35 20 27.21 23 1.0 100 1.0 0 0 979.3 NA 0.0000 -SN BR 1500 0 0 0 1570
2019/10/30 04:34:00 BASE 24.39 20 27.21 23 1.0 100 1.0 0 0 979.3 NA 0.0000 -SN BR 2300 200 0 0 0
2019/10/30 04:35:00 BASE 23.40 18 27.21 23 1.0 100 1.0 0 0 979.4 NA 0.0000 -SN BR 2400 0 0 0 1770
2019/10/30 04:36:00 BASE 22.46 15 27.11 21 0.9 100 0.9 0 0 979.4 NA 0.2540 -SN BR 2100 0 0 0 1740
2019/10/30 04:37:00 BASE 23.74 17 27.27 24 1.0 100 1.0 0 0 979.3 NA 0.0000 -SN BR 2300 0 0 0 1740
2019/10/30 04:38:00 BASE 25.44 17 28.50 19 1.0 100 1.0 0 0 979.3 NA 0.0000 -SN BR 2000 0 0 0 1710
2019/10/30 04:39:00 BASE 24.64 16 28.50 19 1.0 100 1.0 0 0 979.3 NA 0.0000 -SN BR 2400 0 0 0 1770
2019/10/30 04:40:00 BASE 23.81 19 28.50 19 1.0 100 1.0 0 0 979.4 NA 0.0000 -SN BR 2500 0 0 0 1770
2019/10/30 04:41:00 BASE 23.72 18 28.50 19 1.0 100 1.0 0 0 979.3 NA 0.2540 -SN BR 2400 230 0 0 0
2019/10/30 04:42:00 BASE 23.97 15 28.50 19 1.0 100 1.0 0 0 979.4 NA 0.0000 -SN BR 3000 230 0 0 0
2019/10/30 04:43:00 BASE 24.04 16 28.50 19 1.0 100 1.0 0 0 979.4 NA 0.0000 -SN BR 2300 230 0 0 0
2019/10/30 04:44:00 BASE 23.23 16 28.50 19 0.9 100 0.9 0 0 979.5 NA 0.0000 -SN BR 2000 0 0 0 1870
2019/10/30 04:45:00 BASE 23.56 17 28.50 19 0.9 100 0.9 0 0 979.4 NA 0.0000 -SN BR 2500 0 0 0 1800
2019/10/30 04:46:00 BASE 24.35 17 28.50 19 0.9 100 0.9 0 0 979.4 NA 0.2540 -SN BR 1900 0 0 0 1770
2019/10/30 04:47:00 BASE 24.76 18 28.50 19 0.9 100 0.9 0 0 979.4 NA 0.0000 -SN BR 2300 0 0 0 1710
2019/10/30 04:48:00 BASE 24.55 21 27.52 13 0.9 100 0.9 0 0 979.4 NA 0.0000 -SN BR 1300 0 0 0 1800
2019/10/30 04:49:00 BASE 24.04 21 27.52 13 0.9 100 0.9 0 0 979.4 NA 0.0000 -SN BR 2100 230 0 0 0
2019/10/30 04:50:00 BASE 24.14 21 27.52 13 0.9 100 0.9 0 0 979.5 NA 0.0000 -SN BR 1600 0 0 0 1640
2019/10/30 04:51:00 BASE 24.60 21 27.52 13 0.9 100 0.9 0 0 979.5 NA 0.0000 -SN BR 1800 0 0 0 1510
2019/10/30 04:52:00 BASE 24.35 20 27.52 13 0.9 100 0.9 0 0 979.5 NA 0.2540 -SN BR 1700 0 0 0 1480
2019/10/30 04:53:01 BASE 23.34 19 27.52 13 0.9 100 0.9 0 0 979.6 NA 0.0000 -SN BR 1900 0 0 0 1440
2019/10/30 04:54:00 BASE 23.78 18 27.52 13 0.9 100 0.9 0 0 979.5 NA 0.0000 -SN BR 2100 260 0 0 0
2019/10/30 04:55:00 BASE 25.09 19 28.24 17 0.9 100 0.9 0 0 979.5 NA 0.0000 -SN BR 2600 230 0 0 0
2019/10/30 04:56:00 BASE 25.73 21 28.24 17 0.9 100 0.9 0 0 979.4 NA 0.2540 -SN BR 2200 0 0 0 1380
2019/10/30 04:57:00 BASE 25.77 21 28.86 23 0.9 100 0.9 0 0 979.4 NA 0.0000 -SN BR 1900 0 0 0 1410
2019/10/30 04:58:00 BASE 25.19 18 28.86 23 0.9 100 0.9 0 0 979.5 NA 0.0000 -SN BR 2300 0 0 0 1410
2019/10/30 04:59:00 BASE 24.05 19 28.86 23 0.9 100 0.9 0 0 979.5 NA 0.0000 -SN BR 2400 0 0 0 1410
2019/10/30 05:00:00 BASE 24.05 20 28.86 23 0.9 100 0.9 0 0 979.4 NA 0.0000 -SN BR 2300 0 0 0 1410
2019/10/30 05:01:00 BASE 25.22 18 28.86 23 0.9 100 0.9 0 0 979.5 NA 0.2540 -SN BR 2000 0 0 0 1380
2019/10/30 05:02:00 BASE 26.02 19 28.86 23 0.9 100 0.9 0 0 979.5 NA 0.0000 -SN BR 2100 0 0 0 1380
2019/10/30 05:03:00 BASE 25.58 21 28.86 23 0.9 100 0.9 0 0 979.6 NA 0.0000 -SN BR 2400 0 0 0 1380
2019/10/30 05:04:00 BASE 25.15 19 28.86 23 0.9 100 0.9 0 0 979.5 NA 0.0000 -SN BR 2500 0 0 0 1440
2019/10/30 05:05:00 BASE 25.81 18 28.86 23 0.9 100 0.9 0 0 979.5 NA 0.2540 -SN BR 2600 0 0 0 1570
2019/10/30 05:06:00 BASE 25.62 18 28.86 23 0.9 100 0.9 0 0 979.5 NA 0.0000 -SN BR 2900 0 0 0 1710
2019/10/30 05:07:00 BASE 24.44 16 27.78 19 0.9 100 0.9 0 0 979.6 NA 0.0000 -SN BR 3200 300 0 0 0
2019/10/30 05:08:00 BASE 23.66 13 27.78 19 0.9 100 0.9 0 0 979.7 NA 0.0000 -SN BR 3700 200 0 0 0
2019/10/30 05:09:00 BASE 22.32 15 27.78 19 0.9 100 0.9 0 0 979.7 NA 0.0000 -SN BR 3700 260 0 0 0
2019/10/30 05:10:00 BASE 23.04 19 27.78 19 0.9 100 0.9 0 0 979.6 NA 0.2540 -SN BR 3500 230 0 0 0
2019/10/30 05:11:00 BASE 24.83 19 27.68 17 0.9 100 0.9 0 0 979.6 NA 0.0000 -SN BR 2900 0 0 0 1350
2019/10/30 05:12:00 BASE 24.77 18 27.68 17 0.9 100 0.9 0 0 979.6 NA 0.0000 -SN BR 3000 230 0 0 0
2019/10/30 05:13:00 BASE 24.34 18 27.73 12 0.9 100 0.9 0 0 979.6 NA 0.0000 -SN BR 2100 0 0 0 1350
2019/10/30 05:14:00 BASE 24.91 19 27.73 12 0.9 100 0.9 0 0 979.6 NA 0.2540 -SN BR 1700 230 0 0 0
2019/10/30 05:15:00 BASE 25.08 21 27.73 12 0.9 100 0.9 0 0 979.7 NA 0.0000 -SN BR 2600 260 0 0 0
2019/10/30 05:16:00 BASE 23.73 20 27.73 12 0.9 100 0.9 0 0 979.7 NA 0.0000 -SN BR 2300 300 0 0 0
2019/10/30 05:17:00 BASE 23.95 21 27.73 12 0.9 100 0.9 0 0 979.6 NA 0.0000 -SN BR 2500 300 0 0 0
2019/10/30 05:18:00 BASE 23.77 23 27.73 12 0.9 100 0.9 0 0 979.7 NA 0.2540 -SN BR 2500 300 0 0 0
2019/10/30 05:19:00 BASE 23.15 22 27.73 12 0.9 100 0.9 0 0 979.7 NA 0.0000 -SN BR 2600 330 0 0 0
2019/10/30 05:20:00 BASE 24.17 20 27.73 12 0.9 100 0.9 0 0 979.7 NA 0.0000 -SN BR 3200 260 0 0 0
2019/10/30 05:21:01 BASE 24.48 19 27.73 12 0.9 100 0.9 0 0 979.7 NA 0.0000 -SN BR 2500 260 0 0 0
2019/10/30 05:22:00 BASE 23.45 20 27.73 12 0.9 100 0.9 0 0 979.8 NA 0.2540 -SN BR 3200 300 0 0 0
2019/10/30 05:23:01 BASE 22.64 17 27.42 18 1.0 100 1.0 0 0 979.7 NA 0.0000 -SN BR 3400 300 0 0 0
2019/10/30 05:24:00 BASE 21.94 16 26.60 20 1.0 100 1.0 0 0 979.8 NA 0.0000 -SN BR 3200 300 0 0 0
2019/10/30 05:25:00 BASE 21.72 19 26.60 20 1.0 100 1.0 0 0 979.8 NA 0.0000 -SN BR 3400 330 0 0 0
2019/10/30 05:26:01 BASE 22.67 22 26.60 20 1.0 100 1.0 0 0 979.8 NA 0.0000 -SN BR 3000 330 0 0 0
2019/10/30 05:27:00 BASE 23.05 22 26.60 20 1.0 100 1.0 0 0 979.9 NA 0.2540 -SN BR 3200 360 0 0 0
2019/10/30 05:28:00 BASE 22.83 21 26.60 20 1.0 100 1.0 0 0 979.9 NA 0.0000 -SN BR 3700 330 0 0 0
2019/10/30 05:29:00 BASE 22.61 20 26.60 20 1.0 100 1.0 0 0 979.9 NA 0.0000 -SN BR 3600 300 0 0 0
2019/10/30 05:30:00 BASE 23.40 20 26.60 20 1.0 100 1.0 0 0 979.8 NA 0.0000 -SN BR 3400 330 0 0 0
2019/10/30 05:31:00 BASE 23.29 20 25.36 21 1.1 100 1.1 0 0 979.9 NA 0.0000 -SN BR 3500 330 0 0 0
2019/10/30 05:32:00 BASE 22.31 19 25.36 21 1.0 100 1.0 0 0 979.9 NA 0.2540 -SN BR 3500 330 0 0 0
2019/10/30 05:33:01 BASE 22.73 19 25.36 21 1.0 100 1.0 0 0 979.9 NA 0.0000 -SN BR 3700 300 0 0 0
2019/10/30 05:34:01 BASE 23.73 20 25.77 24 1.0 100 1.0 0 0 979.8 NA 0.0000 -SN BR 4100 360 0 0 0
2019/10/30 05:35:01 BASE 23.71 23 25.77 24 1.0 100 1.0 0 0 979.9 NA 0.0000 -SN BR 4100 360 0 0 0
2019/10/30 05:36:01 BASE 23.02 24 25.77 24 1.0 100 1.0 0 0 979.9 NA 0.0000 -SN BR 3800 330 0 0 0
2019/10/30 05:37:01 BASE 23.02 24 25.77 24 1.1 100 1.1 0 0 979.9 NA 0.0000 -SN BR 3600 330 0 0 0
2019/10/30 05:38:01 BASE 22.57 23 25.77 24 1.1 100 1.1 0 0 979.9 NA 0.2540 -SN BR 3500 330 0 0 0
2019/10/30 05:39:00 BASE 23.00 21 25.77 24 1.1 100 1.1 0 0 979.9 NA 0.0000 -SN BR 3100 300 0 0 0
2019/10/30 05:40:00 BASE 23.84 23 25.98 20 1.1 100 1.1 0 0 979.9 NA 0.0000 -SN BR 2900 300 0 0 0
2019/10/30 05:41:00 BASE 23.32 23 25.98 20 1.1 100 1.1 0 0 979.9 NA 0.0000 -SN BR 3000 300 0 0 0
2019/10/30 05:42:00 BASE 22.93 23 25.98 20 1.1 100 1.1 0 0 979.9 NA 0.0000 -SN BR 3300 300 0 0 0
2019/10/30 05:43:00 BASE 22.14 25 25.98 20 1.1 100 1.1 0 0 980.0 NA 0.0000 -SN BR 3100 300 0 0 0
2019/10/30 05:44:00 BASE 22.24 23 25.98 20 1.1 100 1.1 0 0 980.0 NA 0.2540 -SN BR 3500 330 0 0 0
2019/10/30 05:45:00 BASE 23.56 21 25.98 20 1.1 100 1.1 0 0 979.9 NA 0.0000 -SN BR 3300 300 0 0 0
2019/10/30 05:46:00 BASE 23.90 20 25.98 20 1.1 100 1.1 0 0 979.9 NA 0.0000 -SN BR 2800 260 0 0 0
2019/10/30 05:47:00 BASE 23.44 19 25.98 20 1.1 100 1.1 0 0 980.0 NA 0.0000 -SN BR 2300 300 0 0 0
2019/10/30 05:48:00 BASE 23.53 18 25.98 20 1.1 100 1.1 0 0 979.9 NA 0.0000 -SN BR 2900 330 0 0 0
2019/10/30 05:49:00 BASE 22.89 18 25.98 20 1.1 100 1.1 0 0 980.1 NA 0.0000 -SN BR 3800 330 0 0 0
2019/10/30 05:50:00 BASE 21.64 18 25.88 18 1.1 100 1.1 0 0 980.1 NA 0.2540 -SN BR 3700 360 0 0 0
2019/10/30 05:51:00 BASE 21.79 19 25.88 18 1.1 100 1.1 0 0 980.1 NA 0.0000 -SN BR 3200 300 0 0 0
2019/10/30 05:52:00 BASE 22.70 19 26.60 17 1.1 100 1.1 0 0 980.0 NA 0.0000 -SN BR 2800 300 0 0 0
2019/10/30 05:53:00 BASE 22.09 17 26.60 17 1.0 100 1.0 0 0 980.1 NA 0.0000 -SN BR 2600 330 0 0 0
2019/10/30 05:54:00 BASE 21.86 18 26.60 17 1.0 100 1.0 0 0 980.2 NA 0.0000 -SN BR 3100 330 0 0 0
2019/10/30 05:55:00 BASE 22.64 18 26.60 17 1.0 100 1.0 0 0 980.2 NA 0.2540 -SN BR 2800 330 0 0 0
2019/10/30 05:56:00 BASE 22.07 16 26.60 17 1.1 100 1.1 0 0 980.2 NA 0.0000 -SN BR 2900 330 0 0 0
2019/10/30 05:57:00 BASE 21.38 14 26.60 17 1.1 100 1.1 0 0 980.2 NA 0.0000 -SN BR 3600 330 0 0 0
2019/10/30 05:58:00 BASE 20.31 12 26.60 17 1.1 100 1.1 0 0 980.3 NA 0.0000 -SN BR 3800 330 0 0 0
2019/10/30 05:59:00 BASE 19.68 13 26.60 17 1.1 100 1.1 0 0 980.3 NA 0.0000 -SN BR 7000 330 0 0 0
2019/10/30 06:00:01 BASE 19.74 13 26.60 17 1.1 100 1.1 0 0 980.3 NA 0.0000 -SN BR 4500 330 0 0 0
2019/10/30 06:01:01 BASE 20.06 11 26.60 17 1.1 100 1.1 0 0 980.3 NA 0.2540 -SN BR 4000 330 0 0 0
2019/10/30 06:02:00 BASE 20.28 13 25.05 17 1.1 100 1.1 0 0 980.3 NA 0.0000 -SN BR 4900 330 0 0 0
2019/10/30 06:03:00 BASE 21.08 17 25.05 17 1.1 100 1.1 0 0 980.2 NA 0.0000 -SN BR 4100 330 0 0 0
2019/10/30 06:04:01 BASE 21.50 21 25.88 22 1.1 100 1.1 0 0 980.3 NA 0.0000 -SN BR 3200 330 0 0 0
2019/10/30 06:05:00 BASE 22.18 21 25.88 22 1.1 100 1.1 0 0 980.2 NA 0.0000 -SN BR 2900 360 0 0 0
2019/10/30 06:06:00 BASE 22.97 20 25.88 22 1.1 100 1.1 0 0 980.2 NA 0.0000 -SN BR 2600 390 0 0 0
2019/10/30 06:07:00 BASE 22.12 20 25.88 22 1.1 100 1.1 0 0 980.3 NA 0.2540 -SN BR 3400 390 0 0 0
2019/10/30 06:08:00 BASE 21.71 21 25.88 22 1.1 100 1.1 0 0 980.3 NA 0.0000 -SN BR 3500 330 0 0 0
2019/10/30 06:09:00 BASE 22.40 22 25.88 22 1.1 100 1.1 0 0 980.2 NA 0.0000 -SN BR 3600 330 0 0 0
2019/10/30 06:10:00 BASE 23.36 22 26.96 29 1.1 100 1.1 0 0 980.2 NA 0.0000 -SN BR 3800 330 0 0 0
2019/10/30 06:11:00 BASE 24.69 23 28.24 20 1.2 100 1.2 0 0 980.1 NA 0.0000 -SN BR 3600 330 0 0 0
2019/10/30 06:12:00 BASE 25.20 23 28.24 20 1.2 100 1.2 0 0 980.1 NA 0.0000 -SN BR 2800 360 0 0 0
2019/10/30 06:13:00 BASE 23.46 25 28.24 20 1.2 100 1.2 0 0 980.2 NA 0.2540 -SN BR 2600 390 0 0 0
2019/10/30 06:14:00 BASE 22.53 25 28.24 20 1.2 100 1.2 0 0 980.3 NA 0.0000 -SN BR 2500 0 0 0 1900
2019/10/30 06:15:00 BASE 22.84 24 28.24 20 1.2 100 1.2 0 0 980.2 NA 0.0000 -SN BR 3200 330 0 0 0
2019/10/30 06:16:00 BASE 23.27 26 28.24 20 1.1 100 1.1 0 0 980.2 NA 0.0000 -SN BR 2800 360 0 0 0
2019/10/30 06:17:00 BASE 23.79 26 28.24 20 1.1 100 1.1 0 0 980.2 NA 0.0000 -SN BR 2100 330 0 0 0
2019/10/30 06:18:00 BASE 23.76 28 28.24 20 1.1 100 1.1 0 0 980.3 NA 0.2540 -SN BR 2600 330 0 0 0
2019/10/30 06:19:00 BASE 24.16 27 28.24 20 1.1 100 1.1 0 0 980.3 NA 0.0000 -SN BR 2500 300 0 0 0
2019/10/30 06:20:00 BASE 24.54 24 28.24 20 1.2 100 1.2 0 0 980.3 NA 0.0000 -SN BR 2200 330 0 0 0
2019/10/30 06:21:00 BASE 24.47 22 28.09 23 1.1 100 1.1 0 0 980.3 NA 0.0000 -SN BR 2400 330 0 0 0
2019/10/30 06:22:00 BASE 24.22 23 28.09 23 1.1 100 1.1 0 0 980.3 NA 0.0000 -SN BR 2400 360 0 0 0
2019/10/30 06:23:00 BASE 24.90 22 28.09 23 1.1 100 1.1 0 0 980.2 NA 0.0000 -SN BR 2700 300 0 0 0
2019/10/30 06:24:00 BASE 25.72 21 28.09 22 1.1 100 1.1 0 0 980.2 NA 0.2540 -SN BR 3000 330 0 0 0
2019/10/30 06:25:00 BASE 25.19 22 28.09 22 1.1 100 1.1 0 0 980.3 NA 0.0000 -SN BR 2500 330 0 0 0
2019/10/30 06:26:00 BASE 24.83 21 28.09 22 1.1 100 1.1 0 0 980.4 NA 0.0000 -SN BR 2400 330 0 0 0
2019/10/30 06:27:00 BASE 25.12 21 28.09 22 1.1 100 1.1 0 0 980.3 NA 0.0000 -SN BR 3500 300 0 0 0
2019/10/30 06:28:00 BASE 24.66 21 28.09 22 1.1 100 1.1 0 0 980.4 NA 0.0000 -SN BR 3100 330 0 0 0
2019/10/30 06:29:00 BASE 24.32 20 28.09 22 1.1 100 1.1 0 0 980.4 NA 0.0000 -SN BR 3100 300 0 0 0
2019/10/30 06:30:00 BASE 23.96 19 28.09 22 1.1 100 1.1 0 0 980.4 NA 0.2540 -SN BR 2800 330 0 0 0
2019/10/30 06:31:00 BASE 24.19 21 28.09 22 1.1 100 1.1 0 0 980.4 NA 0.0000 -SN BR 3200 260 0 0 0
2019/10/30 06:32:00 BASE 25.54 20 28.09 22 1.1 100 1.1 0 0 980.3 NA 0.0000 -SN BR 2200 300 0 0 0
2019/10/30 06:33:00 BASE 24.94 17 28.09 22 1.1 100 1.1 0 0 980.4 NA 0.0000 -SN BR 2900 360 0 0 0
2019/10/30 06:34:00 BASE 23.58 17 27.73 19 1.1 100 1.1 0 0 980.5 NA 0.0000 -SN BR 3500 300 0 0 0
2019/10/30 06:35:00 BASE 22.49 18 27.68 20 1.1 100 1.1 0 0 980.5 NA 0.0000 -SN BR 2700 300 0 0 0
2019/10/30 06:36:00 BASE 22.26 17 27.68 20 1.1 100 1.1 0 0 980.5 NA 0.2540 -SN BR 2900 330 0 0 0
2019/10/30 06:37:00 BASE 23.37 18 27.37 23 1.1 100 1.1 0 0 980.5 NA 0.0000 -SN BR 2700 300 0 0 0
2019/10/30 06:38:00 BASE 23.70 19 27.37 23 1.1 100 1.1 0 0 980.4 NA 0.0000 -SN BR 2300 330 0 0 0
2019/10/30 06:39:00 BASE 24.55 20 29.48 18 1.1 100 1.1 0 0 980.4 NA 0.0000 -SN BR 2400 330 0 0 0
2019/10/30 06:40:00 BASE 26.03 21 29.48 18 1.1 100 1.1 0 0 980.4 NA 0.0000 -SN BR 2200 330 0 0 0
2019/10/30 06:41:00 BASE 24.95 21 29.48 18 1.1 100 1.1 0 0 980.5 NA 0.2540 -SN BR 1700 330 0 0 0
2019/10/30 06:42:00 BASE 23.95 20 29.48 18 1.1 100 1.1 0 0 980.4 NA 0.0000 -SN BR 2700 330 0 0 0
2019/10/30 06:43:00 BASE 24.34 21 29.48 18 1.1 100 1.1 0 0 980.5 NA 0.0000 -SN BR 2500 330 0 0 0
2019/10/30 06:44:00 BASE 24.56 23 29.48 18 1.1 100 1.1 0 0 980.4 NA 0.0000 -SN BR 2100 360 0 0 0
2019/10/30 06:45:00 BASE 24.44 21 29.48 18 1.1 100 1.1 0 0 980.5 NA 0.2540 -SN BR 2700 330 0 0 0
2019/10/30 06:46:00 BASE 25.12 22 29.48 18 1.2 100 1.2 0 0 980.4 NA 0.0000 -SN BR 2800 330 0 0 0
2019/10/30 06:47:00 BASE 27.02 22 30.97 14 1.2 100 1.2 0 0 980.3 NA 0.0000 -SN BR 2300 330 0 0 0
2019/10/30 06:48:00 BASE 27.17 21 30.97 14 1.2 100 1.2 0 0 980.4 NA 0.0000 -SN BR 2400 300 0 0 0
2019/10/30 06:49:00 BASE 26.73 22 30.97 14 1.2 100 1.2 0 0 980.4 NA 0.2540 -SN BR 2400 300 0 0 0
2019/10/30 06:50:00 BASE 27.64 22 31.64 14 1.2 100 1.2 0 0 980.2 NA 0.0000 -SN BR 2200 330 0 0 0
2019/10/30 06:51:00 BASE 27.03 20 31.64 14 1.2 100 1.2 0 0 980.5 NA 0.0000 -SN BR 2400 330 0 0 0
2019/10/30 06:52:00 BASE 25.25 20 31.64 14 1.2 100 1.2 0 0 980.5 NA 0.0000 -SN BR 2200 300 0 0 0
2019/10/30 06:53:00 BASE 25.25 22 31.64 14 1.2 100 1.2 0 0 980.5 NA 0.0000 -SN BR 2200 300 0 0 0
2019/10/30 06:54:00 BASE 25.54 20 31.64 14 1.2 100 1.2 0 0 980.4 NA 0.2540 -SN BR 2400 330 0 0 0
2019/10/30 06:55:00 BASE 25.59 18 31.64 14 1.2 100 1.2 0 0 980.5 NA 0.0000 -SN BR 3300 360 0 0 0
2019/10/30 06:56:00 BASE 26.00 20 31.64 14 1.2 100 1.2 0 0 980.5 NA 0.0000 -SN BR 3300 330 0 0 0
2019/10/30 06:57:00 BASE 26.05 21 31.64 14 1.2 100 1.2 0 0 980.4 NA 0.0000 -SN BR 3400 330 0 0 0
2019/10/30 06:58:00 BASE 26.59 21 31.64 14 1.2 100 1.2 0 0 980.4 NA 0.2540 -SN BR 3200 360 0 0 0
2019/10/30 06:59:00 BASE 26.09 22 31.64 14 1.2 100 1.2 0 0 980.5 NA 0.0000 -SN BR 2600 300 0 0 0
2019/10/30 07:00:00 BASE 24.09 22 29.63 19 1.2 100 1.2 0 0 980.6 NA 0.0000 -SN BR 2500 360 0 0 0
2019/10/30 07:01:00 BASE 23.71 22 29.63 19 1.2 100 1.2 0 0 980.5 NA 0.0000 -SN BR 2400 330 0 0 0
2019/10/30 07:02:00 BASE 24.82 22 29.63 19 1.2 100 1.2 0 0 980.5 NA 0.0000 -SN BR 3200 300 0 0 0
2019/10/30 07:03:00 BASE 26.68 19 32.00 20 1.2 100 1.2 0 0 980.3 NA 0.2540 -SN BR 3100 360 0 0 0
2019/10/30 07:04:00 BASE 26.06 19 32.00 20 1.2 100 1.2 0 0 980.6 NA 0.0000 -SN BR 2700 360 0 0 0
2019/10/30 07:05:00 BASE 24.78 20 32.00 20 1.2 100 1.2 0 0 980.5 NA 0.0000 -SN BR 3400 330 0 0 0
2019/10/30 07:06:00 BASE 24.24 22 32.00 20 1.2 100 1.2 0 0 980.6 NA 0.0000 -SN BR 3500 330 0 0 0
2019/10/30 07:07:00 BASE 23.76 22 32.00 20 1.2 100 1.2 0 0 980.6 NA 0.0000 -SN BR 3100 330 0 0 0
2019/10/30 07:08:00 BASE 24.60 23 32.00 20 1.2 100 1.2 0 0 980.6 NA 0.2540 -SN BR 2600 300 0 0 0
2019/10/30 07:09:00 BASE 23.78 22 32.00 20 1.2 100 1.2 0 0 980.6 NA 0.0000 -SN BR 2800 330 0 0 0
2019/10/30 07:10:00 BASE 23.50 21 32.00 20 1.2 100 1.2 0 0 980.5 NA 0.0000 -SN BR 3300 360 0 0 0
2019/10/30 07:11:00 BASE 24.60 22 32.00 20 1.2 100 1.2 0 0 980.5 NA 0.0000 -SN BR 3300 360 0 0 0
2019/10/30 07:12:00 BASE 25.04 22 32.00 20 1.2 100 1.2 0 0 980.5 NA 0.0000 -SN BR 3500 360 0 0 0
2019/10/30 07:13:00 BASE 24.97 21 29.58 18 1.2 100 1.2 0 0 980.5 NA 0.0000 -SN BR 3700 360 0 0 0
2019/10/30 07:14:00 BASE 24.90 21 29.58 18 1.2 100 1.2 0 0 980.5 NA 0.2540 -SN BR 3500 390 0 0 0
2019/10/30 07:15:00 BASE 25.13 22 28.60 18 1.3 100 1.3 0 0 980.5 NA 0.0000 -SN BR 3700 430 0 0 0
2019/10/30 07:16:00 BASE 25.28 22 28.60 18 1.3 100 1.3 0 0 980.5 NA 0.0000 -SN BR 3800 390 0 0 0
2019/10/30 07:17:00 BASE 25.89 21 28.86 18 1.3 100 1.3 0 0 980.5 NA 0.0000 -SN BR 3500 360 0 0 0
2019/10/30 07:18:00 BASE 25.85 22 28.86 18 1.3 100 1.3 0 0 980.6 NA 0.0000 -SN BR 3400 360 0 0 0
2019/10/30 07:19:00 BASE 25.32 21 29.07 21 1.3 100 1.3 0 0 980.6 NA 0.2540 -SN BR 3400 330 0 0 0
2019/10/30 07:20:00 BASE 24.18 19 29.07 21 1.3 100 1.3 0 0 980.7 NA 0.0000 -SN BR 3500 330 0 0 0
2019/10/30 07:21:01 BASE 23.79 20 29.07 21 1.3 100 1.3 0 0 980.6 NA 0.0000 -SN BR 2900 330 0 0 0
2019/10/30 07:22:00 BASE 24.56 20 29.07 21 1.3 100 1.3 0 0 980.6 NA 0.0000 -SN BR 2900 300 0 0 0
2019/10/30 07:23:00 BASE 24.43 19 29.07 21 1.2 100 1.2 0 0 980.6 NA 0.0000 -SN BR 3200 330 0 0 0
2019/10/30 07:24:01 BASE 24.98 18 29.07 21 1.2 100 1.2 0 0 980.6 NA 0.0000 -SN BR 3700 300 0 0 0
2019/10/30 07:25:01 BASE 25.19 18 29.07 21 1.2 100 1.2 0 0 980.6 NA 0.0000 -SN BR 3600 330 0 0 0
2019/10/30 07:26:00 BASE 24.16 15 29.07 21 1.2 100 1.2 0 0 980.6 NA 0.2540 -SN BR 3500 360 0 0 0
2019/10/30 07:27:00 BASE 23.21 13 29.07 21 1.2 100 1.2 0 0 980.7 NA 0.0000 -SN BR 3800 330 0 0 0
2019/10/30 07:28:00 BASE 21.95 12 29.07 21 1.2 100 1.2 0 0 980.8 NA 0.0000 -SN BR 3800 330 0 0 0
2019/10/30 07:29:00 BASE 22.03 11 27.93 19 1.3 100 1.3 0 0 980.7 NA 0.0000 -SN BR 5000 360 0 0 0
2019/10/30 07:30:00 BASE 22.89 14 27.93 19 1.3 100 1.3 0 0 980.7 NA 0.0000 -SN BR 4100 330 0 0 0
2019/10/30 07:31:00 BASE 22.56 14 27.93 19 1.3 100 1.3 0 0 980.7 NA 0.2540 -SN BR 3400 360 0 0 0
2019/10/30 07:32:00 BASE 22.89 11 27.93 19 1.3 100 1.3 0 0 980.6 NA 0.0000 -SN BR 3600 330 0 0 0
2019/10/30 07:33:00 BASE 23.31 5 27.93 19 1.4 100 1.4 0 0 980.6 NA 0.0000 -SN BR 3600 360 0 0 0
2019/10/30 07:34:00 BASE 23.41 4 27.88 20 1.4 100 1.4 0 0 980.6 NA 0.0000 -SN BR 7000 330 0 0 0
2019/10/30 07:35:00 BASE 22.42 8 26.44 13 1.3 100 1.3 0 0 980.8 NA 0.0000 -SN BR 7000 360 0 0 0
2019/10/30 07:36:00 BASE 22.17 13 26.55 7 1.3 100 1.3 0 0 980.7 NA 0.2540 -SN BR 4500 390 0 0 0
2019/10/30 07:37:00 BASE 24.81 16 30.87 16 1.3 100 1.3 0 0 980.6 NA 0.0000 -SN BR 3400 390 0 0 0
2019/10/30 07:38:00 BASE 25.13 11 30.87 16 1.3 100 1.3 0 0 980.7 NA 0.0000 -SN BR 3100 360 0 0 0
2019/10/30 07:39:00 BASE 24.92 13 30.87 16 1.3 100 1.3 0 0 980.7 NA 0.0000 -SN BR 4100 390 0 0 0
2019/10/30 07:40:00 BASE 24.48 19 30.87 16 1.4 100 1.4 0 0 980.7 NA 0.0000 -SN BR 3400 360 0 0 0
2019/10/30 07:41:00 BASE 23.48 18 30.87 16 1.4 100 1.4 0 0 980.7 NA 0.2540 -SN BR 4000 0 0 0 2070
2019/10/30 07:42:00 BASE 24.61 16 30.87 16 1.4 100 1.4 0 0 980.7 NA 0.0000 -SN BR 3700 430 0 0 0
2019/10/30 07:43:00 BASE 24.92 16 30.87 16 1.4 100 1.4 0 0 980.7 NA 0.0000 -SN BR 3400 360 0 0 0
2019/10/30 07:44:00 BASE 23.84 16 30.87 16 1.4 100 1.4 0 0 980.8 NA 0.0000 -SN BR 3600 360 0 0 0
2019/10/30 07:45:00 BASE 23.28 18 30.87 16 1.4 100 1.4 0 0 980.8 NA 0.0000 -SN BR 4100 390 0 0 0
2019/10/30 07:46:00 BASE 23.53 18 30.87 16 1.4 100 1.4 0 0 980.8 NA 0.0000 -SN BR 3800 360 0 0 0
2019/10/30 07:47:00 BASE 23.28 18 30.25 17 1.4 100 1.4 0 0 980.9 NA 0.2540 -SN BR 3900 390 0 0 0
2019/10/30 07:48:00 BASE 24.11 20 30.25 17 1.4 100 1.4 0 0 980.8 NA 0.0000 -SN BR 5000 390 0 0 0
2019/10/30 07:49:00 BASE 24.95 21 27.68 12 1.4 100 1.4 0 0 980.8 NA 0.0000 -SN BR 3800 390 0 0 0
2019/10/30 07:50:01 BASE 23.40 22 27.68 12 1.4 100 1.4 0 0 980.9 NA 0.0000 -SN BR 4500 390 0 0 0
2019/10/30 07:51:00 BASE 21.72 21 27.68 12 1.4 100 1.4 0 0 981.0 NA 0.0000 -SN BR 4300 390 0 0 0
2019/10/30 07:52:00 BASE 22.82 20 27.68 12 1.4 100 1.4 0 0 980.9 NA 0.0000 -SN BR 4800 360 0 0 0
2019/10/30 07:53:01 BASE 23.63 22 27.68 12 1.4 100 1.4 0 0 980.9 NA 0.2540 -SN BR 4100 390 0 0 0
2019/10/30 07:54:01 BASE 23.52 23 27.68 12 1.4 100 1.4 0 0 980.9 NA 0.0000 -SN BR 3700 360 0 0 0
2019/10/30 07:55:01 BASE 24.32 22 27.68 12 1.4 100 1.4 0 0 980.8 NA 0.0000 -SN BR 3400 360 0 0 0
2019/10/30 07:56:01 BASE 24.83 21 27.68 12 1.4 100 1.4 0 0 980.8 NA 0.0000 -SN BR 3700 330 0 0 0
2019/10/30 07:57:01 BASE 24.49 21 27.68 12 1.4 100 1.4 0 0 980.8 NA 0.0000 -SN BR 3800 330 0 0 0
2019/10/30 07:58:01 BASE 23.87 20 27.27 19 1.5 100 1.5 0 0 980.9 NA 0.0000 -SN BR 3800 330 0 0 0
2019/10/30 07:59:01 BASE 24.63 19 28.40 15 1.5 100 1.5 0 0 980.8 NA 0.0000 -SN BR 3300 360 0 0 0
2019/10/30 08:00:01 BASE 25.20 19 28.40 15 1.5 100 1.5 0 0 980.8 NA 0.2540 -SN BR 2500 360 0 0 0
2019/10/30 08:01:01 BASE 24.42 19 28.40 15 1.4 100 1.4 0 0 980.9 NA 0.0000 -SN BR 3000 360 0 0 0
2019/10/30 08:02:01 BASE 24.17 19 28.40 15 1.4 100 1.4 0 0 980.9 NA 0.0000 -SN BR 3600 430 0 0 0
2019/10/30 08:03:01 BASE 24.19 20 28.40 15 1.4 100 1.4 0 0 980.9 NA 0.0000 -SN BR 4100 390 0 0 0
2019/10/30 08:04:01 BASE 24.66 21 28.40 15 1.4 100 1.4 0 0 980.9 NA 0.0000 -SN BR 3400 430 0 0 0
2019/10/30 08:05:01 BASE 24.73 22 28.40 15 1.4 100 1.4 0 0 980.9 NA 0.0000 -SN BR 3000 360 0 0 0
2019/10/30 08:06:01 BASE 25.21 21 28.55 22 1.4 100 1.4 0 0 980.8 NA 0.2540 -SN BR 3500 360 0 0 0
2019/10/30 08:07:00 BASE 25.53 18 28.55 22 1.5 100 1.5 0 0 980.8 NA 0.0000 -SN BR 4300 390 0 0 0
2019/10/30 08:08:00 BASE 24.65 17 28.81 19 1.5 100 1.5 0 0 980.9 NA 0.0000 -SN BR 3700 390 0 0 0
2019/10/30 08:09:00 BASE 23.05 16 28.81 19 1.5 100 1.5 0 0 981.0 NA 0.0000 -SN BR 3900 360 0 0 0
2019/10/30 08:10:00 BASE 22.69 16 28.81 19 1.5 100 1.5 1 0 980.9 NA 0.0000 -SN BR 4600 390 0 0 0
2019/10/30 08:11:00 BASE 24.13 19 28.81 19 1.5 100 1.5 1 0 980.9 NA 0.0000 -SN BR 3200 360 0 0 0
2019/10/30 08:12:00 BASE 23.80 19 28.81 19 1.5 100 1.5 1 0 980.9 NA 0.2540 -SN BR 3100 360 0 0 0
2019/10/30 08:13:00 BASE 23.62 20 28.81 19 1.5 100 1.5 1 0 980.9 NA 0.0000 -SN BR 3700 390 0 0 0
2019/10/30 08:14:00 BASE 23.75 21 28.81 19 1.5 100 1.5 1 0 980.9 NA 0.0000 -SN BR 3600 390 0 0 0
2019/10/30 08:15:00 BASE 24.38 20 28.81 19 1.5 100 1.5 1 0 980.9 NA 0.0000 -SN BR 2200 390 0 0 0
2019/10/30 08:16:00 BASE 24.64 19 28.81 19 1.5 100 1.5 1 0 980.9 NA 0.0000 -SN BR 2000 430 0 0 0
2019/10/30 08:17:00 BASE 23.73 19 28.81 19 1.5 100 1.5 1 0 980.9 NA 0.0000 -SN BR 2300 390 0 0 0
2019/10/30 08:18:00 BASE 23.23 19 28.04 22 1.5 100 1.5 1 0 981.0 NA 0.2540 -SN BR 2400 390 0 0 0
2019/10/30 08:19:00 BASE 22.58 21 28.04 22 1.5 100 1.5 1 0 981.0 NA 0.0000 -SN BR 2800 430 0 0 0
2019/10/30 08:20:00 BASE 23.02 22 28.04 22 1.5 100 1.5 1 0 980.9 NA 0.0000 -SN BR 2200 360 0 0 0
2019/10/30 08:21:00 BASE 23.79 23 28.04 22 1.6 100 1.6 1 0 980.9 NA 0.0000 -SN BR 2000 300 0 0 0
2019/10/30 08:22:00 BASE 23.14 22 28.04 22 1.6 100 1.6 2 0 981.0 NA 0.0000 -SN BR 1900 360 0 0 0
2019/10/30 08:23:00 BASE 22.20 21 28.04 22 1.5 100 1.5 2 0 981.1 NA 0.0000 -SN BR 1800 300 0 0 0
2019/10/30 08:24:01 BASE 21.41 21 28.04 22 1.5 100 1.5 2 0 981.1 NA 0.2540 -SN BR 1800 360 0 0 0
2019/10/30 08:25:01 BASE 20.92 22 26.65 25 1.5 100 1.5 2 0 981.1 NA 0.0000 -SN BR 1300 360 0 0 0
2019/10/30 08:26:01 BASE 22.42 21 26.70 20 1.4 100 1.4 2 0 981.0 NA 0.0000 -SN BR 1700 360 0 0 0
2019/10/30 08:27:01 BASE 23.43 22 26.91 20 1.4 100 1.4 2 0 981.0 NA 0.0000 -SN BR 2000 360 0 0 0
2019/10/30 08:28:01 BASE 22.69 22 26.91 20 1.4 100 1.4 2 0 981.0 NA 0.2540 -SN BR 2200 360 0 0 0
2019/10/30 08:29:01 BASE 23.55 21 26.91 20 1.4 100 1.4 2 0 981.0 NA 0.0000 -SN BR 1900 360 0 0 0
2019/10/30 08:30:01 BASE 24.58 18 26.91 20 1.4 100 1.4 2 0 980.9 NA 0.0000 -SN BR 1500 360 0 0 0
2019/10/30 08:31:01 BASE 24.20 19 26.91 20 1.5 100 1.5 2 0 981.0 NA 0.0000 -SN BR 1700 390 0 0 0
2019/10/30 08:32:01 BASE 22.99 23 26.91 20 1.5 100 1.5 2 0 981.0 NA 0.0000 -SN BR 2200 390 0 0 0
2019/10/30 08:33:01 BASE 22.94 21 26.91 20 1.5 100 1.5 2 0 981.0 NA 0.0000 -SN BR 2700 360 0 0 0
2019/10/30 08:34:01 BASE 24.17 20 26.91 19 1.4 100 1.4 2 0 981.0 NA 0.2540 -SN BR 2000 390 0 0 0
2019/10/30 08:35:01 BASE 24.21 21 26.91 19 1.5 100 1.5 2 0 981.0 NA 0.0000 -SN BR 2200 0 0 0 2070
2019/10/30 08:36:01 BASE 23.74 21 26.91 19 1.5 100 1.5 2 0 981.0 NA 0.0000 -SN BR 2200 360 0 0 0
2019/10/30 08:37:01 BASE 23.92 20 27.01 28 1.5 100 1.5 2 0 981.0 NA 0.0000 -SN BR 2500 390 0 0 0
2019/10/30 08:38:01 BASE 24.20 21 27.01 28 1.5 100 1.5 2 0 981.0 NA 0.0000 -SN BR 1900 360 0 0 0
2019/10/30 08:39:01 BASE 24.03 22 27.01 28 1.5 100 1.5 2 0 981.0 NA 0.0000 -SN BR 1900 360 0 0 0
2019/10/30 08:40:01 BASE 22.62 24 27.01 28 1.5 100 1.5 3 0 981.1 NA 0.0000 -SN BR 2000 360 0 0 0
2019/10/30 08:41:01 BASE 22.87 24 27.01 28 1.5 100 1.5 3 0 981.0 NA 0.2540 -SN BR 2000 360 0 0 0
2019/10/30 08:42:01 BASE 25.08 23 27.52 21 1.5 100 1.5 3 0 980.9 NA 0.0000 -SN BR 1600 360 0 0 0
2019/10/30 08:43:00 BASE 24.96 22 27.52 21 1.5 100 1.5 3 0 981.0 NA 0.0000 -SN BR 1300 360 0 0 0
2019/10/30 08:44:00 BASE 24.72 21 27.93 20 1.5 100 1.5 3 0 981.0 NA 0.0000 -SN BR 1300 360 0 0 0
2019/10/30 08:45:00 BASE 24.37 20 27.93 20 1.5 100 1.5 3 0 981.1 NA 0.0000 -SN BR 1700 360 0 0 0
2019/10/30 08:46:01 BASE 23.92 19 27.93 20 1.5 100 1.5 3 0 981.0 NA 0.0000 -SN BR 2300 330 0 0 0
2019/10/30 08:47:00 BASE 23.50 19 27.93 20 1.5 100 1.5 3 0 981.1 NA 0.2540 -SN BR 2200 360 0 0 0
2019/10/30 08:48:00 BASE 22.98 18 27.93 20 1.5 100 1.5 3 0 981.0 NA 0.0000 -SN BR 2200 360 0 0 0
2019/10/30 08:49:00 BASE 23.88 18 27.93 20 1.5 100 1.5 3 0 981.0 NA 0.0000 -SN BR 2100 360 0 0 0
2019/10/30 08:50:00 BASE 23.77 19 27.93 20 1.5 100 1.5 3 0 981.1 NA 0.0000 -SN BR 2300 360 0 0 0
2019/10/30 08:51:00 BASE 21.58 16 27.93 20 1.5 100 1.5 3 0 981.2 NA 0.0000 -SN BR 2700 360 0 0 0
2019/10/30 08:52:00 BASE 20.77 17 27.93 20 1.4 100 1.4 3 0 981.2 NA 0.2540 -SN BR 2200 360 0 0 0
2019/10/30 08:53:00 BASE 23.77 19 30.35 17 1.4 100 1.4 3 0 980.9 NA 0.0000 -SN BR 2000 330 0 0 0
2019/10/30 08:54:00 BASE 24.99 17 30.35 17 1.5 100 1.5 3 0 981.0 NA 0.0000 -SN BR 1900 330 0 0 0
2019/10/30 08:55:00 BASE 24.06 17 30.35 17 1.5 100 1.5 4 0 981.0 NA 0.0000 -SN BR 2100 360 0 0 0
2019/10/30 08:56:00 BASE 23.13 19 30.35 17 1.5 100 1.5 4 0 981.1 NA 0.0000 -SN BR 2200 360 0 0 0
2019/10/30 08:57:01 BASE 23.14 17 30.35 17 1.5 100 1.5 4 0 981.0 NA 0.2540 -SN BR 2200 360 0 0 0
2019/10/30 08:58:01 BASE 23.03 13 30.35 17 1.5 100 1.5 4 0 981.1 NA 0.0000 -SN BR 2100 330 0 0 0
2019/10/30 08:59:01 BASE 20.65 13 30.35 17 1.5 100 1.5 4 0 981.2 NA 0.0000 -SN BR 2400 360 0 0 0
2019/10/30 09:00:01 BASE 20.72 16 30.35 17 1.5 100 1.5 4 0 981.1 NA 0.0000 -SN BR 2000 390 0 0 0
2019/10/30 09:01:00 BASE 21.71 17 30.35 17 1.4 100 1.4 4 0 981.2 NA 0.0000 -SN BR 2100 390 0 0 0
2019/10/30 09:02:00 BASE 22.12 16 30.35 17 1.4 100 1.4 4 0 981.1 NA 0.0000 -SN BR 1800 390 0 0 0
2019/10/30 09:03:00 BASE 23.80 20 27.42 16 1.4 100 1.4 4 0 981.1 NA 0.2540 -SN BR 2000 430 0 0 0
2019/10/30 09:04:00 BASE 23.88 23 27.42 16 1.4 100 1.4 4 0 981.1 NA 0.0000 -SN BR 1700 390 0 0 0
2019/10/30 09:05:00 BASE 22.93 21 27.37 12 1.4 100 1.4 4 0 981.1 NA 0.0000 -SN BR 2000 460 0 0 0
2019/10/30 09:06:00 BASE 23.99 19 27.37 12 1.4 100 1.4 4 0 981.0 NA 0.0000 -SN BR 2500 430 0 0 0
2019/10/30 09:07:00 BASE 24.97 19 27.37 12 1.5 100 1.5 4 0 981.0 NA 0.0000 -SN BR 2000 430 0 0 0
2019/10/30 09:08:00 BASE 25.32 19 28.76 12 1.5 100 1.5 4 0 980.9 NA 0.0000 -SN BR 2300 430 0 0 0
2019/10/30 09:09:00 BASE 24.76 16 28.76 12 1.5 100 1.5 5 0 981.0 NA 0.2540 -SN BR 1500 360 0 0 0
2019/10/30 09:10:01 BASE 23.71 14 28.76 12 1.5 100 1.5 5 0 981.1 NA 0.0000 -SN BR 2400 390 0 0 0
2019/10/30 09:11:01 BASE 24.20 15 28.76 12 1.5 100 1.5 5 0 981.0 NA 0.0000 -SN BR 2300 430 0 0 0
2019/10/30 09:12:01 BASE 25.41 16 28.76 12 1.5 100 1.5 5 0 981.0 NA 0.0000 -SN BR 2300 390 0 0 0
2019/10/30 09:13:01 BASE 25.52 17 28.76 12 1.5 100 1.5 5 0 981.1 NA 0.0000 -SN BR 2200 390 0 0 0
2019/10/30 09:14:01 BASE 25.15 15 28.76 12 1.5 100 1.5 5 0 981.1 NA 0.0000 -SN BR 2200 360 0 0 0
2019/10/30 09:15:01 BASE 24.60 11 28.76 12 1.5 100 1.5 6 0 981.1 NA 0.0000 -SN BR 2300 360 0 0 0
2019/10/30 09:16:01 BASE 23.97 12 28.76 12 1.5 100 1.5 6 0 981.1 NA 0.2540 -SN BR 3200 0 0 0 2300
2019/10/30 09:17:01 BASE 24.18 16 28.76 12 1.5 100 1.5 6 0 981.1 NA 0.0000 -SN BR 1900 390 0 0 0
2019/10/30 09:18:01 BASE 24.76 17 28.29 14 1.5 100 1.5 7 0 981.0 NA 0.0000 -SN BR 1500 330 0 0 0
2019/10/30 09:19:01 BASE 24.81 16 28.29 14 1.5 100 1.5 7 0 981.1 NA 0.0000 -SN BR 1600 360 0 0 0
2019/10/30 09:20:01 BASE 24.90 17 29.12 20 1.5 100 1.5 7 0 981.0 NA 0.0000 -SN BR 1700 330 0 0 0
2019/10/30 09:21:01 BASE 24.54 17 29.12 20 1.6 100 1.6 7 0 981.1 NA 0.0000 -SN BR 1900 390 0 0 0
2019/10/30 09:22:01 BASE 23.36 18 29.12 20 1.6 100 1.6 7 0 981.2 NA 0.2540 -SN BR 2200 390 0 0 0
2019/10/30 09:23:00 BASE 22.61 17 29.12 20 1.6 100 1.6 7 0 981.2 NA 0.0000 -SN BR 2100 360 0 0 0
2019/10/30 09:24:01 BASE 22.66 15 29.12 20 1.6 100 1.6 8 0 981.2 NA 0.0000 -SN BR 2000 330 0 0 0
2019/10/30 09:25:01 BASE 22.89 16 29.12 20 1.5 100 1.5 8 0 981.3 NA 0.0000 -SN BR 2200 390 0 0 0
2019/10/30 09:26:00 BASE 20.88 14 29.12 20 1.5 100 1.5 8 0 981.4 NA 0.0000 -SN BR 2500 390 0 0 0
2019/10/30 09:27:00 BASE 20.99 12 29.12 20 1.5 100 1.5 8 0 981.2 NA 0.0000 -SN BR 2400 390 0 0 0
2019/10/30 09:28:00 BASE 22.46 10 29.12 20 1.5 100 1.5 8 0 981.2 NA 0.0000 -SN BR 2200 0 0 0 2260
2019/10/30 09:29:01 BASE 21.32 11 29.12 20 1.5 100 1.5 8 0 981.3 NA 0.0000 -SN BR 2200 330 0 0 0
2019/10/30 09:30:01 BASE 20.20 14 26.39 17 1.5 100 1.5 8 0 981.4 NA 0.2540 -SN BR 2000 390 0 0 0
2019/10/30 09:31:01 BASE 20.20 20 25.67 13 1.5 100 1.5 8 0 981.4 NA 0.0000 -SN BR 2200 390 0 0 0
2019/10/30 09:32:00 BASE 20.04 19 25.67 13 1.5 100 1.5 7 0 981.3 NA 0.0000 -SN BR 2700 430 0 0 0
2019/10/30 09:33:00 BASE 20.19 18 25.67 13 1.5 100 1.5 8 0 981.3 NA 0.0000 -SN BR 3100 360 0 0 0
2019/10/30 09:34:00 BASE 22.54 19 25.67 13 1.5 100 1.5 7 0 981.2 NA 0.0000 -SN BR 2300 390 0 0 0
2019/10/30 09:35:00 BASE 24.07 18 27.01 12 1.5 100 1.5 7 0 981.3 NA 0.0000 -SN BR 1900 360 0 0 0
2019/10/30 09:36:00 BASE 22.51 15 27.01 12 1.5 100 1.5 7 0 981.4 NA 0.0000 -SN BR 2000 330 0 0 0
2019/10/30 09:37:00 BASE 20.59 11 27.01 12 1.5 100 1.5 7 0 981.4 NA 0.0000 -SN BR 2700 330 0 0 0
2019/10/30 09:38:00 BASE 20.76 14 27.01 12 1.5 100 1.5 7 0 981.3 NA 0.2540 -SN BR 2700 390 0 0 0
2019/10/30 09:39:00 BASE 21.81 13 27.01 12 1.5 100 1.5 8 0 981.3 NA 0.0000 -SN BR 2400 430 0 0 0
2019/10/30 09:40:00 BASE 22.17 11 27.01 12 1.5 100 1.5 8 0 981.4 NA 0.0000 -SN BR 3700 430 0 0 0
2019/10/30 09:41:00 BASE 21.41 11 27.01 12 1.5 100 1.5 8 0 981.4 NA 0.0000 -SN BR 2400 460 0 0 0
2019/10/30 09:42:00 BASE 20.44 11 27.01 12 1.5 100 1.5 9 0 981.4 NA 0.0000 -SN BR 4000 390 0 0 0
2019/10/30 09:43:00 BASE 19.90 12 27.01 12 1.5 100 1.5 9 0 981.5 NA 0.0000 -SN BR 3700 430 0 0 0
2019/10/30 09:44:00 BASE 20.29 11 27.01 12 1.5 100 1.5 9 0 981.5 NA 0.0000 -SN BR 2900 390 0 0 0
2019/10/30 09:45:00 BASE 20.46 14 24.80 18 1.4 100 1.4 10 0 981.5 NA 0.0000 -SN BR 2400 360 0 0 0
2019/10/30 09:46:00 BASE 20.14 16 24.80 18 1.4 100 1.4 10 0 981.5 NA 0.0000 -SN BR 2900 360 0 0 0
2019/10/30 09:47:00 BASE 22.72 19 27.27 18 1.4 100 1.4 10 0 981.3 NA 0.2540 -SN BR 1800 360 0 0 0
2019/10/30 09:48:00 BASE 24.30 21 27.27 18 1.4 100 1.4 10 0 981.4 NA 0.0000 -SN BR 1900 330 0 0 0
2019/10/30 09:49:00 BASE 24.41 22 27.83 18 1.5 100 1.5 10 0 981.4 NA 0.0000 -SN BR 1800 360 0 0 0
2019/10/30 09:50:01 BASE 24.54 23 27.83 18 1.5 100 1.5 10 0 981.4 NA 0.0000 -SN BR 1500 330 0 0 0
2019/10/30 09:51:01 BASE 23.37 21 27.83 18 1.5 100 1.5 10 0 981.4 NA 0.0000 -SN BR 2100 360 0 0 0
2019/10/30 09:52:01 BASE 23.20 21 27.83 18 1.5 100 1.5 11 0 981.4 NA 0.0000 -SN BR 1800 360 0 0 0
2019/10/30 09:53:01 BASE 23.94 21 27.83 18 1.5 100 1.5 11 0 981.4 NA 0.0000 -SN BR 1300 330 0 0 0
2019/10/30 09:54:01 BASE 24.30 20 27.83 18 1.5 100 1.5 11 0 981.4 NA 0.2540 -SN BR 1300 330 0 0 0
2019/10/30 09:55:01 BASE 24.17 19 27.83 18 1.5 100 1.5 11 0 981.4 NA 0.0000 -SN BR 2000 330 0 0 0
2019/10/30 09:56:01 BASE 24.57 20 27.83 18 1.5 100 1.5 11 0 981.3 NA 0.0000 -SN BR 1700 300 0 0 0
2019/10/30 09:57:01 BASE 25.06 21 27.83 18 1.5 100 1.5 11 0 981.3 NA 0.0000 -SN BR 1700 300 0 0 0
2019/10/30 09:58:01 BASE 24.92 21 27.83 18 1.5 100 1.5 11 0 981.4 NA 0.0000 -SN BR 1700 300 0 0 0
2019/10/30 09:59:01 BASE 24.79 20 27.57 22 1.5 100 1.5 11 0 981.4 NA 0.0000 -SN BR 1500 330 0 0 0
2019/10/30 10:00:01 BASE 24.93 20 27.57 22 1.5 100 1.5 12 0 981.4 NA 0.2540 -SN BR 1600 300 0 0 0
2019/10/30 10:01:01 BASE 24.55 21 27.57 22 1.5 100 1.5 12 0 981.4 NA 0.0000 -SN BR 1400 390 0 0 0
2019/10/30 10:02:01 BASE 24.59 21 27.78 20 1.5 100 1.5 12 0 981.4 NA 0.0000 -SN BR 1600 300 0 0 0
2019/10/30 10:03:01 BASE 25.30 21 27.78 20 1.5 100 1.5 12 0 981.4 NA 0.0000 -SN BR 1800 360 0 0 0
2019/10/30 10:04:01 BASE 25.52 21 27.93 20 1.5 100 1.5 11 0 981.4 NA 0.0000 -SN BR 1500 330 0 0 0
2019/10/30 10:05:00 BASE 26.75 20 29.58 24 1.5 100 1.5 11 0 981.3 NA 0.0000 -SN BR 1700 390 0 0 0
2019/10/30 10:06:00 BASE 26.62 19 29.58 24 1.5 100 1.5 12 0 981.4 NA 0.2540 -SN BR 1500 330 0 0 0
2019/10/30 10:07:00 BASE 24.16 17 29.58 24 1.5 100 1.5 12 0 981.5 NA 0.0000 -SN BR 1500 300 0 0 0
2019/10/30 10:08:00 BASE 22.65 17 29.58 24 1.5 100 1.5 12 0 981.5 NA 0.0000 -SN BR 1500 300 0 0 0
2019/10/30 10:09:00 BASE 22.51 15 29.58 24 1.5 100 1.5 12 0 981.6 NA 0.0000 -SN BR 2100 330 0 0 0
2019/10/30 10:10:00 BASE 22.54 11 29.58 24 1.5 100 1.5 12 0 981.6 NA 0.0000 -SN BR 1700 300 0 0 0
2019/10/30 10:11:00 BASE 21.76 10 29.58 24 1.5 100 1.5 13 0 981.6 NA 0.0000 -SN BR 2700 300 0 0 0
2019/10/30 10:12:00 BASE 20.82 10 29.58 24 1.4 100 1.4 12 0 981.6 NA 0.0000 -SN BR 2800 360 0 0 0
2019/10/30 10:13:00 BASE 22.15 14 29.58 24 1.5 100 1.5 12 0 981.5 NA 0.0000 -SN BR 2100 360 0 0 0
2019/10/30 10:14:00 BASE 23.70 19 29.58 24 1.5 100 1.5 11 0 981.5 NA 0.0000 -SN BR 2300 360 0 0 0
2019/10/30 10:15:00 BASE 24.00 21 28.35 21 1.5 100 1.5 11 0 981.5 NA 0.2540 -SN BR 2200 360 0 0 0
2019/10/30 10:16:00 BASE 23.79 18 27.78 18 1.5 100 1.5 11 0 981.5 NA 0.0000 -SN BR 2000 330 0 0 0
2019/10/30 10:17:00 BASE 23.34 15 27.78 18 1.5 100 1.5 12 0 981.6 NA 0.0000 -SN BR 2200 360 0 0 0
2019/10/30 10:18:00 BASE 23.02 14 27.78 18 1.5 100 1.5 12 0 981.6 NA 0.0000 -SN BR 2100 360 0 0 0
2019/10/30 10:19:00 BASE 22.02 11 27.78 18 1.5 100 1.5 12 0 981.7 NA 0.0000 -SN BR 2400 430 0 0 0
2019/10/30 10:20:00 BASE 21.89 11 27.78 18 1.5 100 1.5 12 0 981.7 NA 0.0000 -SN BR 2600 360 0 0 0
2019/10/30 10:21:00 BASE 21.70 12 27.78 18 1.5 100 1.5 12 0 981.7 NA 0.0000 -SN BR 2200 330 0 0 0
2019/10/30 10:22:00 BASE 21.58 9 27.78 18 1.5 100 1.5 12 0 981.7 NA 0.2540 -SN BR 2100 390 0 0 0
2019/10/30 10:23:00 BASE 22.05 5 27.78 18 1.5 100 1.5 12 0 981.7 NA 0.0000 -SN BR 3500 300 0 0 0
2019/10/30 10:24:00 BASE 21.91 7 27.78 18 1.5 100 1.5 12 0 981.7 NA 0.0000 -SN BR 3400 300 0 0 0
2019/10/30 10:25:00 BASE 21.45 9 26.19 12 1.5 100 1.5 12 0 981.7 NA 0.0000 -SN BR 2100 360 0 0 0
2019/10/30 10:26:00 BASE 22.48 8 25.67 7 1.5 100 1.5 13 0 981.6 NA 0.0000 -SN BR 1500 300 0 0 0
2019/10/30 10:27:00 BASE 23.39 11 25.88 12 1.5 100 1.5 13 0 981.7 NA 0.0000 -SN BR 1900 300 0 0 0
2019/10/30 10:28:00 BASE 22.58 10 25.88 12 1.5 100 1.5 14 0 981.7 NA 0.0000 -SN BR 2200 300 0 0 0
2019/10/30 10:29:01 BASE 21.45 7 25.88 12 1.5 100 1.5 15 0 981.9 NA 0.0000 -SN BR 2100 300 0 0 0
2019/10/30 10:30:01 BASE 20.62 6 25.88 12 1.5 100 1.5 16 0 981.9 NA 0.2540 -SN BR 4100 330 0 0 0
2019/10/30 10:31:01 BASE 20.24 0 25.88 12 1.4 100 1.4 18 0 981.8 NA 0.0000 -SN BR 4600 330 0 0 0
2019/10/30 10:32:01 BASE 20.32 1 25.88 12 1.4 100 1.4 18 0 981.9 NA 0.0000 -SN BR 3700 430 0 0 0
2019/10/30 10:33:01 BASE 20.36 10 25.88 12 1.4 100 1.4 18 0 981.8 NA 0.0000 -SN BR 3600 360 0 0 0
2019/10/30 10:34:01 BASE 21.50 18 26.96 29 1.5 100 1.5 18 0 981.7 NA 0.0000 -SN BR 2300 360 0 0 0
2019/10/30 10:35:01 BASE 23.15 22 26.96 29 1.5 100 1.5 18 0 981.7 NA 0.0000 -SN BR 2200 390 0 0 0
2019/10/30 10:36:01 BASE 22.59 23 26.96 29 1.5 100 1.5 19 0 981.8 NA 0.0000 -SN BR 2000 360 0 0 0
2019/10/30 10:37:01 BASE 21.97 25 26.96 29 1.6 100 1.6 18 0 981.7 NA 0.0000 -SN BR 2100 390 0 0 0
2019/10/30 10:38:01 BASE 22.38 26 26.96 29 1.6 100 1.6 18 0 981.7 NA 0.2540 -SN BR 2300 390 0 0 0
2019/10/30 10:39:01 BASE 23.05 27 27.11 28 1.6 100 1.6 18 0 981.7 NA 0.0000 -SN BR 2300 390 0 0 0
2019/10/30 10:40:01 BASE 23.17 26 27.11 28 1.6 100 1.6 18 0 981.6 NA 0.0000 -SN BR 2100 390 0 0 0
2019/10/30 10:41:01 BASE 23.86 26 27.11 28 1.6 100 1.6 17 0 981.6 NA 0.0000 -SN BR 1800 390 0 0 0
2019/10/30 10:42:01 BASE 24.14 27 27.11 28 1.7 100 1.7 18 0 981.7 NA 0.0000 -SN BR 2000 360 0 0 0
2019/10/30 10:43:01 BASE 24.05 25 28.71 22 1.7 100 1.7 17 0 981.7 NA 0.0000 -SN BR 1800 360 0 0 0
2019/10/30 10:44:01 BASE 24.19 26 28.71 22 1.7 100 1.7 18 0 981.7 NA 0.0000 -SN BR 2000 360 0 0 0
2019/10/30 10:45:01 BASE 24.65 28 28.71 22 1.7 100 1.7 18 0 981.7 NA 0.2540 -SN BR 2000 360 0 0 0
2019/10/30 10:46:01 BASE 24.15 26 28.71 22 1.7 100 1.7 19 0 981.8 NA 0.0000 -SN BR 1500 390 0 0 0
2019/10/30 10:47:01 BASE 23.11 26 28.71 22 1.7 100 1.7 19 0 981.8 NA 0.0000 -SN BR 2100 360 0 0 0
2019/10/30 10:48:00 BASE 23.29 26 28.71 22 1.7 100 1.7 20 0 981.8 NA 0.0000 -SN BR 2600 360 0 0 0
2019/10/30 10:49:00 BASE 23.27 26 28.71 22 1.7 100 1.7 20 0 981.8 NA 0.0000 -SN BR 1900 360 0 0 0
2019/10/30 10:50:01 BASE 23.39 26 28.71 22 1.7 100 1.7 21 0 981.7 NA 0.0000 -SN BR 1800 330 0 0 0
2019/10/30 10:51:00 BASE 23.14 24 28.71 22 1.6 100 1.6 22 0 981.8 NA 0.0000 -SN BR 1900 360 0 0 0
2019/10/30 10:52:01 BASE 22.95 25 28.71 22 1.6 100 1.6 23 0 981.9 NA 0.0000 -SN BR 2100 330 0 0 0
2019/10/30 10:53:00 BASE 22.67 26 27.47 27 1.6 100 1.6 23 0 981.9 NA 0.2540 -SN BR 2000 360 0 0 0
2019/10/30 10:54:01 BASE 22.91 27 27.47 27 1.6 100 1.6 24 0 981.7 NA 0.0000 -SN BR 2100 360 0 0 0
2019/10/30 10:55:00 BASE 23.82 24 27.01 25 1.6 100 1.6 24 0 981.7 NA 0.0000 -SN BR 2000 430 0 0 0
2019/10/30 10:56:00 BASE 23.12 25 27.01 25 1.7 100 1.7 24 0 981.9 NA 0.0000 -SN BR 2200 360 0 0 0
2019/10/30 10:57:00 BASE 22.19 28 27.01 25 1.7 100 1.7 25 0 981.9 NA 0.0000 -SN BR 2100 360 0 0 0
2019/10/30 10:58:01 BASE 23.23 27 28.91 24 1.7 100 1.7 25 0 981.8 NA 0.0000 -SN BR 2300 360 0 0 0
2019/10/30 10:59:00 BASE 24.01 28 28.91 24 1.7 100 1.7 25 0 981.8 NA 0.0000 -SN BR 1800 360 0 0 0
2019/10/30 11:00:01 BASE 24.09 28 28.91 24 1.7 100 1.7 25 0 981.8 NA 0.2540 -SN BR 2000 360 0 0 0
2019/10/30 11:01:00 BASE 24.01 25 28.91 24 1.7 100 1.7 25 0 981.8 NA 0.0000 -SN BR 1600 390 0 0 0
2019/10/30 11:02:00 BASE 24.48 22 28.91 24 1.7 100 1.7 25 0 981.8 NA 0.0000 -SN BR 2000 360 0 0 0
2019/10/30 11:03:00 BASE 24.72 23 28.91 24 1.7 100 1.7 26 0 981.9 NA 0.0000 -SN BR 1700 330 0 0 0
2019/10/30 11:04:00 BASE 24.09 25 28.91 24 1.7 100 1.7 27 0 981.8 NA 0.0000 -SN BR 1600 360 0 0 0
2019/10/30 11:05:00 BASE 23.83 23 28.91 24 1.7 100 1.7 28 0 981.9 NA 0.0000 -SN BR 2100 330 0 0 0
2019/10/30 11:06:00 BASE 25.18 23 28.91 24 1.6 100 1.6 28 0 981.8 NA 0.0000 -SN BR 1900 360 0 0 0
2019/10/30 11:07:00 BASE 26.51 22 28.91 24 1.6 100 1.6 28 0 981.7 NA 0.0000 -SN BR 1600 360 0 0 0
2019/10/30 11:08:00 BASE 25.80 21 29.27 13 1.7 100 1.7 29 0 981.8 NA 0.2540 -SN BR 2200 390 0 0 0
2019/10/30 11:09:00 BASE 24.21 22 29.27 13 1.7 100 1.7 29 0 981.9 NA 0.0000 -SN BR 2100 390 0 0 0
2019/10/30 11:10:00 BASE 23.55 24 29.27 13 1.7 100 1.7 29 0 981.9 NA 0.0000 -SN BR 3000 390 0 0 0
2019/10/30 11:11:00 BASE 23.51 22 29.27 13 1.8 100 1.8 28 0 981.9 NA 0.0000 -SN BR 2100 430 0 0 0
2019/10/30 11:12:00 BASE 22.79 23 29.27 13 1.8 100 1.8 28 0 982.0 NA 0.0000 -SN BR 2200 430 0 0 0
2019/10/30 11:13:01 BASE 22.62 25 29.27 13 1.8 100 1.8 29 0 982.0 NA 0.0000 -SN BR 2300 390 0 0 0
2019/10/30 11:14:01 BASE 23.02 24 29.27 13 1.8 100 1.8 29 0 982.0 NA 0.0000 -SN BR 2400 390 0 0 0
2019/10/30 11:15:01 BASE 22.20 24 29.27 13 1.8 100 1.8 31 0 982.1 NA 0.0000 -SN BR 3000 430 0 0 0
2019/10/30 11:16:01 BASE 23.47 24 29.27 13 1.8 100 1.8 32 0 981.9 NA 0.0000 -SN BR 2200 390 0 0 0
2019/10/30 11:17:00 BASE 24.28 24 29.27 13 1.8 100 1.8 33 0 982.0 NA 0.2540 -SN BR 2300 390 0 0 0
2019/10/30 11:18:00 BASE 23.79 24 27.27 15 1.8 100 1.8 34 0 981.9 NA 0.2540 -SN BR 2900 390 0 0 0
2019/10/30 11:19:00 BASE 24.35 21 27.27 15 1.8 100 1.8 34 0 982.0 NA 0.0000 -SN BR 2100 430 0 0 0
2019/10/30 11:20:00 BASE 23.98 21 27.27 15 1.8 100 1.8 34 0 982.0 NA 0.0000 -SN BR 2200 430 0 0 0
2019/10/30 11:21:00 BASE 23.74 20 27.27 15 1.8 100 1.8 32 0 982.0 NA 0.0000 -SN BR 2400 430 0 0 0
2019/10/30 11:22:00 BASE 23.76 19 27.27 15 1.7 100 1.7 31 0 981.9 NA 0.0000 -SN BR 3200 390 0 0 0
2019/10/30 11:23:00 BASE 23.89 20 27.27 15 1.7 100 1.7 32 0 981.9 NA 0.0000 -SN BR 3600 360 0 0 0
2019/10/30 11:24:00 BASE 23.46 21 27.27 15 1.7 100 1.7 33 0 982.0 NA 0.0000 -SN BR 2800 430 0 0 0
2019/10/30 11:25:00 BASE 23.60 22 27.27 15 1.7 100 1.7 35 0 982.0 NA 0.0000 -SN BR 4300 430 0 0 0
2019/10/30 11:26:00 BASE 24.06 21 26.85 15 1.7 100 1.7 35 0 981.9 NA 0.0000 -SN BR 5000 460 0 0 0
2019/10/30 11:27:00 BASE 24.55 20 27.01 22 1.8 100 1.8 36 0 981.9 NA 0.0000 -SN BR 4800 430 0 0 0
2019/10/30 11:28:00 BASE 24.44 22 28.35 19 1.8 100 1.8 36 0 981.9 NA 0.0000 -SN BR 3700 430 0 0 0
2019/10/30 11:29:00 BASE 23.94 22 28.35 19 1.8 100 1.8 36 0 982.0 NA 0.0000 -SN BR 3600 390 0 0 0
2019/10/30 11:30:00 BASE 23.55 19 28.35 19 1.8 100 1.8 36 0 982.0 NA 0.2540 -SN BR 2000 360 0 0 0
2019/10/30 11:31:00 BASE 22.78 18 28.35 19 1.8 100 1.8 36 0 982.0 NA 0.0000 -SN BR 3500 430 0 0 0
2019/10/30 11:32:00 BASE 22.31 19 28.35 19 1.8 100 1.8 35 0 982.0 NA 0.0000 -SN BR 2700 390 0 0 0
2019/10/30 11:33:00 BASE 21.97 18 28.35 19 1.8 100 1.8 35 0 982.1 NA 0.0000 -SN BR 3500 460 0 0 0
2019/10/30 11:34:00 BASE 21.92 19 28.35 19 1.8 100 1.8 36 0 982.1 NA 0.0000 -SN BR 3400 430 0 0 0
2019/10/30 11:35:00 BASE 22.59 21 28.35 19 1.8 100 1.8 37 0 982.0 NA 0.0000 -SN BR 2200 460 0 0 0
2019/10/30 11:36:00 BASE 22.91 25 28.35 19 1.8 100 1.8 38 0 981.9 NA 0.0000 -SN BR 2500 390 0 0 0
2019/10/30 11:37:00 BASE 23.29 26 28.35 19 1.8 100 1.8 38 0 981.9 NA 0.0000 -SN BR 2800 390 0 0 0
2019/10/30 11:38:00 BASE 24.55 27 29.07 29 1.8 100 1.8 39 0 981.8 NA 0.0000 -SN BR 2200 390 0 0 0
2019/10/30 11:39:00 BASE 24.36 28 29.07 29 1.8 100 1.8 40 0 981.9 NA 0.0000 -SN BR 1800 430 0 0 0
2019/10/30 11:40:01 BASE 23.81 27 29.07 29 1.7 100 1.7 40 0 981.8 NA 0.2540 -SN BR 2000 430 0 0 0
2019/10/30 11:41:01 BASE 24.48 26 29.07 29 1.7 100 1.7 39 0 981.8 NA 0.0000 -SN BR 2000 360 0 0 0
2019/10/30 11:42:01 BASE 24.00 27 29.07 29 1.7 100 1.7 38 0 981.9 NA 0.0000 -SN BR 2200 0 0 0 1940
2019/10/30 11:43:01 BASE 23.70 26 29.07 29 1.7 100 1.7 39 0 981.9 NA 0.0000 -SN BR 2200 390 0 0 0
2019/10/30 11:44:01 BASE 23.85 25 29.07 29 1.7 100 1.7 39 0 981.9 NA 0.0000 -SN BR 1900 390 0 0 0
2019/10/30 11:45:01 BASE 23.69 25 29.07 29 1.7 100 1.7 40 0 981.9 NA 0.0000 -SN BR 2300 390 0 0 0
2019/10/30 11:46:01 BASE 23.57 25 29.07 29 1.7 100 1.7 41 0 982.0 NA 0.0000 -SN BR 2300 390 0 0 0
2019/10/30 11:47:01 BASE 22.93 25 29.07 29 1.6 100 1.6 42 0 982.0 NA 0.0000 -SN BR 2700 390 0 0 0
2019/10/30 11:48:01 BASE 23.34 26 28.60 22 1.6 100 1.6 43 0 981.9 NA 0.0000 -SN BR 2400 360 0 0 0
2019/10/30 11:49:01 BASE 24.36 25 28.60 25 1.6 100 1.6 45 0 981.8 NA 0.2540 -SN BR 2000 360 0 0 0
2019/10/30 11:50:01 BASE 25.18 24 28.60 25 1.6 100 1.6 47 0 981.9 NA 0.0000 -SN BR 1700 360 0 0 0
2019/10/30 11:51:01 BASE 25.16 24 28.60 25 1.6 100 1.6 47 0 982.0 NA 0.0000 -SN BR 1800 390 0 0 0
2019/10/30 11:52:01 BASE 24.72 26 28.60 25 1.6 100 1.6 48 0 982.0 NA 0.0000 -SN BR 1800 390 0 0 0
2019/10/30 11:53:01 BASE 23.73 26 28.60 25 1.6 100 1.6 51 0 982.0 NA 0.0000 -SN BR 2000 360 0 0 0
2019/10/30 11:54:01 BASE 24.00 25 28.60 25 1.6 100 1.6 52 0 982.0 NA 0.0000 -SN BR 2300 360 0 0 0
2019/10/30 11:55:01 BASE 23.99 26 28.60 25 1.6 100 1.6 52 0 982.1 NA 0.2540 -SN BR 1800 390 0 0 0
2019/10/30 11:56:01 BASE 22.65 26 28.60 25 1.6 100 1.6 51 0 982.1 NA 0.0000 -SN BR 2000 360 0 0 0
2019/10/30 11:57:01 BASE 24.12 26 28.60 25 1.6 100 1.6 51 0 982.0 NA 0.0000 -SN BR 2300 360 0 0 0
2019/10/30 11:58:01 BASE 25.12 25 28.60 25 1.6 100 1.6 51 0 982.0 NA 0.0000 -SN BR 2200 360 0 0 0
2019/10/30 11:59:01 BASE 25.14 23 28.35 29 1.5 100 1.5 50 0 982.0 NA 0.0000 -SN BR 1900 360 0 0 0
2019/10/30 12:00:01 BASE 24.88 22 29.73 23 1.5 100 1.5 48 0 982.0 NA 0.0000 -SN BR 2400 360 0 0 0
2019/10/30 12:01:01 BASE 25.18 22 29.73 23 1.5 100 1.5 48 0 981.9 NA 0.0000 -SN BR 2900 360 0 0 0
2019/10/30 12:02:01 BASE 26.49 23 29.73 23 1.6 100 1.6 49 0 981.9 NA 0.0000 -SN BR 2100 360 0 0 0
2019/10/30 12:03:00 BASE 26.09 22 29.73 23 1.6 100 1.6 50 0 981.9 NA 0.2540 -SN BR 2300 330 0 0 0
2019/10/30 12:04:00 BASE 24.77 23 29.73 23 1.6 100 1.6 48 0 982.1 NA 0.0000 -SN BR 2100 360 0 0 0
2019/10/30 12:05:01 BASE 24.34 23 29.73 23 1.6 100 1.6 47 0 982.1 NA 0.0000 -SN BR 2100 360 0 0 0
2019/10/30 12:06:00 BASE 24.89 24 29.73 23 1.6 100 1.6 46 0 982.1 NA 0.0000 -SN BR 2100 330 0 0 0
2019/10/30 12:07:00 BASE 24.82 24 29.73 23 1.6 100 1.6 45 0 982.1 NA 0.0000 -SN BR 1500 330 0 0 0
2019/10/30 12:08:01 BASE 25.39 24 29.94 23 1.6 100 1.6 45 0 982.0 NA 0.0000 -SN BR 1600 360 0 0 0
2019/10/30 12:09:00 BASE 26.88 24 30.51 18 1.6 100 1.6 44 0 981.8 NA 0.0000 -SN BR 2000 330 0 0 0
2019/10/30 12:10:01 BASE 26.97 23 30.51 18 1.6 100 1.6 45 0 981.7 NA 0.2540 -SN BR 1700 330 0 0 0
2019/10/30 12:11:00 BASE 26.46 24 30.51 18 1.6 100 1.6 45 0 981.9 NA 0.0000 -SN BR 1600 330 0 0 0
2019/10/30 12:12:00 BASE 26.28 23 30.51 18 1.6 100 1.6 45 0 981.9 NA 0.0000 -SN BR 1700 360 0 0 0
2019/10/30 12:13:00 BASE 25.99 22 30.51 18 1.6 100 1.6 46 0 981.8 NA 0.0000 -SN BR 1700 330 0 0 0
2019/10/30 12:14:00 BASE 25.16 22 30.51 18 1.6 100 1.6 48 0 982.0 NA 0.0000 -SN BR 2000 360 0 0 0
2019/10/30 12:15:00 BASE 24.14 24 30.51 18 1.6 100 1.6 50 0 982.1 NA 0.0000 -SN BR 2100 360 0 0 0
2019/10/30 12:16:00 BASE 24.42 24 30.51 18 1.6 100 1.6 49 0 981.9 NA 0.0000 -SN BR 1800 360 0 0 0
2019/10/30 12:17:00 BASE 24.45 24 30.51 18 1.6 100 1.6 49 0 981.8 NA 0.2540 -SN BR 2000 390 0 0 0
2019/10/30 12:18:00 BASE 24.37 24 30.51 18 1.6 100 1.6 47 0 982.0 NA 0.0000 -SN BR 1900 360 0 0 0
2019/10/30 12:19:00 BASE 25.40 24 28.71 25 1.6 100 1.6 48 0 981.6 NA 0.0000 -SN BR 1200 330 0 0 0
2019/10/30 12:20:00 BASE 25.46 26 28.60 23 1.6 100 1.6 46 0 982.0 NA 0.0000 -SN BR 1200 360 0 0 0
2019/10/30 12:21:01 BASE 24.61 27 28.60 23 1.6 100 1.6 46 0 982.1 NA 0.0000 -SN BR 1900 360 0 0 0
2019/10/30 12:22:01 BASE 24.28 28 28.60 23 1.6 100 1.6 45 0 982.1 NA 0.0000 -SN BR 1700 360 0 0 0
2019/10/30 12:23:01 BASE 24.43 28 28.60 23 1.6 100 1.6 45 0 982.1 NA 0.2540 -SN BR 1500 360 0 0 0
2019/10/30 12:24:01 BASE 25.68 27 29.73 29 1.6 100 1.6 45 0 982.0 NA 0.0000 -SN BR 1700 330 0 0 0
2019/10/30 12:25:00 BASE 25.76 25 29.73 29 1.6 100 1.6 45 0 982.1 NA 0.0000 -SN BR 1400 330 0 0 0
2019/10/30 12:26:00 BASE 24.88 24 29.73 29 1.6 100 1.6 45 0 982.1 NA 0.0000 -SN BR 1400 360 0 0 0
2019/10/30 12:27:00 BASE 25.59 23 29.73 29 1.6 100 1.6 45 0 982.0 NA 0.0000 -SN BR 1300 300 0 0 0
2019/10/30 12:28:00 BASE 26.49 23 29.73 29 1.6 100 1.6 45 0 982.1 NA 0.0000 -SN BR 1600 360 0 0 0
2019/10/30 12:29:00 BASE 26.62 24 29.73 29 1.6 100 1.6 45 0 982.1 NA 0.0000 -SN BR 1600 360 0 0 0
2019/10/30 12:30:00 BASE 26.43 25 29.73 29 1.6 100 1.6 46 0 982.1 NA 0.2540 -SN BR 1300 330 0 0 0
2019/10/30 12:31:00 BASE 26.52 24 29.73 29 1.6 100 1.6 45 0 982.1 NA 0.0000 -SN BR 1400 360 0 0 0
2019/10/30 12:32:00 BASE 25.40 25 29.73 29 1.6 100 1.6 45 0 982.2 NA 0.0000 -SN BR 1400 360 0 0 0
2019/10/30 12:33:00 BASE 25.00 26 29.73 29 1.6 100 1.6 46 0 982.1 NA 0.0000 -SN BR 1900 390 0 0 0
2019/10/30 12:34:00 BASE 25.09 23 29.12 25 1.6 100 1.6 45 0 982.2 NA 0.0000 -SN BR 1800 360 0 0 0
2019/10/30 12:35:00 BASE 24.74 22 29.12 25 1.6 100 1.6 46 0 982.2 NA 0.0000 -SN BR 1900 360 0 0 0
2019/10/30 12:36:00 BASE 25.86 24 29.48 25 1.6 100 1.6 49 0 982.2 NA 0.2540 -SN BR 1800 330 0 0 0
2019/10/30 12:37:00 BASE 25.90 24 29.48 25 1.6 100 1.6 49 0 982.2 NA 0.0000 -SN BR 1600 330 0 0 0
2019/10/30 12:38:00 BASE 23.99 24 29.48 25 1.6 100 1.6 50 0 982.3 NA 0.0000 -SN BR 2100 360 0 0 0
2019/10/30 12:39:00 BASE 23.34 23 29.48 25 1.6 100 1.6 48 0 982.3 NA 0.0000 -SN BR 2100 360 0 0 0
2019/10/30 12:40:00 BASE 24.39 22 29.48 25 1.6 100 1.6 47 0 982.2 NA 0.0000 -SN BR 1700 330 0 0 0
2019/10/30 12:41:00 BASE 24.61 22 29.48 25 1.6 100 1.6 48 0 982.2 NA 0.0000 -SN BR 1400 330 0 0 0
2019/10/30 12:42:00 BASE 24.34 22 29.48 25 1.6 100 1.6 49 0 982.3 NA 0.2540 -SN BR 1700 360 0 0 0
2019/10/30 12:43:00 BASE 23.60 23 29.48 25 1.6 100 1.6 51 0 982.3 NA 0.2540 -SN BR 2200 360 0 0 0
2019/10/30 12:44:00 BASE 23.69 23 29.48 25 1.6 100 1.6 50 0 982.2 NA 0.0000 -SN BR 2000 360 0 0 0
2019/10/30 12:45:00 BASE 24.23 22 29.48 25 1.6 100 1.6 50 0 982.3 NA 0.0000 -SN BR 1600 360 0 0 0
2019/10/30 12:46:00 BASE 24.36 23 28.50 20 1.6 100 1.6 50 0 982.3 NA 0.0000 -SN BR 1800 300 0 0 0
2019/10/30 12:47:00 BASE 23.48 25 27.57 30 1.6 100 1.6 49 0 982.3 NA 0.0000 -SN BR 1800 360 0 0 0
2019/10/30 12:48:00 BASE 22.78 26 27.57 30 1.6 100 1.6 50 0 982.3 NA 0.2540 -SN BR 1500 330 0 0 0
2019/10/30 12:49:00 BASE 23.60 26 27.57 30 1.6 100 1.6 52 0 982.3 NA 0.2540 -SN BR 1700 330 0 0 0
2019/10/30 12:50:00 BASE 23.14 24 27.57 30 1.6 100 1.6 54 0 982.3 NA 0.0000 -SN BR 1500 330 0 0 0
2019/10/30 12:51:01 BASE 22.96 23 27.57 30 1.6 100 1.6 54 0 982.3 NA 0.0000 -SN BR 1500 300 0 0 0
2019/10/30 12:52:01 BASE 23.62 24 27.57 30 1.6 100 1.6 55 0 982.3 NA 0.0000 -SN BR 1400 330 0 0 0
2019/10/30 12:53:01 BASE 23.35 27 27.57 30 1.6 100 1.6 55 0 982.3 NA 0.0000 -SN BR 1400 300 0 0 0
2019/10/30 12:54:01 BASE 24.15 27 27.57 24 1.6 100 1.6 54 0 982.2 NA 0.0000 -SN BR 1900 330 0 0 0
2019/10/30 12:55:01 BASE 24.95 25 28.55 23 1.6 100 1.6 54 0 982.3 NA 0.2540 -SN BR 1800 330 0 0 0
2019/10/30 12:56:01 BASE 24.51 25 28.55 23 1.6 100 1.6 54 0 982.3 NA 0.0000 -SN BR 1800 330 0 0 0
2019/10/30 12:57:01 BASE 23.21 25 28.55 23 1.6 100 1.6 52 0 982.4 NA 0.0000 -SN BR 1600 330 0 0 0
2019/10/30 12:58:01 BASE 22.60 25 28.55 23 1.6 100 1.6 50 0 982.3 NA 0.0000 -SN BR 1800 330 0 0 0
2019/10/30 12:59:01 BASE 23.66 23 28.55 23 1.6 100 1.6 50 0 982.3 NA 0.0000 -SN BR 1500 330 0 0 0
2019/10/30 13:00:01 BASE 23.66 23 28.55 23 1.5 100 1.5 47 0 982.4 NA 0.0000 -SN BR 2000 330 0 0 0
2019/10/30 13:01:01 BASE 24.41 25 28.60 25 1.5 100 1.5 45 0 982.3 NA 0.2540 -SN BR 2200 330 0 0 0
2019/10/30 13:02:01 BASE 25.22 25 28.65 31 1.5 100 1.5 43 0 982.4 NA 0.0000 -SN BR 1700 330 0 0 0
2019/10/30 13:03:01 BASE 24.36 24 28.65 31 1.5 100 1.5 44 0 982.5 NA 0.0000 -SN BR 1700 300 0 0 0
2019/10/30 13:04:01 BASE 23.53 24 28.65 31 1.5 100 1.5 45 0 982.4 NA 0.0000 -SN BR 1700 330 0 0 0
2019/10/30 13:05:01 BASE 22.53 26 28.65 31 1.5 100 1.5 46 0 982.5 NA 0.0000 -SN BR 1500 300 0 0 0
2019/10/30 13:06:01 BASE 21.69 26 28.65 31 1.5 100 1.5 49 0 982.6 NA 0.2540 -SN BR 1500 330 0 0 0
2019/10/30 13:07:01 BASE 21.84 26 28.65 31 1.5 100 1.5 50 0 982.5 NA 0.0000 -SN BR 1800 330 0 0 0
2019/10/30 13:08:01 BASE 23.52 26 28.65 31 1.5 100 1.5 50 0 982.4 NA 0.0000 -SN BR 1400 330 0 0 0
2019/10/30 13:09:01 BASE 23.35 26 28.65 31 1.5 100 1.5 50 0 982.5 NA 0.0000 -SN BR 1500 330 0 0 0
2019/10/30 13:10:01 BASE 22.20 25 28.65 31 1.5 100 1.5 49 0 982.5 NA 0.0000 -SN BR 1700 330 0 0 0
2019/10/30 13:11:01 BASE 23.09 24 28.65 31 1.5 100 1.5 51 0 982.4 NA 0.2540 -SN BR 1800 330 0 0 0
2019/10/30 13:12:01 BASE 23.59 24 28.50 26 1.5 100 1.5 52 0 982.5 NA 0.0000 -SN BR 1600 330 0 0 0
2019/10/30 13:13:01 BASE 23.95 21 28.50 26 1.5 100 1.5 52 0 982.4 NA 0.0000 -SN BR 2100 330 0 0 0
2019/10/30 13:14:01 BASE 22.56 20 28.50 26 1.5 100 1.5 53 0 982.5 NA 0.0000 -SN BR 1800 330 0 0 0
2019/10/30 13:15:01 BASE 21.85 22 28.50 26 1.5 100 1.5 53 0 982.5 NA 0.0000 -SN BR 2000 360 0 0 0
2019/10/30 13:16:01 BASE 22.80 24 28.50 26 1.5 100 1.5 54 0 982.5 NA 0.0000 -SN BR 2000 330 0 0 0
2019/10/30 13:17:01 BASE 23.52 23 28.50 26 1.6 100 1.6 55 0 982.4 NA 0.2540 -SN BR 2200 360 0 0 0
2019/10/30 13:18:01 BASE 24.19 21 26.75 24 1.6 100 1.6 55 0 982.4 NA 0.0000 -SN BR 2100 360 0 0 0
2019/10/30 13:19:01 BASE 23.98 22 26.75 24 1.6 100 1.6 55 0 982.4 NA 0.0000 -SN BR 2000 330 0 0 0
2019/10/30 13:20:01 BASE 24.22 24 26.96 26 1.6 100 1.6 55 0 982.4 NA 0.0000 -SN BR 1700 330 0 0 0
2019/10/30 13:21:01 BASE 25.41 23 28.65 19 1.6 100 1.6 54 0 982.3 NA 0.0000 -SN BR 1600 360 0 0 0
2019/10/30 13:22:01 BASE 25.82 23 28.65 19 1.6 100 1.6 55 0 982.3 NA 0.2540 -SN BR 1600 330 0 0 0
2019/10/30 13:23:00 BASE 25.06 24 28.65 19 1.6 100 1.6 57 0 982.3 NA 0.0000 -SN BR 1200 330 0 0 0
2019/10/30 13:24:01 BASE 25.31 24 29.07 24 1.6 100 1.6 57 0 982.3 NA 0.0000 -SN BR 1600 330 0 0 0
2019/10/30 13:25:00 BASE 25.34 23 29.07 24 1.6 100 1.6 58 0 982.3 NA 0.0000 -SN BR 1300 330 0 0 0
2019/10/30 13:26:00 BASE 23.23 24 29.07 24 1.6 100 1.6 57 0 982.4 NA 0.0000 -SN BR 1800 330 0 0 0
2019/10/30 13:27:00 BASE 22.68 27 29.07 24 1.6 100 1.6 56 0 982.4 NA 0.2540 -SN BR 1600 330 0 0 0
2019/10/30 13:28:01 BASE 25.62 24 29.73 24 1.6 100 1.6 54 0 982.2 NA 0.0000 -SN BR 2000 330 0 0 0
2019/10/30 13:29:01 BASE 27.40 21 29.73 24 1.6 100 1.6 53 0 982.2 NA 0.0000 -SN BR 1500 300 0 0 0
2019/10/30 13:30:01 BASE 25.44 22 29.73 24 1.6 100 1.6 52 0 982.4 NA 0.0000 -SN BR 1400 330 0 0 0
2019/10/30 13:31:01 BASE 23.32 22 29.73 24 1.6 100 1.6 52 0 982.4 NA 0.0000 -SN BR 1600 330 0 0 0
2019/10/30 13:32:01 BASE 23.61 26 29.73 24 1.6 100 1.6 54 0 982.4 NA 0.2540 -SN BR 1300 360 0 0 0
2019/10/30 13:33:00 BASE 24.33 26 29.73 24 1.6 100 1.6 53 0 982.4 NA 0.0000 -SN BR 1700 330 0 0 0
2019/10/30 13:34:00 BASE 24.27 23 29.73 24 1.6 100 1.6 53 0 982.4 NA 0.0000 -SN BR 1400 330 0 0 0
2019/10/30 13:35:00 BASE 24.04 22 29.73 24 1.6 100 1.6 54 0 982.3 NA 0.0000 -SN BR 1600 330 0 0 0
2019/10/30 13:36:00 BASE 23.34 22 29.73 24 1.6 100 1.6 55 0 982.4 NA 0.0000 -SN BR 2100 360 0 0 0
2019/10/30 13:37:00 BASE 23.40 24 29.73 24 1.6 100 1.6 52 0 982.5 NA 0.0000 -SN BR 1800 330 0 0 0
2019/10/30 13:38:00 BASE 24.19 24 29.27 23 1.6 100 1.6 52 0 982.4 NA 0.2540 -SN BR 1500 330 0 0 0
2019/10/30 13:39:00 BASE 25.56 22 29.07 23 1.6 100 1.6 53 0 982.3 NA 0.0000 -SN BR 1600 330 0 0 0
2019/10/30 13:40:00 BASE 25.72 22 29.07 23 1.6 100 1.6 52 0 982.4 NA 0.0000 -SN BR 1400 330 0 0 0
2019/10/30 13:41:00 BASE 24.59 24 29.07 23 1.6 100 1.6 54 0 982.4 NA 0.0000 -SN BR 1300 360 0 0 0
2019/10/30 13:42:00 BASE 25.05 23 29.07 23 1.6 100 1.6 55 0 982.3 NA 0.0000 -SN BR 1600 330 0 0 0
2019/10/30 13:43:00 BASE 25.24 22 29.07 23 1.6 100 1.6 55 0 982.3 NA 0.2540 -SN BR 1600 300 0 0 0
2019/10/30 13:44:00 BASE 25.40 22 29.07 23 1.6 100 1.6 55 0 982.3 NA 0.0000 -SN BR 1500 330 0 0 0
2019/10/30 13:45:00 BASE 26.26 23 29.07 23 1.6 100 1.6 53 0 982.3 NA 0.0000 -SN BR 1600 330 0 0 0
2019/10/30 13:46:00 BASE 25.32 25 29.07 23 1.6 100 1.6 53 0 982.4 NA 0.0000 -SN BR 1500 360 0 0 0
2019/10/30 13:47:00 BASE 23.65 24 29.07 23 1.6 100 1.6 53 0 982.4 NA 0.0000 -SN BR 1700 360 0 0 0
2019/10/30 13:48:00 BASE 24.83 23 29.07 25 1.6 100 1.6 55 0 982.3 NA 0.2540 -SN BR 2100 330 0 0 0
2019/10/30 13:49:00 BASE 24.90 26 29.07 25 1.6 100 1.6 56 0 982.4 NA 0.0000 -SN BR 1700 300 0 0 0
2019/10/30 13:50:00 BASE 22.84 25 29.07 25 1.6 100 1.6 57 0 982.4 NA 0.0000 -SN BR 1900 330 0 0 0
2019/10/30 13:51:00 BASE 23.25 23 29.07 25 1.6 100 1.6 59 0 982.4 NA 0.0000 -SN BR 1800 360 0 0 0
2019/10/30 13:52:00 BASE 25.25 23 29.07 25 1.6 100 1.6 59 0 982.2 NA 0.0000 -SN BR 1700 360 0 0 0
2019/10/30 13:53:00 BASE 26.28 23 29.07 25 1.6 100 1.6 59 0 982.2 NA 0.2540 -SN BR 1800 360 0 0 0
2019/10/30 13:54:00 BASE 25.28 23 29.07 25 1.6 100 1.6 60 0 982.3 NA 0.0000 -SN BR 1700 360 0 0 0
2019/10/30 13:55:00 BASE 24.67 22 29.07 25 1.6 100 1.6 61 0 982.3 NA 0.0000 -SN BR 2000 360 0 0 0
2019/10/30 13:56:00 BASE 23.90 22 29.07 25 1.6 100 1.6 62 0 982.4 NA 0.0000 -SN BR 1500 360 0 0 0
2019/10/30 13:57:00 BASE 23.36 23 29.07 25 1.6 100 1.6 66 0 982.3 NA 0.0000 -SN BR 1800 330 0 0 0
2019/10/30 13:58:01 BASE 23.93 26 28.35 20 1.6 100 1.6 69 0 982.3 NA 0.2540 -SN BR 1700 330 0 0 0
2019/10/30 13:59:01 BASE 23.88 30 28.35 20 1.6 100 1.6 72 0 982.3 NA 0.0000 -SN BR 1600 390 0 0 0
2019/10/30 14:00:01 BASE 24.63 29 28.81 27 1.6 100 1.6 76 0 982.2 NA 0.0000 -SN BR 2100 330 0 0 0
2019/10/30 14:01:01 BASE 24.33 25 28.81 27 1.6 100 1.6 77 0 982.3 NA 0.0000 -SN BR 1500 330 0 0 0
2019/10/30 14:02:01 BASE 23.77 25 28.81 27 1.6 100 1.6 76 0 982.3 NA 0.2540 -SN BR 1700 330 0 0 0
2019/10/30 14:03:01 BASE 24.42 27 28.81 27 1.6 100 1.6 78 0 982.2 NA 0.0000 -SN BR 1700 330 0 0 0
2019/10/30 14:04:01 BASE 24.39 30 28.81 27 1.6 100 1.6 76 0 982.2 NA 0.0000 -SN BR 1400 360 0 0 0
2019/10/30 14:05:01 BASE 25.36 29 28.81 27 1.6 100 1.6 77 0 982.1 NA 0.0000 -SN BR 1500 300 0 0 0
2019/10/30 14:06:01 BASE 25.85 27 28.81 27 1.6 100 1.6 77 0 982.2 NA 0.0000 -SN BR 1600 330 0 0 0
2019/10/30 14:07:01 BASE 25.22 28 28.81 27 1.6 100 1.6 74 0 982.2 NA 0.2540 -SN BR 1900 330 0 0 0
2019/10/30 14:08:01 BASE 25.07 29 28.81 27 1.6 100 1.6 71 0 982.2 NA 0.0000 -SN BR 1600 330 0 0 0
2019/10/30 14:09:01 BASE 25.23 30 28.81 27 1.6 100 1.6 71 0 982.2 NA 0.0000 -SN BR 1500 330 0 0 0
2019/10/30 14:10:01 BASE 24.52 31 28.65 34 1.6 100 1.6 74 0 982.3 NA 0.0000 -SN BR 1300 360 0 0 0
2019/10/30 14:11:01 BASE 24.44 29 28.65 34 1.6 100 1.6 74 0 982.2 NA 0.2540 -SN BR 1500 1210 0 0 0
2019/10/30 14:12:01 BASE 25.26 29 29.43 26 1.6 100 1.6 76 0 982.2 NA 0.0000 -SN BR 1900 330 0 0 0
2019/10/30 14:13:01 BASE 25.14 27 29.84 28 1.6 100 1.6 74 0 982.3 NA 0.0000 -SN BR 1900 0 0 0 1540
2019/10/30 14:14:01 BASE 24.88 28 29.84 28 1.6 100 1.6 72 0 982.3 NA 0.0000 -SN BR 1800 430 0 0 0
2019/10/30 14:15:01 BASE 23.84 30 29.84 28 1.6 100 1.6 73 0 982.3 NA 0.0000 -SN BR 1800 390 0 0 0
2019/10/30 14:16:01 BASE 23.58 31 29.84 28 1.6 100 1.6 72 0 982.3 NA 0.2540 -SN BR 2100 360 0 0 0
2019/10/30 14:17:01 BASE 23.55 28 29.84 28 1.6 100 1.6 73 0 982.4 NA 0.0000 -SN BR 2200 0 0 0 1710
2019/10/30 14:18:01 BASE 23.56 26 29.84 28 1.6 100 1.6 73 0 982.3 NA 0.0000 -SN BR 2200 390 0 0 0
2019/10/30 14:19:01 BASE 23.74 27 29.84 28 1.6 100 1.6 70 0 982.3 NA 0.0000 -SN BR 2100 390 0 0 0
2019/10/30 14:20:01 BASE 24.47 29 29.84 28 1.6 100 1.6 70 0 982.3 NA 0.0000 -SN BR 2300 0 0 0 1540
2019/10/30 14:21:01 BASE 25.30 30 29.84 28 1.6 100 1.6 71 0 982.2 NA 0.0000 -SN BR 2000 360 0 0 0
2019/10/30 14:22:01 BASE 25.81 29 29.84 28 1.6 100 1.6 71 0 982.2 NA 0.2540 -SN BR 2000 390 0 0 0
2019/10/30 14:23:01 BASE 23.98 28 29.63 28 1.7 100 1.7 71 0 982.4 NA 0.0000 -SN BR 1800 390 0 0 0
2019/10/30 14:24:01 BASE 21.68 28 29.63 28 1.7 100 1.7 75 0 982.3 NA 0.0000 -SN BR 2300 330 0 0 0
2019/10/30 14:25:01 BASE 23.48 30 29.63 28 1.7 100 1.7 71 0 982.2 NA 0.0000 -SN BR 2300 660 0 0 0
2019/10/30 14:26:01 BASE 25.06 29 29.63 28 1.6 100 1.6 70 0 982.2 NA 0.0000 -SN BR 2000 330 0 0 0
2019/10/30 14:27:01 BASE 25.02 28 29.63 28 1.6 100 1.6 71 0 982.2 NA 0.2540 -SN BR 1900 300 0 0 0
2019/10/30 14:28:01 BASE 25.53 27 29.17 37 1.6 100 1.6 69 0 982.2 NA 0.0000 -SN BR 1800 330 0 0 0
2019/10/30 14:29:01 BASE 25.33 27 29.17 37 1.6 100 1.6 69 0 982.3 NA 0.0000 -SN BR 1800 330 0 0 0
2019/10/30 14:30:01 BASE 23.65 28 28.96 18 1.6 100 1.6 70 0 982.4 NA 0.0000 -SN BR 1700 330 0 0 0
2019/10/30 14:31:01 BASE 22.75 26 28.96 18 1.6 100 1.6 72 0 982.4 NA 0.0000 -SN BR 2200 300 0 0 0
2019/10/30 14:32:01 BASE 23.14 25 28.96 18 1.6 100 1.6 72 0 982.4 NA 0.2540 -SN BR 2100 330 0 0 0
2019/10/30 14:33:00 BASE 23.43 26 28.96 18 1.6 100 1.6 72 0 982.4 NA 0.0000 -SN BR 2200 330 0 0 0
2019/10/30 14:34:01 BASE 24.32 25 28.96 18 1.6 100 1.6 71 0 982.4 NA 0.0000 -SN BR 2000 330 0 0 0
2019/10/30 14:35:01 BASE 24.66 24 28.96 18 1.6 100 1.6 74 0 982.4 NA 0.0000 -SN BR 1900 300 0 0 0
2019/10/30 14:36:01 BASE 24.09 25 28.96 18 1.6 100 1.6 73 0 982.4 NA 0.0000 -SN BR 1900 300 0 0 0
2019/10/30 14:37:01 BASE 23.66 27 28.96 18 1.6 100 1.6 76 0 982.4 NA 0.0000 -SN BR 1700 330 0 0 0
2019/10/30 14:38:01 BASE 23.42 28 29.48 28 1.6 100 1.6 77 0 982.3 NA 0.2540 -SN BR 1600 330 0 0 0
2019/10/30 14:39:01 BASE 24.18 27 29.48 28 1.6 100 1.6 79 0 982.3 NA 0.0000 -SN BR 2100 330 0 0 0
2019/10/30 14:40:01 BASE 24.56 27 29.48 28 1.6 100 1.6 78 0 982.3 NA 0.0000 -SN BR 1800 360 0 0 0
2019/10/30 14:41:01 BASE 24.22 27 29.48 28 1.7 100 1.7 73 0 982.4 NA 0.0000 -SN BR 1900 360 0 0 0
2019/10/30 14:42:01 BASE 24.53 28 29.48 28 1.7 100 1.7 71 0 982.3 NA 0.0000 -SN BR 2000 360 0 0 0
2019/10/30 14:43:00 BASE 25.11 29 29.48 28 1.7 100 1.7 71 0 982.3 NA 0.2540 -SN BR 1900 330 0 0 0
2019/10/30 14:44:00 BASE 24.72 27 29.48 28 1.7 100 1.7 71 0 982.3 NA 0.2540 -SN BR 2300 330 0 0 0
2019/10/30 14:45:00 BASE 24.60 24 29.48 28 1.7 100 1.7 72 0 982.3 NA 0.0000 -SN BR 2000 330 0 0 0
2019/10/30 14:46:00 BASE 24.92 23 29.48 28 1.7 100 1.7 72 0 982.3 NA 0.0000 -SN BR 1800 360 0 0 0
2019/10/30 14:47:00 BASE 24.19 26 29.48 28 1.7 100 1.7 72 0 982.3 NA 0.0000 -SN BR 2000 360 0 0 0
2019/10/30 14:48:00 BASE 22.77 28 28.50 31 1.7 100 1.7 75 0 982.4 NA 0.0000 -SN BR 2400 1310 0 0 0
2019/10/30 14:49:00 BASE 23.38 28 28.50 31 1.7 100 1.7 74 0 982.3 NA 0.2540 -SN BR 2200 0 0 0 2330
2019/10/30 14:50:00 BASE 24.86 27 28.60 18 1.7 100 1.7 72 0 982.3 NA 0.2540 -SN BR 2100 360 0 0 0
2019/10/30 14:51:00 BASE 26.18 29 29.84 31 1.7 100 1.7 71 0 982.2 NA 0.0000 -SN BR 2000 330 0 0 0
2019/10/30 14:52:00 BASE 27.33 33 31.02 36 1.7 100 1.7 72 0 982.2 NA 0.0000 -SN BR 1800 330 0 0 0
2019/10/30 14:53:00 BASE 27.29 34 31.02 36 1.8 100 1.8 74 0 982.2 NA 0.0000 -SN BR 1400 750 0 0 0
2019/10/30 14:54:00 BASE 26.69 31 31.02 36 1.8 100 1.8 77 0 982.3 NA 0.0000 -SN BR 1400 330 0 0 0
2019/10/30 14:55:00 BASE 24.62 29 31.02 36 1.8 100 1.8 78 0 982.3 NA 0.2540 -SN BR 1500 360 0 0 0
2019/10/30 14:56:00 BASE 25.07 32 31.02 36 1.8 100 1.8 79 0 982.2 NA 0.0000 -SN BR 1900 330 0 0 0
2019/10/30 14:57:00 BASE 26.66 33 31.02 36 1.8 100 1.8 80 0 982.2 NA 0.0000 -SN BR 2000 360 0 0 0
2019/10/30 14:58:00 BASE 26.47 30 31.02 36 1.8 100 1.8 82 0 982.2 NA 0.0000 -SN BR 2400 330 0 0 0
2019/10/30 14:59:01 BASE 25.38 27 31.02 36 1.8 100 1.8 83 0 982.3 NA 0.0000 -SN BR 2200 360 0 0 0
2019/10/30 15:00:01 BASE 23.09 25 31.02 36 1.8 100 1.8 84 0 982.4 NA 0.2540 -SN BR 2300 330 0 0 0
2019/10/30 15:01:01 BASE 22.78 27 31.02 36 1.8 100 1.8 84 0 982.4 NA 0.0000 -SN BR 2400 360 0 0 0
2019/10/30 15:02:01 BASE 23.92 30 29.43 31 1.8 100 1.8 82 0 982.3 NA 0.0000 -SN BR 2500 360 0 0 0
2019/10/30 15:03:01 BASE 24.34 30 29.43 31 1.8 100 1.8 80 0 982.3 NA 0.0000 -SN BR 2300 360 0 0 0
2019/10/30 15:04:01 BASE 24.61 28 29.43 31 1.8 100 1.8 78 0 982.3 NA 0.0000 -SN BR 2200 390 0 0 0
2019/10/30 15:05:01 BASE 23.92 28 29.43 31 1.8 100 1.8 77 0 982.4 NA 0.0000 -SN BR 2200 390 0 0 0
2019/10/30 15:06:01 BASE 22.31 29 29.43 31 1.8 100 1.8 76 0 982.5 NA 0.0000 -SN BR 3600 390 0 0 0
2019/10/30 15:07:01 BASE 22.19 29 28.71 26 1.7 100 1.7 76 0 982.4 NA 0.2540 -SN BR 3000 390 0 0 0
2019/10/30 15:08:01 BASE 23.03 29 28.50 38 1.7 100 1.7 77 0 982.4 NA 0.0000 -SN BR 2600 390 0 0 0
2019/10/30 15:09:01 BASE 23.12 29 28.50 38 1.8 100 1.8 77 0 982.4 NA 0.0000 -SN BR 2900 390 0 0 0
2019/10/30 15:10:01 BASE 23.53 27 28.50 38 1.8 100 1.8 78 0 982.4 NA 0.0000 -SN BR 3000 360 0 0 0
2019/10/30 15:11:01 BASE 23.03 26 28.50 38 1.8 100 1.8 77 0 982.4 NA 0.0000 -SN BR 2100 390 0 0 0
2019/10/30 15:12:01 BASE 23.07 26 28.50 38 1.8 100 1.8 77 0 982.4 NA 0.0000 -SN BR 2200 390 0 0 0
2019/10/30 15:13:01 BASE 24.09 27 27.73 31 1.8 100 1.8 77 0 982.4 NA 0.0000 -SN BR 2100 390 0 0 0
2019/10/30 15:14:01 BASE 24.02 27 27.73 31 1.8 100 1.8 77 0 982.4 NA 0.2540 -SN BR 2000 390 0 0 0
2019/10/30 15:15:01 BASE 23.39 25 27.73 31 1.9 100 1.9 78 0 982.5 NA 0.0000 -SN BR 2400 390 0 0 0
2019/10/30 15:16:01 BASE 21.94 26 27.73 31 1.9 100 1.9 76 0 982.5 NA 0.0000 -SN BR 3000 0 0 0 1870
2019/10/30 15:17:01 BASE 22.89 30 28.14 28 1.9 100 1.9 76 0 982.4 NA 0.0000 -SN BR 2800 0 0 0 2130
2019/10/30 15:18:01 BASE 24.30 31 28.14 28 1.9 100 1.9 77 0 982.4 NA 0.0000 -SN BR 1900 430 0 0 0
2019/10/30 15:19:01 BASE 22.69 29 28.14 28 1.9 100 1.9 76 0 982.5 NA 0.0000 -SN BR 2600 430 0 0 0
2019/10/30 15:20:01 BASE 21.74 26 28.14 28 1.9 100 1.9 76 0 982.5 NA 0.2540 -SN BR 2400 430 0 0 0
2019/10/30 15:21:01 BASE 22.90 26 28.14 28 1.9 100 1.9 76 0 982.4 NA 0.0000 -SN BR 2300 560 0 0 0
2019/10/30 15:22:01 BASE 23.98 28 28.55 27 2.0 100 2.0 74 0 982.5 NA 0.0000 -SN BR 2400 0 0 0 1900
2019/10/30 15:23:01 BASE 24.88 28 31.12 27 2.0 100 2.0 72 0 982.4 NA 0.0000 -SN BR 2200 430 0 0 0
2019/10/30 15:24:01 BASE 23.37 27 31.12 27 2.0 100 2.0 73 0 982.5 NA 0.0000 -SN BR 2300 0 0 0 2030
2019/10/30 15:25:01 BASE 21.93 26 31.12 27 2.0 100 2.0 70 0 982.5 NA 0.0000 -SN BR 2400 0 0 0 2130
2019/10/30 15:26:01 BASE 23.92 25 31.12 27 2.0 100 2.0 72 0 982.4 NA 0.0000 -SN BR 2500 390 0 0 0
2019/10/30 15:27:01 BASE 24.67 27 31.12 27 1.9 100 1.9 72 0 982.4 NA 0.2540 -SN BR 1200 390 0 0 0
2019/10/30 15:28:01 BASE 23.93 28 31.12 27 1.9 100 1.9 76 0 982.5 NA 0.0000 -SN BR 2100 390 0 0 0
2019/10/30 15:29:01 BASE 22.38 29 31.12 27 1.9 100 1.9 78 0 982.6 NA 0.0000 -SN BR 2200 390 0 0 0
2019/10/30 15:30:01 BASE 22.04 27 31.12 27 1.9 100 1.9 80 0 982.5 NA 0.0000 -SN BR 2200 390 0 0 0
2019/10/30 15:31:01 BASE 22.35 27 31.12 27 2.0 100 2.0 85 0 982.6 NA 0.0000 -SN BR 2400 430 0 0 0
2019/10/30 15:32:01 BASE 22.79 29 31.12 27 2.0 100 2.0 86 0 982.6 NA 0.2540 -SN BR 4000 0 0 0 1740
2019/10/30 15:33:01 BASE 22.93 29 27.47 29 2.0 100 2.0 86 0 982.6 NA 0.0000 -SN BR 2400 430 0 0 0
2019/10/30 15:34:01 BASE 22.88 30 27.47 29 2.0 100 2.0 85 0 982.5 NA 0.0000 -SN BR 2000 390 0 0 0
2019/10/30 15:35:01 BASE 24.33 30 27.47 29 1.9 100 1.9 85 0 982.4 NA 0.0000 -SN BR 2100 430 0 0 0
2019/10/30 15:36:01 BASE 24.64 32 27.42 37 1.9 100 1.9 86 0 982.4 NA 0.0000 -SN BR 2000 1120 0 0 0
2019/10/30 15:37:00 BASE 24.87 33 27.68 29 1.9 100 1.9 87 0 982.3 NA 0.0000 -SN BR 2400 0 0 0 2200
2019/10/30 15:38:01 BASE 25.86 31 28.65 29 1.9 100 1.9 89 0 982.3 NA 0.0000 -SN BR 3000 0 0 0 2100
2019/10/30 15:39:00 BASE 26.22 30 28.65 29 1.9 100 1.9 88 0 982.3 NA 0.2540 -SN BR 2200 0 0 0 2070
2019/10/30 15:40:01 BASE 25.52 30 28.65 29 1.9 100 1.9 88 0 982.4 NA 0.0000 -SN BR 2600 0 0 0 2170
2019/10/30 15:41:00 BASE 24.99 29 28.65 29 1.9 100 1.9 85 0 982.4 NA 0.0000 -SN BR 2200 390 0 0 0
2019/10/30 15:42:00 BASE 25.49 29 29.84 29 1.9 100 1.9 82 0 982.4 NA 0.0000 -SN BR 2100 0 0 0 2230
2019/10/30 15:43:00 BASE 26.26 32 30.09 35 1.9 100 1.9 80 0 982.4 NA 0.0000 -SN BR 2300 390 0 0 0
2019/10/30 15:44:01 BASE 25.65 32 30.09 35 1.9 100 1.9 78 0 982.4 NA 0.0000 -SN BR 2200 430 0 0 0
2019/10/30 15:45:01 BASE 24.25 30 30.09 35 1.9 100 1.9 77 0 982.5 NA 0.0000 -SN BR 2100 430 0 0 0
2019/10/30 15:46:01 BASE 24.37 29 30.09 35 1.9 100 1.9 75 0 982.4 NA 0.2540 -SN BR 2000 430 0 0 0
2019/10/30 15:47:01 BASE 25.04 28 30.09 35 1.9 100 1.9 76 0 982.5 NA 0.0000 -SN BR 1800 430 0 0 0
2019/10/30 15:48:01 BASE 25.05 29 30.09 35 1.9 100 1.9 78 0 982.4 NA 0.0000 -SN BR 1800 430 0 0 0
2019/10/30 15:49:01 BASE 25.04 28 30.09 35 1.9 100 1.9 78 0 982.4 NA 0.0000 -SN BR 1800 430 0 0 0
2019/10/30 15:50:01 BASE 25.09 30 30.09 35 1.9 100 1.9 79 0 982.4 NA 0.0000 -SN BR 1800 460 0 0 0
2019/10/30 15:51:01 BASE 24.32 30 30.09 35 1.9 100 1.9 81 0 982.5 NA 0.0000 -SN BR 2100 430 0 0 0
2019/10/30 15:52:01 BASE 23.58 25 30.09 35 1.9 100 1.9 81 0 982.4 NA 0.2540 -SN BR 2100 430 0 0 0
2019/10/30 15:53:01 BASE 23.46 26 29.12 27 1.8 100 1.8 81 0 982.5 NA 0.0000 -SN BR 2000 430 0 0 0
2019/10/30 15:54:01 BASE 23.08 27 29.12 27 1.8 100 1.8 83 0 982.5 NA 0.0000 -SN BR 1900 390 0 0 0
2019/10/30 15:55:01 BASE 23.96 28 29.12 27 1.8 100 1.8 82 0 982.5 NA 0.0000 -SN BR 2000 390 0 0 0
2019/10/30 15:56:00 BASE 25.33 29 29.48 28 1.8 100 1.8 82 0 982.5 NA 0.0000 -SN BR 1900 390 0 0 0
2019/10/30 15:57:00 BASE 24.50 28 29.48 28 1.8 100 1.8 83 0 982.5 NA 0.2540 -SN BR 1700 390 0 0 0
2019/10/30 15:58:00 BASE 23.89 26 29.48 28 1.8 100 1.8 85 0 982.5 NA 0.2540 -SN BR 1600 430 0 0 0
2019/10/30 15:59:01 BASE 24.62 27 29.48 28 1.8 100 1.8 87 0 982.5 NA 0.0000 -SN BR 2100 0 0 0 2260
2019/10/30 16:00:01 BASE 25.03 28 31.43 34 1.8 100 1.8 86 0 982.5 NA 0.0000 -SN BR 2000 0 0 0 2660
2019/10/30 16:01:01 BASE 25.19 27 31.43 34 1.8 100 1.8 88 0 982.5 NA 0.0000 -SN BR 2200 660 0 0 0
2019/10/30 16:02:01 BASE 25.83 29 31.43 34 1.8 100 1.8 88 0 982.4 NA 0.0000 -SN BR 2000 660 0 0 0
2019/10/30 16:03:01 BASE 25.59 31 31.43 34 1.8 100 1.8 88 0 982.4 NA 0.0000 -SN BR 1700 660 0 0 0
2019/10/30 16:04:01 BASE 24.78 32 31.43 34 1.9 100 1.9 88 0 982.5 NA 0.2540 -SN BR 2000 660 0 0 0
2019/10/30 16:05:01 BASE 25.78 32 31.43 34 1.9 100 1.9 85 0 982.4 NA 0.0000 -SN BR 1900 720 0 0 0
2019/10/30 16:06:01 BASE 25.59 31 31.43 34 1.9 100 1.9 82 0 982.5 NA 0.0000 -SN BR 1900 0 0 0 2620
2019/10/30 16:07:01 BASE 24.35 28 31.43 34 1.9 100 1.9 82 0 982.6 NA 0.0000 -SN BR 1900 460 0 0 0
2019/10/30 16:08:01 BASE 23.34 25 31.43 34 2.0 100 2.0 82 0 982.6 NA 0.0000 -SN BR 1900 560 0 0 0
2019/10/30 16:09:01 BASE 23.07 26 31.43 34 2.0 100 2.0 82 0 982.6 NA 0.0000 -SN BR 2300 560 0 0 0
2019/10/30 16:10:01 BASE 23.18 26 29.84 31 2.0 100 2.0 83 0 982.6 NA 0.2540 -SN BR 2100 460 0 0 0
2019/10/30 16:11:01 BASE 23.14 25 29.84 31 2.0 100 2.0 84 0 982.5 NA 0.0000 -SN BR 2700 460 0 0 0
2019/10/30 16:12:01 BASE 23.01 22 29.48 31 2.0 100 2.0 88 0 982.7 NA 0.0000 -SN BR 2300 590 0 0 0
2019/10/30 16:13:01 BASE 24.30 25 29.48 31 2.0 100 2.0 91 0 982.6 NA 0.0000 -SN BR 2300 560 0 0 0
2019/10/30 16:14:01 BASE 25.12 27 29.48 31 2.0 100 2.0 90 0 982.7 NA 0.0000 -SN BR 2000 1310 0 0 0
2019/10/30 16:15:01 BASE 23.19 26 29.01 28 2.0 100 2.0 91 0 982.7 NA 0.0000 -SN BR 2200 0 0 0 2330
2019/10/30 16:16:01 BASE 21.97 26 29.01 28 2.0 100 2.0 90 0 982.7 NA 0.0000 -SN BR 2400 0 0 0 2200
2019/10/30 16:17:01 BASE 22.23 25 29.01 28 2.0 100 2.0 84 0 982.7 NA 0.0000 -SN BR 2500 560 0 0 0
2019/10/30 16:18:01 BASE 22.68 25 29.01 28 2.0 100 2.0 83 0 982.7 NA 0.0000 -SN BR 2200 430 0 0 0
2019/10/30 16:19:01 BASE 22.88 24 29.01 28 2.0 100 2.0 82 0 982.7 NA 0.2540 -SN BR 2300 430 0 0 0
2019/10/30 16:20:01 BASE 23.14 25 28.65 25 2.0 100 2.0 83 0 982.7 NA 0.0000 -SN BR 2400 390 0 0 0
2019/10/30 16:21:01 BASE 22.88 27 28.65 25 2.0 100 2.0 82 0 982.7 NA 0.0000 -SN BR 2300 430 0 0 0
2019/10/30 16:22:01 BASE 22.43 27 28.65 25 2.0 100 2.0 79 0 982.7 NA 0.0000 -SN BR 2400 430 0 0 0
2019/10/30 16:23:01 BASE 21.14 27 28.65 25 2.0 100 2.0 79 0 982.8 NA 0.0000 -SN BR 2800 390 0 0 0
2019/10/30 16:24:01 BASE 22.13 27 28.65 25 2.0 100 2.0 80 0 982.7 NA 0.0000 -SN BR 2200 390 0 0 0
2019/10/30 16:25:01 BASE 24.76 30 28.81 18 2.0 100 2.0 79 0 982.6 NA 0.2540 -SN BR 1800 430 0 0 0
2019/10/30 16:26:01 BASE 24.75 29 29.17 33 2.0 100 2.0 81 0 982.6 NA 0.0000 -SN BR 1400 0 0 0 2130
2019/10/30 16:27:01 BASE 24.30 27 29.17 33 2.0 100 2.0 80 0 982.6 NA 0.0000 -SN BR 1500 430 0 0 0
2019/10/30 16:28:01 BASE 24.52 27 29.37 27 2.0 100 2.0 77 0 982.6 NA 0.0000 -SN BR 1700 430 0 0 0
2019/10/30 16:29:01 BASE 23.63 26 29.37 27 2.1 100 2.1 75 0 982.7 NA 0.0000 -SN BR 1600 560 0 0 0
2019/10/30 16:30:01 BASE 22.85 26 29.37 27 2.1 100 2.1 75 0 982.6 NA 0.0000 -SN BR 1800 620 0 0 0
2019/10/30 16:31:01 BASE 23.24 26 29.37 27 2.0 100 2.0 77 0 982.6 NA 0.2540 -SN BR 1900 690 0 0 0
2019/10/30 16:32:01 BASE 24.53 30 30.61 20 2.0 100 2.0 77 0 982.5 NA 0.0000 -SN BR 1800 690 0 0 0
2019/10/30 16:33:01 BASE 26.08 31 30.61 20 2.0 100 2.0 82 0 982.5 NA 0.0000 -SN BR 1900 660 0 0 0
2019/10/30 16:34:01 BASE 24.98 29 30.61 20 2.0 100 2.0 83 0 982.6 NA 0.0000 -SN BR 1400 660 0 0 0
2019/10/30 16:35:01 BASE 23.04 30 30.61 20 2.0 100 2.0 84 0 982.6 NA 0.2540 -SN BR 1700 620 0 0 0
2019/10/30 16:36:01 BASE 23.48 30 30.61 20 1.9 100 1.9 82 0 982.6 NA 0.0000 -SN BR 1800 590 0 0 0
2019/10/30 16:37:01 BASE 25.13 31 30.61 20 1.9 100 1.9 81 0 982.6 NA 0.0000 -SN BR 1900 0 0 0 2000
2019/10/30 16:38:01 BASE 25.09 30 30.61 20 1.9 100 1.9 82 0 982.6 NA 0.0000 -SN BR 1700 560 0 0 0
2019/10/30 16:39:01 BASE 24.88 29 30.61 20 2.0 100 2.0 81 0 982.6 NA 0.0000 -SN BR 2200 720 0 0 0
2019/10/30 16:40:01 BASE 24.71 30 30.61 20 2.0 100 2.0 81 0 982.6 NA 0.2540 -SN BR 2200 560 0 0 0
2019/10/30 16:41:00 BASE 23.68 30 30.61 20 2.0 100 2.0 81 0 982.7 NA 0.0000 -SN BR 1900 390 22900 0 0
2019/10/30 16:42:01 BASE 24.13 31 30.20 27 2.0 100 2.0 80 0 982.6 NA 0.0000 -SN BR 2000 0 0 0 2130
2019/10/30 16:43:01 BASE 24.57 31 30.20 27 2.0 100 2.0 79 0 982.6 NA 0.0000 -SN BR 2200 430 0 0 0
2019/10/30 16:44:01 BASE 24.10 29 30.20 27 2.0 100 2.0 79 0 982.6 NA 0.2540 -SN BR 1900 0 0 0 2360
2019/10/30 16:45:01 BASE 23.94 28 30.20 27 2.0 100 2.0 77 0 982.6 NA 0.0000 -SN BR 1700 620 0 0 0
2019/10/30 16:46:01 BASE 23.33 26 30.20 27 2.0 100 2.0 76 0 982.7 NA 0.0000 -SN BR 1700 590 0 0 0
2019/10/30 16:47:00 BASE 22.70 24 30.20 27 2.0 100 2.0 77 0 982.7 NA 0.0000 -SN BR 2400 660 0 0 0
2019/10/30 16:48:01 BASE 23.36 25 30.20 27 2.0 100 2.0 77 0 982.7 NA 0.0000 -SN BR 1800 720 0 0 0
2019/10/30 16:49:00 BASE 23.47 26 27.93 33 2.0 100 2.0 79 0 982.7 NA 0.2540 -SN BR 1800 390 0 0 0
2019/10/30 16:50:01 BASE 22.66 29 27.78 33 1.9 100 1.9 77 0 982.8 NA 0.0000 -SN BR 1700 0 0 0 2400
2019/10/30 16:51:00 BASE 23.40 31 27.78 33 1.9 100 1.9 75 0 982.7 NA 0.0000 -SN BR 2200 390 0 0 0
2019/10/30 16:52:01 BASE 24.29 31 27.57 24 1.8 100 1.8 74 0 982.7 NA 0.0000 -SN BR 2000 890 0 0 0
2019/10/30 16:53:01 BASE 24.84 30 27.83 23 1.8 100 1.8 73 0 982.6 NA 0.2540 -SN BR 1900 820 0 0 0
2019/10/30 16:54:01 BASE 24.97 30 27.83 23 1.7 100 1.7 73 0 982.7 NA 0.0000 -SN BR 1700 0 0 0 2260
2019/10/30 16:55:01 BASE 24.00 31 27.83 23 1.7 100 1.7 72 0 982.7 NA 0.0000 -SN BR 1900 660 0 0 0
2019/10/30 16:56:01 BASE 23.37 28 27.83 23 1.7 100 1.7 71 0 982.7 NA 0.0000 -SN BR 1900 620 0 0 0
2019/10/30 16:57:01 BASE 22.50 24 27.83 23 1.7 100 1.7 73 0 982.8 NA 0.0000 -SN BR 1900 620 0 0 0
2019/10/30 16:58:01 BASE 21.92 24 27.83 23 1.7 100 1.7 72 0 982.8 NA 0.0000 -SN BR 2100 690 0 0 0
2019/10/30 16:59:01 BASE 22.68 25 27.83 23 1.7 100 1.7 70 0 982.8 NA 0.2540 -SN BR 2300 430 0 0 0
2019/10/30 17:00:01 BASE 24.13 24 27.83 23 1.7 100 1.7 68 0 982.7 NA 0.0000 -SN BR 1700 430 0 0 0
2019/10/30 17:01:01 BASE 23.48 24 27.83 23 1.7 100 1.7 65 0 982.8 NA 0.0000 -SN BR 2100 430 0 0 0
2019/10/30 17:02:01 BASE 22.65 27 27.83 23 1.7 100 1.7 63 0 982.8 NA 0.0000 -SN BR 2200 430 0 0 0
2019/10/30 17:03:01 BASE 23.35 30 27.78 16 1.7 100 1.7 63 0 982.7 NA 0.0000 -SN BR 2100 390 0 0 0
2019/10/30 17:04:01 BASE 24.26 30 29.17 25 1.7 100 1.7 63 0 982.7 NA 0.2540 -SN BR 1700 390 0 0 0
2019/10/30 17:05:01 BASE 23.89 30 29.17 25 1.7 100 1.7 63 0 982.8 NA 0.0000 -SN BR 1300 390 0 0 0
2019/10/30 17:06:01 BASE 23.20 27 29.17 25 1.7 100 1.7 61 0 982.8 NA 0.0000 -SN BR 1600 430 0 0 0
2019/10/30 17:07:01 BASE 24.08 26 29.17 25 1.7 100 1.7 64 0 982.7 NA 0.0000 -SN BR 1900 390 0 0 0
2019/10/30 17:08:01 BASE 24.69 25 29.48 19 1.7 100 1.7 64 0 982.8 NA 0.0000 -SN BR 1300 390 0 0 0
2019/10/30 17:09:01 BASE 24.20 25 29.48 19 1.7 100 1.7 66 0 982.8 NA 0.2540 -SN BR 1400 390 0 0 0
2019/10/30 17:10:01 BASE 23.29 26 29.48 19 1.7 100 1.7 66 0 982.9 NA 0.0000 -SN BR 2300 390 0 0 0
2019/10/30 17:11:01 BASE 22.42 26 29.48 19 1.7 100 1.7 66 0 982.9 NA 0.0000 -SN BR 1800 390 0 0 0
2019/10/30 17:12:01 BASE 22.54 27 29.48 19 1.7 100 1.7 66 0 982.8 NA 0.0000 -SN BR 1900 390 0 0 0
2019/10/30 17:13:01 BASE 22.89 29 29.48 19 1.7 100 1.7 68 0 982.8 NA 0.0000 -SN BR 1600 390 0 0 0
2019/10/30 17:14:01 BASE 24.99 29 32.20 23 1.7 100 1.7 68 0 982.6 NA 0.2540 -SN BR 1800 390 0 0 0
2019/10/30 17:15:01 BASE 27.79 29 32.20 23 1.7 100 1.7 68 0 982.6 NA 0.0000 -SN BR 1700 390 0 0 0
2019/10/30 17:16:01 BASE 28.00 30 32.20 23 1.7 100 1.7 70 0 982.6 NA 0.0000 -SN BR 1600 390 0 0 0
2019/10/30 17:17:01 BASE 27.38 29 32.20 23 1.8 100 1.8 73 0 982.6 NA 0.0000 -SN BR 1700 390 1310 0 0
2019/10/30 17:18:01 BASE 26.06 30 32.20 23 1.8 100 1.8 74 0 982.6 NA 0.0000 -SN BR 1500 390 0 0 0
2019/10/30 17:19:01 BASE 25.70 31 32.20 23 1.8 100 1.8 78 0 982.6 NA 0.2540 -SN BR 1700 360 0 0 0
2019/10/30 17:20:01 BASE 26.41 31 32.20 23 1.8 100 1.8 86 0 982.6 NA 0.0000 -SN BR 1400 390 0 0 0
2019/10/30 17:21:01 BASE 25.90 30 32.20 23 1.8 100 1.8 88 0 982.6 NA 0.0000 -SN BR 1600 0 0 0 2720
2019/10/30 17:22:01 BASE 25.19 28 32.20 23 1.8 100 1.8 86 0 982.7 NA 0.0000 -SN BR 1600 360 1250 0 0
2019/10/30 17:23:01 BASE 24.97 27 32.20 23 1.8 100 1.8 89 0 982.7 NA 0.0000 -SN BR 1900 390 0 0 0
2019/10/30 17:24:01 BASE 24.94 26 31.28 38 1.8 100 1.8 93 0 982.6 NA 0.0000 -SN BR 2100 360 0 0 0
2019/10/30 17:25:01 BASE 25.97 27 31.28 38 1.8 100 1.8 89 0 982.6 NA 0.2540 -SN BR 1800 360 0 0 0
2019/10/30 17:26:01 BASE 25.76 27 31.28 38 1.8 100 1.8 87 0 982.6 NA 0.0000 -SN BR 1800 360 0 0 0
2019/10/30 17:27:01 BASE 24.95 27 31.28 38 1.8 100 1.8 85 0 982.7 NA 0.0000 -SN BR 2300 390 0 0 0
2019/10/30 17:28:01 BASE 25.20 28 30.61 32 1.8 100 1.8 81 0 982.6 NA 0.0000 -SN BR 2900 390 0 0 0
2019/10/30 17:29:01 BASE 26.61 28 32.77 27 1.8 100 1.8 76 0 982.5 NA 0.0000 -SN BR 2000 390 2100 0 0
2019/10/30 17:30:01 BASE 27.44 28 32.77 27 1.8 100 1.8 72 0 982.6 NA 0.0000 -SN BR 1700 360 0 0 0
2019/10/30 17:31:01 BASE 26.90 31 32.77 27 1.9 100 1.9 72 0 982.6 NA 0.0000 -SN BR 2000 390 0 0 0
2019/10/30 17:32:01 BASE 26.64 31 32.77 27 1.9 100 1.9 71 0 982.6 NA 0.0000 -SN BR 2000 390 2030 0 0
2019/10/30 17:33:01 BASE 26.97 29 32.77 27 1.9 100 1.9 73 0 982.5 NA 0.2540 -SN BR 2000 360 2170 0 0
2019/10/30 17:34:01 BASE 27.11 29 32.77 27 1.9 100 1.9 71 0 982.5 NA 0.0000 -SN BR 2000 360 0 0 0
2019/10/30 17:35:01 BASE 28.01 26 33.18 22 1.9 100 1.9 70 0 982.4 NA 0.0000 -SN BR 2200 0 0 0 2990
2019/10/30 17:36:01 BASE 28.11 23 33.18 22 1.9 100 1.9 70 0 982.5 NA 0.0000 -SN BR 2000 330 0 0 0
2019/10/30 17:37:01 BASE 26.63 24 33.18 22 1.9 100 1.9 71 0 982.5 NA 0.0000 -SN BR 1800 360 0 0 0
2019/10/30 17:38:01 BASE 26.87 26 33.18 22 1.9 100 1.9 70 0 982.5 NA 0.0000 -SN BR 2200 360 0 0 0
2019/10/30 17:39:01 BASE 27.09 26 33.18 22 1.8 100 1.8 73 0 982.5 NA 0.0000 -SN BR 1800 0 0 0 3120
2019/10/30 17:40:01 BASE 25.93 23 33.18 22 1.8 100 1.8 76 0 982.6 NA 0.2540 -SN BR 2000 0 0 0 3310
2019/10/30 17:41:01 BASE 25.85 21 33.18 22 1.8 100 1.8 79 0 982.6 NA 0.2540 -SN BR 2100 0 0 0 3670
2019/10/30 17:42:01 BASE 27.56 24 33.18 22 1.8 100 1.8 82 0 982.5 NA 0.0000 -SN BR 2600 0 0 0 3350
2019/10/30 17:43:01 BASE 27.57 28 33.18 22 1.9 100 1.9 84 0 982.6 NA 0.0000 -SN BR 2100 390 0 0 0
2019/10/30 17:44:01 BASE 26.69 26 33.18 22 1.9 100 1.9 83 0 982.5 NA 0.0000 -SN BR 2500 0 0 0 3380
2019/10/30 17:45:01 BASE 26.41 24 31.28 30 1.9 100 1.9 82 0 982.5 NA 0.0000 -SN BR 3100 0 0 0 3670
2019/10/30 17:46:01 BASE 26.48 24 31.28 30 1.9 100 1.9 85 0 982.5 NA 0.0000 -SN BR 2500 430 0 0 0
2019/10/30 17:47:01 BASE 27.20 26 31.28 30 1.9 100 1.9 87 0 982.6 NA 0.0000 -SN BR 2700 390 0 0 0
2019/10/30 17:48:01 BASE 28.18 29 35.24 28 1.9 100 1.9 89 0 982.5 NA 0.0000 -SN BR 3300 390 2850 0 0
2019/10/30 17:49:01 BASE 29.14 29 35.24 28 2.0 100 2.0 90 0 982.4 NA 0.0000 -SN BR 1900 390 0 0 0
2019/10/30 17:50:01 BASE 27.67 29 35.24 28 2.0 100 2.0 95 0 982.7 NA 0.2540 -SN BR 2300 0 0 0 4170
2019/10/30 17:51:01 BASE 25.97 31 35.24 28 2.0 100 2.0 100 0 982.6 NA 0.2540 -SN BR 2000 390 0 0 0
2019/10/30 17:52:01 BASE 25.45 29 35.24 28 2.0 100 2.0 104 0 982.7 NA 0.0000 -SN BR 2900 390 0 0 0
2019/10/30 17:53:01 BASE 25.58 29 35.24 28 2.0 100 2.0 110 0 982.6 NA 0.0000 -SN BR 2300 430 0 0 0
2019/10/30 17:54:01 BASE 26.96 28 35.24 28 2.0 100 2.0 115 0 982.6 NA 0.0000 -SN BR 2400 0 0 0 4070
2019/10/30 17:55:01 BASE 27.56 24 35.24 28 2.0 100 2.0 122 0 982.6 NA 0.0000 -SN BR 2500 0 0 0 4300
2019/10/30 17:56:01 BASE 27.86 23 35.24 28 2.0 100 2.0 127 0 982.5 NA 0.0000 -SN BR 4600 4170 0 0 0
2019/10/30 17:57:01 BASE 27.41 24 35.24 28 2.0 100 2.0 129 0 982.6 NA 0.0000 -SN BR 6000 3940 0 0 0
2019/10/30 17:58:01 BASE 25.86 25 33.95 16 2.0 100 2.0 134 0 982.7 NA 0.0000 -SN BR 5000 0 0 0 5180
2019/10/30 17:59:01 BASE 25.54 26 33.95 16 2.0 100 2.0 138 0 982.7 NA 0.0000 -SN BR 4800 2230 3250 0 0
2019/10/30 18:00:01 BASE 26.31 28 33.95 16 2.1 100 2.1 139 0 982.7 NA 0.0000 -SN BR 2800 2200 0 0 0
2019/10/30 18:01:01 BASE 25.40 27 33.95 16 2.1 100 2.1 139 0 982.7 NA 0.0000 -SN BR 8000 590 2950 0 0
2019/10/30 18:02:01 BASE 25.04 26 33.95 16 2.1 100 2.1 137 0 982.7 NA 0.0000 -SN BR 9999 460 0 0 0
2019/10/30 18:03:00 BASE 27.20 28 33.95 16 2.2 100 2.2 133 0 982.6 NA 0.0000 -SN BR 9999 460 0 0 0
2019/10/30 18:04:00 BASE 27.91 30 33.95 16 2.2 100 2.2 126 0 982.7 NA 0.0000 -SN BR 8000 430 0 0 0
2019/10/30 18:05:01 BASE 27.96 29 33.95 16 2.2 100 2.2 120 0 982.5 NA 0.0000 -SN BR 9999 390 2130 0 0
2019/10/30 18:06:01 BASE 29.51 27 36.17 17 2.2 100 2.2 114 0 982.5 NA 0.0000 -SN BR 9999 430 0 0 0
2019/10/30 18:07:00 BASE 30.21 25 36.17 17 2.3 100 2.3 108 0 982.5 NA 0.0000 -SN BR 9999 390 0 0 0
2019/10/30 18:08:01 BASE 28.93 24 36.17 17 2.3 100 2.3 105 0 982.6 NA 0.0000 -SN BR 9999 0 0 0 3480
2019/10/30 18:09:00 BASE 28.38 24 36.17 17 2.4 100 2.4 107 0 982.6 NA 0.0000 -SN BR 8000 360 0 0 0
2019/10/30 18:10:00 BASE 28.37 24 36.17 17 2.4 100 2.4 106 0 982.7 NA 0.0000 -SN 7000 360 0 0 0
2019/10/30 18:11:00 BASE 26.77 24 36.17 17 2.4 100 2.4 105 0 982.8 NA 0.0000 -SN BR 4400 390 0 0 0
2019/10/30 18:12:00 BASE 25.65 24 36.17 17 2.3 100 2.3 103 0 982.9 NA 0.0000 -SN BR 4000 360 0 0 0
2019/10/30 18:13:00 BASE 25.25 23 36.17 17 2.3 100 2.3 105 0 982.9 NA 0.0000 -SN BR 6000 360 0 0 0
2019/10/30 18:14:01 BASE 25.40 20 36.17 17 2.3 100 2.3 106 0 982.9 NA 0.0000 -SN BR 5000 360 0 0 0
2019/10/30 18:15:01 BASE 26.60 21 36.17 17 2.3 100 2.3 105 0 982.8 NA 0.0000 -SN BR 6000 0 0 0 4690
2019/10/30 18:16:00 BASE 26.42 22 32.00 32 2.3 100 2.3 107 0 982.8 NA 0.0000 -SN BR 6000 360 0 0 0
2019/10/30 18:17:00 BASE 25.50 22 32.00 32 2.3 100 2.3 111 0 982.9 NA 0.0000 -SN BR 4100 390 0 0 0
2019/10/30 18:18:00 BASE 26.36 23 32.00 32 2.3 100 2.3 113 0 982.8 NA 0.2540 -SN BR 4000 390 0 0 0
2019/10/30 18:19:00 BASE 26.86 23 30.30 23 2.3 100 2.3 113 0 982.8 NA 0.0000 -SN BR 9999 430 0 0 0
2019/10/30 18:20:00 BASE 27.21 21 31.43 25 2.3 100 2.3 112 0 982.8 NA 0.0000 -SN BR 7000 430 0 0 0
2019/10/30 18:21:00 BASE 27.93 20 31.43 25 2.4 100 2.4 113 0 982.8 NA 0.0000 -SN BR 9999 390 19550 0 0
2019/10/30 18:22:00 BASE 27.63 22 31.43 25 2.4 100 2.4 114 0 982.8 NA 0.0000 -SN BR 9999 390 0 0 0
2019/10/30 18:23:00 BASE 27.26 22 31.43 25 2.5 100 2.5 116 0 982.8 NA 0.0000 -SN BR 9999 390 4270 0 0
2019/10/30 18:24:01 BASE 27.18 23 31.43 25 2.5 100 2.5 116 0 982.9 NA 0.0000 -SN BR 9999 390 0 0 0
2019/10/30 18:25:00 BASE 27.60 23 31.43 25 2.5 100 2.5 114 0 982.9 NA 0.0000 -SN BR 9999 390 0 0 0
2019/10/30 18:26:00 BASE 27.61 21 31.43 25 2.5 100 2.5 115 0 982.9 NA 0.0000 -SN BR 9999 390 0 0 0
2019/10/30 18:27:00 BASE 27.01 21 31.43 25 2.4 100 2.4 117 0 983.0 NA 0.0000 -SN 9999 390 0 0 0
2019/10/30 18:28:00 BASE 27.21 21 31.43 25 2.4 100 2.4 117 0 982.9 NA 0.0000 -SN 9999 430 4170 0 0
2019/10/30 18:29:00 BASE 27.89 19 31.43 25 2.4 100 2.4 117 0 982.8 NA 0.0000 -SN 9999 4040 0 0 0
2019/10/30 18:30:00 BASE 28.77 17 31.33 18 2.4 100 2.4 113 0 982.8 NA 0.0000 -SN 9999 4040 0 0 0
2019/10/30 18:31:00 BASE 29.14 17 31.84 18 2.4 100 2.4 110 0 982.8 NA 0.0000 -SN 9999 2260 3970 0 0
2019/10/30 18:32:00 BASE 28.25 20 31.95 31 2.4 100 2.4 107 0 982.9 NA 0.0000 -SN 9999 3900 0 0 0
2019/10/30 18:33:00 BASE 27.68 21 31.95 31 2.4 100 2.4 104 0 982.9 NA 0.0000 -SN 9999 2070 3840 0 0
2019/10/30 18:34:01 BASE 27.01 18 31.95 31 2.4 100 2.4 100 0 983.0 NA 0.0000 -SN 9999 2000 0 0 0
2019/10/30 18:35:00 BASE 26.59 18 31.95 31 2.4 100 2.4 100 0 983.0 NA 0.0000 -SN 9999 2030 0 0 0
2019/10/30 18:36:01 BASE 26.02 19 31.95 31 2.4 100 2.4 99 0 983.1 NA 0.0000 9999 1940 0 0 0
2019/10/30 18:37:00 BASE 25.90 19 31.95 31 2.4 100 2.4 100 0 983.1 NA 0.0000 9999 1900 0 0 0
2019/10/30 18:38:00 BASE 26.15 20 31.95 31 2.4 100 2.4 101 0 983.2 NA 0.0000 9999 1940 0 0 0
2019/10/30 18:39:00 BASE 25.96 21 31.95 31 2.4 100 2.4 102 0 983.0 NA 0.0000 9999 2000 2920 0 0
2019/10/30 18:40:00 BASE 25.61 21 31.95 31 2.4 100 2.4 103 0 983.2 NA 0.0000 9999 1970 0 0 0
2019/10/30 18:41:00 BASE 24.81 21 31.95 31 2.5 100 2.5 102 0 983.1 NA 0.0000 9999 1970 0 0 0
2019/10/30 18:42:00 BASE 24.64 19 30.20 19 2.5 100 2.5 100 0 983.2 NA 0.0000 9999 1970 0 0 0
2019/10/30 18:43:00 BASE 24.62 18 30.20 19 2.6 100 2.6 99 0 983.1 NA 0.0000 9999 2170 2890 0 0
2019/10/30 18:44:00 BASE 24.94 20 29.48 19 2.6 100 2.6 97 0 983.1 NA 0.0000 9999 1840 0 0 0
2019/10/30 18:45:00 BASE 25.42 22 29.48 19 2.7 100 2.7 97 0 983.1 NA 0.0000 9999 1970 0 0 0
2019/10/30 18:46:00 BASE 24.82 21 29.48 19 2.7 100 2.7 96 0 983.2 NA 0.0000 9999 1940 0 0 0
2019/10/30 18:47:00 BASE 24.34 22 29.48 19 2.7 100 2.7 96 0 983.2 NA 0.0000 9999 2000 2890 0 0
2019/10/30 18:48:00 BASE 24.68 23 29.48 19 2.6 100 2.6 98 0 983.2 NA 0.0000 9999 1900 2990 0 0
2019/10/30 18:49:00 BASE 25.28 25 29.48 19 2.6 100 2.6 98 0 983.1 NA 0.0000 9999 2070 0 0 0
2019/10/30 18:50:00 BASE 25.40 25 29.48 19 2.6 100 2.6 97 0 983.1 NA 0.0000 9999 1940 3840 0 0
2019/10/30 18:51:00 BASE 24.69 26 29.48 19 2.7 100 2.7 99 0 983.1 NA 0.0000 9999 1970 0 0 0
2019/10/30 18:52:00 BASE 25.28 27 29.48 19 2.7 100 2.7 101 0 983.1 NA 0.0000 9999 2100 0 0 0
2019/10/30 18:53:00 BASE 26.74 26 31.07 28 2.8 100 2.8 103 0 983.0 NA 0.0000 9999 2030 0 0 0
2019/10/30 18:54:00 BASE 26.70 24 31.07 28 2.8 100 2.8 102 0 983.1 NA 0.0000 -SN 9000 360 0 0 0
2019/10/30 18:55:00 BASE 25.47 22 31.07 28 2.8 100 2.8 105 0 983.2 NA 0.0000 -SN 9999 360 3610 0 0
2019/10/30 18:56:00 BASE 25.13 19 31.07 28 2.7 100 2.7 103 0 983.2 NA 0.0000 -SN 7000 390 0 0 0
2019/10/30 18:57:00 BASE 25.33 19 31.07 28 2.7 100 2.7 94 0 983.1 NA 0.0000 -SN 9999 3670 0 0 0
2019/10/30 18:58:00 BASE 24.58 21 31.07 28 2.7 100 2.7 86 0 983.2 NA 0.0000 -SN 9999 3250 0 0 0
2019/10/30 18:59:00 BASE 23.59 22 31.07 28 2.7 100 2.7 78 0 983.2 NA 0.0000 -SN 9999 1940 2850 0 0
2019/10/30 19:00:00 BASE 23.21 23 31.07 28 2.7 100 2.7 75 0 983.2 NA 0.0000 -SN 9999 430 0 0 0
2019/10/30 19:01:00 BASE 23.91 23 31.07 28 2.7 100 2.7 83 0 983.1 NA 0.0000 -SN 8000 390 0 0 0
2019/10/30 19:02:00 BASE 24.04 25 31.07 28 2.7 100 2.7 87 0 983.1 NA 0.0000 -SN 7000 390 0 0 0
2019/10/30 19:03:00 BASE 24.29 28 28.55 19 2.6 100 2.6 85 0 983.1 NA 0.0000 -SN BR 6000 390 3810 0 0
2019/10/30 19:04:00 BASE 25.31 26 27.93 29 2.6 100 2.6 82 0 983.1 NA 0.0000 -SN BR 9000 460 0 0 0
2019/10/30 19:05:00 BASE 25.15 25 28.71 21 2.6 100 2.6 79 0 983.1 NA 0.0000 -SN BR 7000 2170 0 0 0
2019/10/30 19:06:00 BASE 24.08 25 28.71 21 2.7 100 2.7 77 0 983.2 NA 0.0000 -SN BR 6000 2170 3250 0 0
2019/10/30 19:07:00 BASE 23.43 22 28.71 21 2.6 100 2.6 76 0 983.2 NA 0.0000 -SN BR 6000 390 0 0 0
2019/10/30 19:08:00 BASE 24.49 23 28.71 21 2.6 100 2.6 76 0 983.1 NA 0.0000 -SN BR 5000 4040 0 0 0
2019/10/30 19:09:00 BASE 25.51 24 29.01 24 2.6 100 2.6 77 0 983.2 NA 0.0000 -SN BR 5000 2790 3410 0 0
2019/10/30 19:10:00 BASE 24.62 25 29.01 24 2.5 100 2.5 79 0 983.3 NA 0.0000 -SN BR 6000 2130 0 0 0
2019/10/30 19:11:00 BASE 24.04 28 29.01 24 2.5 100 2.5 81 0 983.2 NA 0.0000 -SN BR 8000 2170 0 0 0
2019/10/30 19:12:00 BASE 24.44 28 29.01 24 2.5 100 2.5 79 0 983.2 NA 0.0000 -SN BR 9999 2030 3770 0 0
2019/10/30 19:13:00 BASE 23.85 27 29.01 24 2.5 100 2.5 79 0 983.2 NA 0.0000 -SN BR 9999 1870 2920 0 0
2019/10/30 19:14:01 BASE 23.61 27 29.01 24 2.6 100 2.6 79 0 983.1 NA 0.0000 -SN BR 9999 1970 0 0 0
2019/10/30 19:15:01 BASE 24.44 25 29.84 26 2.6 100 2.6 76 0 983.1 NA 0.0000 -SN BR 9999 2170 2890 0 0
2019/10/30 19:16:01 BASE 24.70 25 29.84 26 2.6 100 2.6 73 0 983.2 NA 0.0000 -SN BR 9999 2130 3410 0 0
2019/10/30 19:17:01 BASE 23.81 25 29.84 26 2.7 100 2.7 72 0 983.2 NA 0.0000 -SN BR 9999 1970 0 0 0
2019/10/30 19:18:01 BASE 23.90 25 29.84 26 2.7 100 2.7 72 0 983.1 NA 0.0000 -SN BR 9999 2030 0 0 0
2019/10/30 19:19:01 BASE 24.62 26 29.84 26 2.7 100 2.7 73 0 983.1 NA 0.0000 -SN 9999 1970 3510 0 0
2019/10/30 19:20:01 BASE 24.47 27 29.84 26 2.8 100 2.8 71 0 983.1 NA 0.0000 9999 2000 3450 0 0
2019/10/30 19:21:01 BASE 23.59 27 29.84 26 2.8 100 2.8 69 0 983.1 NA 0.0000 9999 2360 3480 0 0
2019/10/30 19:22:01 BASE 23.80 29 29.84 26 2.8 100 2.8 71 0 983.1 NA 0.0000 -SN 9999 2000 0 0 0
2019/10/30 19:23:01 BASE 24.61 28 29.84 26 2.8 100 2.8 75 0 983.1 NA 0.0000 9000 2300 0 0 0
2019/10/30 19:24:01 BASE 24.97 27 29.84 26 2.8 100 2.8 77 0 983.1 NA 0.0000 -SN 9999 2460 0 0 0
2019/10/30 19:25:01 BASE 23.98 25 28.60 31 2.8 100 2.8 75 0 983.1 NA 0.0000 -SN 9000 3450 0 0 0
2019/10/30 19:26:01 BASE 22.86 28 28.60 31 2.8 100 2.8 71 0 983.1 NA 0.0000 -SN 9999 3280 0 0 0
2019/10/30 19:27:01 BASE 24.36 29 28.65 25 2.8 100 2.8 66 0 983.0 NA 0.0000 -SN 9999 2690 3150 0 0
2019/10/30 19:28:01 BASE 25.20 28 28.65 25 2.8 100 2.8 63 0 983.0 NA 0.0000 -SN 9999 2560 3150 0 0
2019/10/30 19:29:01 BASE 24.48 26 28.65 25 2.8 100 2.8 59 0 983.0 NA 0.0000 -SN 9999 2790 0 0 0
2019/10/30 19:30:01 BASE 24.45 26 28.65 25 2.8 100 2.8 57 0 983.0 NA 0.0000 -SN 8000 2200 0 0 0
2019/10/30 19:31:01 BASE 25.11 24 28.65 25 2.8 100 2.8 56 0 983.0 NA 0.0000 -SN BR 5000 2200 0 0 0
2019/10/30 19:32:01 BASE 25.10 28 28.65 25 2.8 100 2.8 56 0 983.0 NA 0.0000 -SN BR 3600 2170 0 0 0
2019/10/30 19:33:01 BASE 23.48 31 28.65 25 2.7 100 2.7 55 0 983.2 NA 0.0000 -SN BR 5000 430 0 0 0
2019/10/30 19:34:01 BASE 23.64 28 28.65 25 2.7 100 2.7 54 0 983.0 NA 0.0000 -SN BR 5000 390 0 0 0
2019/10/30 19:35:01 BASE 24.04 29 28.65 25 2.7 100 2.7 53 0 983.2 NA 0.0000 -SN BR 4600 430 1940 0 0
2019/10/30 19:36:01 BASE 23.46 31 28.65 25 2.7 100 2.7 51 0 983.1 NA 0.0000 -SN BR 5000 430 2000 0 0
2019/10/30 19:37:01 BASE 24.00 30 28.19 36 2.7 100 2.7 50 0 983.1 NA 0.0000 -SN BR 3200 390 1380 0 0
2019/10/30 19:38:01 BASE 24.03 28 28.19 25 2.7 100 2.7 50 0 983.2 NA 0.2540 -SN BR 2200 390 1350 0 0
2019/10/30 19:39:01 BASE 23.71 28 28.19 25 2.6 100 2.6 51 0 983.2 NA 0.0000 -SN BR 2000 430 1670 0 0
2019/10/30 19:40:01 BASE 22.32 28 28.19 25 2.6 100 2.6 54 0 983.3 NA 0.0000 -SN BR 2000 390 0 0 0
2019/10/30 19:41:01 BASE 22.10 27 28.19 25 2.6 100 2.6 55 0 983.2 NA 0.0000 -SN BR 2000 490 0 0 0
2019/10/30 19:42:01 BASE 22.83 29 28.19 25 2.6 100 2.6 57 0 983.2 NA 0.0000 -SN BR 2300 390 0 0 0
2019/10/30 19:43:01 BASE 23.88 30 29.32 36 2.6 100 2.6 58 0 983.1 NA 0.2540 -SN BR 1600 330 2230 0 0
2019/10/30 19:44:01 BASE 24.70 32 29.32 36 2.6 100 2.6 59 0 983.2 NA 0.2540 -SN BR 1800 360 0 0 0
2019/10/30 19:45:00 BASE 24.54 32 29.32 36 2.6 100 2.6 61 0 983.1 NA 0.0000 -SN BR 1600 390 0 0 0
2019/10/30 19:46:01 BASE 24.08 30 29.32 36 2.6 100 2.6 62 0 983.2 NA 0.0000 -SN BR 1800 0 0 0 3410
2019/10/30 19:47:01 BASE 23.45 29 29.32 36 2.6 100 2.6 61 0 983.3 NA 0.0000 -SN BR 2100 0 0 0 3510
2019/10/30 19:48:01 BASE 22.24 27 29.32 36 2.6 100 2.6 58 0 983.3 NA 0.2540 -SN BR 2000 390 0 0 0
2019/10/30 19:49:01 BASE 22.94 28 29.32 36 2.6 100 2.6 53 0 983.3 NA 0.2540 -SN BR 2200 2460 0 0 0
2019/10/30 19:50:00 BASE 24.13 29 29.32 36 2.6 100 2.6 49 0 983.3 NA 0.0000 -SN BR 2000 0 0 0 4300
2019/10/30 19:51:00 BASE 23.70 30 29.32 36 2.5 100 2.5 49 0 983.3 NA 0.0000 -SN BR 1800 390 0 0 0
2019/10/30 19:52:01 BASE 22.54 29 29.32 36 2.5 100 2.5 50 0 983.4 NA 0.0000 -SN BR 2200 890 0 0 0
2019/10/30 19:53:00 BASE 21.07 25 28.71 29 2.5 100 2.5 49 0 983.4 NA 0.0000 -SN BR 3000 0 0 0 3120
2019/10/30 19:54:00 BASE 21.98 24 28.71 29 2.5 100 2.5 48 0 983.3 NA 0.0000 -SN BR 3500 1180 2230 0 0
2019/10/30 19:55:00 BASE 23.61 26 28.71 29 2.5 100 2.5 46 0 983.3 NA 0.0000 -SN BR 2900 330 2300 0 0
2019/10/30 19:56:01 BASE 25.44 28 29.43 24 2.5 100 2.5 45 0 983.2 NA 0.2540 -SN BR 2300 360 0 0 0
2019/10/30 19:57:00 BASE 25.66 28 29.73 29 2.5 100 2.5 47 0 983.3 NA 0.0000 -SN BR 2200 390 0 0 0
2019/10/30 19:58:01 BASE 24.83 28 29.73 29 2.5 100 2.5 47 0 983.4 NA 0.0000 -SN BR 2200 390 0 0 0
2019/10/30 19:59:00 BASE 25.54 27 29.73 29 2.5 100 2.5 44 0 983.2 NA 0.0000 -SN BR 2000 0 0 0 3380
2019/10/30 20:00:00 BASE 25.07 27 29.73 29 2.5 100 2.5 40 0 983.3 NA 0.0000 -SN BR 2500 0 0 0 3120
2019/10/30 20:01:00 BASE 24.08 27 29.73 29 2.5 100 2.5 37 0 983.3 NA 0.0000 -SN BR 2900 0 0 0 2690
2019/10/30 20:02:01 BASE 24.80 29 29.94 35 2.5 100 2.5 35 0 983.2 NA 0.0000 -SN BR 1900 0 0 0 2760
2019/10/30 20:03:00 BASE 25.81 29 29.94 35 2.5 100 2.5 32 0 983.1 NA 0.0000 -SN BR 2200 360 0 0 0
2019/10/30 20:04:01 BASE 25.52 30 29.94 35 2.5 100 2.5 32 0 983.2 NA 0.2540 -SN BR 2800 0 0 0 2490
2019/10/30 20:05:00 BASE 24.68 30 29.94 35 2.5 100 2.5 32 0 983.3 NA 0.2540 -SN BR 2400 360 0 0 0
2019/10/30 20:06:00 BASE 24.74 29 29.94 35 2.5 100 2.5 33 0 983.3 NA 0.0000 -SN BR 2200 390 0 0 0
2019/10/30 20:07:00 BASE 24.68 29 29.94 35 2.4 100 2.4 34 0 983.3 NA 0.0000 -SN BR 1900 390 0 0 0
2019/10/30 20:08:00 BASE 24.40 26 30.76 28 2.4 100 2.4 35 0 983.2 NA 0.0000 -SN BR 1800 390 0 0 0
2019/10/30 20:09:01 BASE 24.76 26 30.76 28 2.4 100 2.4 37 0 983.2 NA 0.2540 -SN BR 1900 0 0 0 2360
2019/10/30 20:10:00 BASE 24.07 29 30.76 28 2.4 100 2.4 37 0 983.2 NA 0.0000 -SN BR 2100 360 0 0 0
2019/10/30 20:11:00 BASE 23.67 30 30.76 28 2.4 100 2.4 37 0 983.3 NA 0.0000 -SN BR 1900 330 0 0 0
2019/10/30 20:12:00 BASE 24.71 30 30.76 28 2.4 100 2.4 37 0 983.2 NA 0.0000 -SN BR 1800 360 0 0 0
2019/10/30 20:13:00 BASE 25.32 30 30.76 28 2.3 100 2.3 37 0 983.2 NA 0.2540 -SN BR 1500 330 0 0 0
2019/10/30 20:14:00 BASE 25.74 31 30.76 28 2.3 100 2.3 35 0 983.1 NA 0.2540 -SN BR 1500 0 0 0 2330
2019/10/30 20:15:00 BASE 25.23 30 30.76 28 2.3 100 2.3 33 0 983.2 NA 0.0000 -SN BR 1800 330 0 0 0
2019/10/30 20:16:01 BASE 24.68 30 30.76 28 2.3 100 2.3 32 0 983.2 NA 0.0000 -SN BR 2000 360 0 0 0
2019/10/30 20:17:00 BASE 24.54 30 30.76 28 2.3 100 2.3 31 0 983.3 NA 0.2540 -SN BR 1700 360 0 0 0
2019/10/30 20:18:00 BASE 24.09 30 29.63 24 2.3 100 2.3 31 0 983.3 NA 0.0000 -SN BR 1700 0 0 0 1940
2019/10/30 20:19:00 BASE 22.94 27 29.63 24 2.4 100 2.4 30 0 983.3 NA 0.0000 -SN BR 1800 0 0 0 2000
2019/10/30 20:20:00 BASE 23.09 30 29.63 24 2.4 100 2.4 31 0 983.3 NA 0.0000 -SN BR 1800 390 0 0 0
2019/10/30 20:21:00 BASE 24.42 31 29.63 24 2.4 100 2.4 31 0 983.2 NA 0.2540 -SN BR 1800 330 0 0 0
2019/10/30 20:22:00 BASE 24.10 30 29.63 24 2.4 100 2.4 32 0 983.3 NA 0.2540 -SN BR 1800 0 0 0 2260
2019/10/30 20:23:01 BASE 24.76 31 29.63 24 2.4 100 2.4 33 0 983.2 NA 0.0000 -SN BR 2000 0 0 0 2400
2019/10/30 20:24:00 BASE 24.53 28 28.50 27 2.4 100 2.4 33 0 983.3 NA 0.0000 -SN BR 1600 0 0 0 2300
2019/10/30 20:25:00 BASE 21.56 25 28.50 27 2.3 100 2.3 32 0 983.5 NA 0.0000 -SN BR 2400 390 0 0 0
2019/10/30 20:26:00 BASE 22.28 29 28.45 31 2.3 100 2.3 32 0 983.3 NA 0.0000 -SN BR 3200 390 0 0 0
2019/10/30 20:27:00 BASE 24.01 32 28.45 31 2.3 100 2.3 32 0 983.4 NA 0.2540 -SN BR 2000 390 0 0 0
2019/10/30 20:28:01 BASE 24.04 31 28.45 31 2.3 100 2.3 32 0 983.3 NA 0.2540 -SN BR 1800 390 0 0 0
2019/10/30 20:29:00 BASE 24.37 31 28.45 31 2.3 100 2.3 33 0 983.3 NA 0.0000 -SN BR 1800 390 0 0 0
2019/10/30 20:30:00 BASE 23.42 33 28.45 31 2.3 100 2.3 34 0 983.4 NA 0.0000 -SN BR 2100 390 0 0 0
2019/10/30 20:31:00 BASE 23.35 32 28.45 31 2.2 100 2.2 34 0 983.3 NA 0.0000 -SN BR 2100 390 0 0 0
2019/10/30 20:32:00 BASE 24.35 32 28.86 23 2.2 100 2.2 34 0 983.3 NA 0.0000 -SN BR 1700 360 0 0 0
2019/10/30 20:33:00 BASE 25.19 32 28.86 23 2.2 100 2.2 33 0 983.3 NA 0.2540 -SN BR 2200 0 0 0 2330
2019/10/30 20:34:01 BASE 24.80 30 28.86 23 2.2 100 2.2 33 0 983.3 NA 0.2540 -SN BR 2100 360 0 0 0
2019/10/30 20:35:00 BASE 23.77 29 28.86 23 2.2 100 2.2 34 0 983.4 NA 0.0000 -SN BR 2300 390 0 0 0
2019/10/30 20:36:00 BASE 23.94 29 28.86 23 2.2 100 2.2 35 0 983.3 NA 0.0000 -SN BR 2000 390 0 0 0
2019/10/30 20:37:00 BASE 24.39 30 28.86 23 2.2 100 2.2 35 0 983.3 NA 0.0000 -SN BR 1700 360 0 0 0
2019/10/30 20:38:01 BASE 24.59 30 29.94 34 2.2 100 2.2 35 0 983.3 NA 0.2540 -SN BR 1900 0 0 0 2130
2019/10/30 20:39:00 BASE 25.49 30 29.94 34 2.2 100 2.2 35 0 983.3 NA 0.2540 -SN BR 1900 360 0 0 0
2019/10/30 20:40:00 BASE 25.86 31 29.94 34 2.2 100 2.2 35 0 983.3 NA 0.0000 -SN BR 1600 360 0 0 0
2019/10/30 20:41:00 BASE 25.24 32 29.94 34 2.2 100 2.2 35 0 983.3 NA 0.0000 -SN BR 1400 330 0 0 0
2019/10/30 20:42:00 BASE 25.29 33 29.94 34 2.2 100 2.2 34 0 983.3 NA 0.2540 -SN BR 1500 330 0 0 0
2019/10/30 20:43:00 BASE 25.64 32 29.94 34 2.2 100 2.2 34 0 983.3 NA 0.2540 -SN BR 1500 330 0 0 0
2019/10/30 20:44:00 BASE 25.02 32 29.94 34 2.2 100 2.2 34 0 983.3 NA 0.0000 -SN BR 1400 330 0 0 0
2019/10/30 20:45:00 BASE 22.93 33 29.94 34 2.2 100 2.2 34 0 983.4 NA 0.0000 -SN BR 1700 330 0 0 0
2019/10/30 20:46:00 BASE 22.35 33 29.94 34 2.2 100 2.2 33 0 983.4 NA 0.2540 -SN BR 1900 330 0 0 0
2019/10/30 20:47:00 BASE 22.68 33 29.94 34 2.2 100 2.2 32 0 983.4 NA 0.2540 -SN BR 1800 330 0 0 0
2019/10/30 20:48:00 BASE 22.91 32 28.76 29 2.2 100 2.2 31 0 983.4 NA 0.0000 -SN BR 1800 330 0 0 0
2019/10/30 20:49:00 BASE 23.08 32 28.76 29 2.2 100 2.2 30 0 983.4 NA 0.0000 -SN BR 1600 0 0 0 2230
2019/10/30 20:50:00 BASE 24.06 33 28.76 29 2.2 100 2.2 30 0 983.3 NA 0.2540 -SN BR 1600 0 0 0 2100
2019/10/30 20:51:00 BASE 23.86 33 28.76 29 2.2 100 2.2 30 0 983.4 NA 0.0000 -SN BR 1700 330 0 0 0
2019/10/30 20:52:00 BASE 22.64 32 28.60 34 2.1 100 2.1 29 0 983.4 NA 0.0000 -SN BR 1800 360 0 0 0
2019/10/30 20:53:00 BASE 22.12 31 28.60 34 2.1 100 2.1 29 0 983.4 NA 0.2540 -SN BR 1600 360 0 0 0
2019/10/30 20:54:00 BASE 22.48 32 28.60 34 2.1 100 2.1 28 0 983.4 NA 0.2540 -SN BR 2100 360 0 0 0
2019/10/30 20:55:00 BASE 22.36 33 28.60 34 2.1 100 2.1 27 0 983.4 NA 0.0000 -SN BR 1700 360 0 0 0
2019/10/30 20:56:00 BASE 21.53 36 28.60 34 2.0 100 2.0 27 0 983.4 NA 0.0000 -SN BR 1900 330 0 0 0
2019/10/30 20:57:00 BASE 22.00 37 28.60 34 2.1 100 2.1 27 0 983.4 NA 0.2540 -SN BR 1900 330 0 0 0
2019/10/30 20:58:00 BASE 22.54 34 28.60 34 2.1 100 2.1 27 0 983.4 NA 0.2540 -SN BR 1800 0 0 0 2070
2019/10/30 20:59:00 BASE 23.47 33 28.60 34 2.1 100 2.1 27 0 983.3 NA 0.0000 -SN BR 1400 330 0 0 0
2019/10/30 21:00:00 BASE 22.95 32 27.37 29 2.1 100 2.1 27 0 983.4 NA 0.2540 -SN BR 1400 0 0 0 2070
2019/10/30 21:01:00 BASE 22.48 30 27.37 29 2.1 100 2.1 27 0 983.3 NA 0.0000 -SN BR 1600 330 0 0 0
2019/10/30 21:02:00 BASE 21.75 29 27.37 29 2.1 100 2.1 27 0 983.4 NA 0.0000 -SN BR 1900 330 0 0 0
2019/10/30 21:03:00 BASE 21.62 29 27.37 29 2.1 100 2.1 27 0 983.3 NA 0.2540 -SN BR 2000 0 0 0 2070
2019/10/30 21:04:00 BASE 22.69 30 27.37 29 2.1 100 2.1 27 0 983.4 NA 0.0000 -SN BR 1800 0 0 0 2130
2019/10/30 21:05:00 BASE 23.23 30 27.37 29 2.1 100 2.1 27 0 983.3 NA 0.0000 -SN BR 1600 360 0 0 0
2019/10/30 21:06:00 BASE 23.23 32 27.37 29 2.1 100 2.1 27 0 983.4 NA 0.2540 -SN BR 1500 330 0 0 0
2019/10/30 21:07:00 BASE 22.92 33 27.37 29 2.1 100 2.1 27 0 983.4 NA 0.0000 -SN BR 1600 330 0 0 0
2019/10/30 21:08:00 BASE 23.53 33 27.93 29 2.1 100 2.1 26 0 983.3 NA 0.0000 -SN BR 1700 360 0 0 0
2019/10/30 21:09:00 BASE 23.62 33 27.93 29 2.1 100 2.1 26 0 983.3 NA 0.2540 -SN BR 1600 360 0 0 0
2019/10/30 21:10:00 BASE 22.33 30 27.93 29 2.1 100 2.1 25 0 983.4 NA 0.0000 -SN BR 1700 360 0 0 0
2019/10/30 21:11:00 BASE 22.10 27 27.93 29 2.1 100 2.1 25 0 983.4 NA 0.0000 -SN BR 2200 330 0 0 0
2019/10/30 21:12:00 BASE 22.20 29 27.93 29 2.1 100 2.1 24 0 983.4 NA 0.0000 -SN BR 1800 330 0 0 0
2019/10/30 21:13:00 BASE 21.91 30 27.93 29 2.0 100 2.0 23 0 983.4 NA 0.0000 -SN BR 1700 330 0 0 0
2019/10/30 21:14:00 BASE 21.49 31 27.93 29 2.0 100 2.0 23 0 983.4 NA 0.0000 -SN BR 2000 360 0 0 0
2019/10/30 21:15:00 BASE 23.34 31 28.24 43 1.9 100 1.9 22 0 983.3 NA 0.2540 -SN BR 1900 330 0 0 0
2019/10/30 21:16:00 BASE 24.51 31 28.24 43 1.9 100 1.9 22 0 983.4 NA 0.2540 -SN BR 1600 330 0 0 0
2019/10/30 21:17:00 BASE 23.23 33 28.24 43 1.9 100 1.9 22 0 983.4 NA 0.0000 -SN BR 1500 360 0 0 0
2019/10/30 21:18:00 BASE 23.36 30 28.24 43 2.0 100 2.0 22 0 983.4 NA 0.2540 -SN BR 1500 360 0 0 0
2019/10/30 21:19:00 BASE 23.40 28 28.24 43 2.0 100 2.0 22 0 983.4 NA 0.2540 -SN BR 1500 360 0 0 0
2019/10/30 21:20:00 BASE 23.35 29 28.24 43 2.0 100 2.0 23 0 983.4 NA 0.0000 -SN BR 1800 360 0 0 0
2019/10/30 21:21:00 BASE 23.41 31 28.24 43 2.0 100 2.0 22 0 983.4 NA 0.0000 -SN BR 1700 360 0 0 0
2019/10/30 21:22:00 BASE 23.16 31 28.24 43 2.0 100 2.0 23 0 983.4 NA 0.2540 -SN BR 1400 360 0 0 0
2019/10/30 21:23:00 BASE 22.66 31 28.24 25 2.0 100 2.0 23 0 983.5 NA 0.0000 -SN BR 1700 360 0 0 0
2019/10/30 21:24:00 BASE 22.23 29 28.24 25 2.0 100 2.0 22 0 983.4 NA 0.0000 -SN BR 1900 390 0 0 0
2019/10/30 21:25:00 BASE 22.34 28 28.24 25 2.0 100 2.0 22 0 983.4 NA 0.0000 -SN BR 2000 360 0 0 0
2019/10/30 21:26:00 BASE 23.24 27 28.24 25 2.0 100 2.0 21 0 983.4 NA 0.2540 -SN BR 1800 360 0 0 0
2019/10/30 21:27:00 BASE 23.32 25 28.24 25 2.0 100 2.0 20 0 983.5 NA 0.2540 -SN BR 1900 390 0 0 0
2019/10/30 21:28:00 BASE 23.52 28 28.24 25 2.0 100 2.0 20 0 983.4 NA 0.0000 -SN BR 2200 360 0 0 0
2019/10/30 21:29:00 BASE 23.77 29 28.24 25 2.0 100 2.0 19 0 983.4 NA 0.0000 -SN BR 2000 360 0 0 0
2019/10/30 21:30:00 BASE 22.59 28 28.24 25 2.0 100 2.0 18 0 983.5 NA 0.0000 -SN BR 2200 360 0 0 0
2019/10/30 21:31:00 BASE 22.39 26 28.24 25 2.0 100 2.0 17 0 983.5 NA 0.2540 -SN BR 1800 360 0 0 0
2019/10/30 21:32:00 BASE 23.95 26 28.24 25 2.0 100 2.0 18 0 983.4 NA 0.0000 -SN BR 1600 330 0 0 0
2019/10/30 21:33:00 BASE 25.17 28 28.50 25 1.9 100 1.9 18 0 983.4 NA 0.2540 -SN BR 1200 330 0 0 0
2019/10/30 21:34:01 BASE 25.12 28 28.50 25 1.9 100 1.9 18 0 983.4 NA 0.2540 -SN BR 1200 330 0 0 0
2019/10/30 21:35:00 BASE 25.09 30 28.55 35 1.8 100 1.8 18 0 983.4 NA 0.0000 -SN BR 1400 360 0 0 0
2019/10/30 21:36:01 BASE 24.72 31 28.55 35 1.8 100 1.8 19 0 983.4 NA 0.2540 -SN BR 1400 360 0 0 0
2019/10/30 21:37:00 BASE 24.40 31 28.55 35 1.7 100 1.7 18 0 983.4 NA 0.2540 -SN BR 1300 360 0 0 0
2019/10/30 21:38:01 BASE 24.44 29 28.55 35 1.7 100 1.7 19 0 983.3 NA 0.0000 -SN BR 1400 360 0 0 0
2019/10/30 21:39:01 BASE 24.34 28 28.55 35 1.6 100 1.6 19 0 983.3 NA 0.2540 -SN BR 1200 360 0 0 0
2019/10/30 21:40:01 BASE 23.37 27 28.55 35 1.6 100 1.6 20 0 983.4 NA 0.0000 -SN BR 1900 360 0 0 0
2019/10/30 21:41:01 BASE 23.30 30 28.55 35 1.6 100 1.6 20 0 983.4 NA 0.0000 -SN BR 1700 390 0 0 0
2019/10/30 21:42:01 BASE 23.51 33 28.55 35 1.6 100 1.6 20 0 983.4 NA 0.2540 -SN BR 1400 390 0 0 0
2019/10/30 21:43:00 BASE 24.13 33 28.55 35 1.6 100 1.6 20 0 983.3 NA 0.2540 -SN BR 1500 390 0 0 0
2019/10/30 21:44:01 BASE 25.01 33 28.55 35 1.7 100 1.7 19 0 983.4 NA 0.0000 -SN BR 1200 390 0 0 0
2019/10/30 21:45:01 BASE 23.62 33 28.24 25 1.7 100 1.7 18 0 983.4 NA 0.0000 -SN BR 1800 390 0 0 0
2019/10/30 21:46:00 BASE 23.79 34 29.48 32 1.7 100 1.7 18 0 983.3 NA 0.2540 -SN BR 1800 390 0 0 0
2019/10/30 21:47:01 BASE 24.02 34 29.48 32 1.7 100 1.7 18 0 983.4 NA 0.0000 -SN BR 1700 390 0 0 0
2019/10/30 21:48:01 BASE 22.90 34 29.48 32 1.7 100 1.7 18 0 983.4 NA 0.0000 -SN BR 1800 390 0 0 0
2019/10/30 21:49:01 BASE 23.25 33 29.48 32 1.8 100 1.8 17 0 983.3 NA 0.0000 -SN BR 1900 360 0 0 0
2019/10/30 21:50:00 BASE 22.74 33 29.48 32 1.8 100 1.8 17 0 983.4 NA 0.2540 -SN BR 1600 360 0 0 0
2019/10/30 21:51:01 BASE 23.41 32 29.48 32 1.8 100 1.8 17 0 983.3 NA 0.2540 -SN BR 1700 360 0 0 0
2019/10/30 21:52:00 BASE 24.83 32 29.48 32 1.8 100 1.8 17 0 983.4 NA 0.0000 -SN BR 1500 360 0 0 0
2019/10/30 21:53:00 BASE 24.14 33 29.48 32 1.8 100 1.8 18 0 983.4 NA 0.0000 -SN BR 1500 360 0 0 0
2019/10/30 21:54:01 BASE 23.96 32 29.48 32 1.8 100 1.8 19 0 983.3 NA 0.2540 -SN BR 1500 390 0 0 0
2019/10/30 21:55:00 BASE 24.26 35 29.48 32 1.8 100 1.8 19 0 983.3 NA 0.2540 -SN BR 2000 390 0 0 0
2019/10/30 21:56:01 BASE 22.98 35 28.29 26 1.8 100 1.8 19 0 983.4 NA 0.0000 -SN BR 2000 360 0 0 0
2019/10/30 21:57:00 BASE 22.10 38 28.29 26 1.8 100 1.8 19 0 983.4 NA 0.0000 -SN BR 2300 360 0 0 0
2019/10/30 21:58:01 BASE 22.11 38 28.29 26 1.8 100 1.8 19 0 983.4 NA 0.0000 -SN BR 2100 360 0 0 0
2019/10/30 21:59:00 BASE 22.75 35 28.29 26 1.8 100 1.8 19 0 983.4 NA 0.2540 -SN BR 1900 330 0 0 0
2019/10/30 22:00:00 BASE 22.27 36 28.29 26 1.8 100 1.8 19 0 983.4 NA 0.2540 -SN BR 2100 330 0 0 0
2019/10/30 22:01:01 BASE 21.94 36 28.29 26 1.8 100 1.8 19 0 983.4 NA 0.0000 -SN BR 2100 360 0 0 0
2019/10/30 22:02:00 BASE 22.62 38 28.29 26 1.8 100 1.8 19 0 983.4 NA 0.0000 -SN BR 2100 360 0 0 0
2019/10/30 22:03:00 BASE 21.88 37 28.29 26 1.8 100 1.8 19 0 983.4 NA 0.0000 -SN BR 1900 360 0 0 0
2019/10/30 22:04:01 BASE 22.18 37 28.29 26 1.8 100 1.8 19 0 983.4 NA 0.2540 -SN BR 2200 360 0 0 0
2019/10/30 22:05:01 BASE 22.90 39 27.11 35 1.8 100 1.8 18 0 983.4 NA 0.0000 -SN BR 2200 390 0 0 0
2019/10/30 22:06:01 BASE 23.05 39 27.83 44 1.9 100 1.9 18 0 983.4 NA 0.0000 -SN BR 2000 390 0 0 0
2019/10/30 22:07:01 BASE 22.12 40 27.83 44 1.9 100 1.9 18 0 983.5 NA 0.0000 -SN BR 2200 560 0 0 0
2019/10/30 22:08:01 BASE 20.74 37 27.83 44 1.9 100 1.9 18 0 983.4 NA 0.0000 -SN BR 3700 660 0 0 0
2019/10/30 22:09:01 BASE 20.78 36 27.83 44 1.9 100 1.9 17 0 983.5 NA 0.2540 -SN BR 3200 390 0 0 0
2019/10/30 22:10:01 BASE 21.67 36 27.83 44 1.9 100 1.9 17 0 983.4 NA 0.0000 -SN BR 1900 390 0 0 0
2019/10/30 22:11:01 BASE 21.74 38 27.83 44 1.9 100 1.9 16 0 983.4 NA 0.0000 -SN BR 2100 360 0 0 0
2019/10/30 22:13:28 BASE M M 27.83 44 2.0 100 2.0 16 0 M NA 0.0000 BR M 360 0 0 0
2019/10/30 22:14:00 BASE M M 27.83 44 2.0 100 2.0 16 0 983.2 NA 0.0000 BR 2800 360 0 0 0
2019/10/30 22:15:00 BASE 21.21 38 27.83 44 2.0 100 2.0 16 0 983.2 NA 0.0000 -SN BR 2200 390 0 0 0
2019/10/30 22:16:01 BASE 20.36 38 25.21 48 2.0 100 2.0 16 0 983.2 NA 0.0000 -SN BR 3000 560 0 0 0
2019/10/30 22:17:01 BASE 20.86 37 25.00 26 2.0 100 2.0 16 0 983.1 NA 0.0000 -SN BR 2000 390 0 0 0
2019/10/30 22:18:00 BASE 22.65 38 27.42 33 2.0 100 2.0 15 0 983.1 NA 0.2540 -SN BR 1800 590 0 0 0
2019/10/30 22:19:00 BASE 23.15 38 27.42 33 2.0 100 2.0 15 0 983.1 NA 0.0000 -SN BR 2000 590 0 0 0
2019/10/30 22:20:00 BASE 21.67 38 27.42 33 2.0 100 2.0 15 0 983.2 NA 0.0000 -SN BR 1800 390 0 0 0
2019/10/30 22:21:00 BASE 21.12 36 27.42 33 2.0 100 2.0 15 0 983.1 NA 0.0000 -SN BR 2200 390 0 0 0
2019/10/30 22:22:00 BASE 22.25 37 27.42 33 2.0 100 2.0 15 0 983.1 NA 0.0000 -SN BR 2100 390 0 0 0
2019/10/30 22:23:01 BASE 23.35 38 27.47 31 2.0 100 2.0 14 0 983.1 NA 0.2540 -SN BR 2100 430 0 0 0
2019/10/30 22:24:00 BASE 22.70 37 27.47 31 2.1 100 2.1 14 0 983.1 NA 0.0000 -SN BR 2400 560 0 0 0
2019/10/30 22:25:00 BASE 21.21 37 27.47 31 2.1 100 2.1 14 0 983.1 NA 0.0000 -SN BR 2200 430 0 0 0
2019/10/30 22:26:00 BASE 21.75 37 27.47 31 2.1 100 2.1 13 0 983.1 NA 0.0000 -SN BR 2300 560 0 0 0
2019/10/30 22:27:01 BASE 22.28 36 27.83 33 2.1 100 2.1 13 0 983.1 NA 0.0000 -SN BR 2100 430 0 0 0
2019/10/30 22:28:00 BASE 22.21 35 27.83 33 2.1 100 2.1 13 0 983.0 NA 0.2540 -SN BR 2100 560 0 0 0
2019/10/30 22:29:00 BASE 21.91 33 27.83 33 2.1 100 2.1 13 0 983.1 NA 0.0000 -SN BR 2300 620 0 0 0
2019/10/30 22:30:00 BASE 22.48 35 27.83 33 2.1 100 2.1 13 0 983.1 NA 0.0000 -SN BR 2200 590 0 0 0
2019/10/30 22:31:00 BASE 23.25 36 27.83 33 2.1 100 2.1 12 0 983.1 NA 0.0000 -SN BR 2100 590 0 0 0
2019/10/30 22:32:00 BASE 23.26 38 27.83 33 2.1 100 2.1 12 0 983.1 NA 0.0000 -SN BR 2300 620 0 0 0
2019/10/30 22:33:00 BASE 22.45 38 27.83 33 2.1 100 2.1 12 0 983.1 NA 0.0000 -SN BR 2300 620 0 0 0
2019/10/30 22:34:00 BASE 21.54 35 27.83 33 2.2 100 2.2 12 0 983.1 NA 0.0000 -SN BR 2100 590 0 0 0
2019/10/30 22:35:00 BASE 22.63 35 27.83 33 2.2 100 2.2 12 0 983.0 NA 0.2540 -SN BR 2400 560 0 0 0
2019/10/30 22:36:00 BASE 23.77 36 27.83 33 2.2 100 2.2 12 0 983.0 NA 0.0000 -SN BR 2300 560 0 0 0
2019/10/30 22:37:00 BASE 23.93 37 27.68 35 2.2 100 2.2 12 0 983.0 NA 0.0000 -SN BR 2300 390 0 0 0
2019/10/30 22:38:00 BASE 23.64 37 27.68 35 2.2 100 2.2 12 0 983.0 NA 0.0000 -SN BR 2300 520 0 0 0
2019/10/30 22:39:00 BASE 22.91 35 27.68 35 2.2 100 2.2 12 0 983.1 NA 0.0000 -SN BR 2100 560 0 0 0
2019/10/30 22:40:00 BASE 23.20 35 27.68 35 2.2 100 2.2 11 0 983.0 NA 0.0000 -SN BR 2100 430 0 0 0
2019/10/30 22:41:00 BASE 23.85 34 27.68 35 2.3 100 2.3 11 0 982.9 NA 0.0000 -SN BR 2400 430 0 0 0
2019/10/30 22:42:00 BASE 24.76 31 30.66 27 2.3 100 2.3 10 0 982.9 NA 0.2540 -SN BR 3100 390 0 0 0
2019/10/30 22:43:00 BASE 24.94 30 30.66 27 2.3 100 2.3 10 0 982.9 NA 0.0000 -SN BR 1900 390 0 0 0
2019/10/30 23:00:15 BASE M M M M 2.3 100 2.3 M M M NA 0.0000 M M M M M
2019/10/30 23:00:20 BASE M M M M 2.3 100 2.3 M M M NA 0.0000 M M M M M
2019/10/30 23:01:00 BASE M M M M 2.3 100 2.3 8 0 982.8 NA 0.0000 1900 360 0 0 0
2019/10/30 23:02:00 BASE 24.17 34 M M 2.3 100 2.3 8 0 982.8 NA 0.2540 -SN 1700 360 0 0 0
2019/10/30 23:03:00 BASE 23.78 34 M M 2.3 100 2.3 8 0 982.9 NA 0.0000 -SN 1800 360 0 0 0
2019/10/30 23:04:00 BASE 22.32 33 M M 2.1 100 2.1 8 0 982.9 NA 0.0000 -SN 1800 360 0 0 0
2019/10/30 23:05:00 BASE 22.00 34 M M 2.1 100 2.1 8 0 982.8 NA 0.0000 -SN 2100 360 0 0 0
2019/10/30 23:06:00 BASE 24.79 35 M M 2.1 100 2.1 8 0 982.7 NA 0.0000 -SN 2400 360 0 0 0
2019/10/30 23:07:01 BASE 25.23 35 M M 2.1 100 2.1 8 0 982.8 NA 0.2540 -SN 2000 360 0 0 0
2019/10/30 23:08:00 BASE 24.51 34 28.50 41 2.1 100 2.1 8 0 982.8 NA 0.0000 -SN BR 2100 330 0 0 0
2019/10/30 23:09:00 BASE 23.19 34 28.50 41 2.2 100 2.2 8 0 982.9 NA 0.0000 -SN BR 2000 360 0 0 0
2019/10/30 23:10:00 BASE 22.14 34 28.50 41 2.2 100 2.2 7 0 982.9 NA 0.0000 -SN BR 2700 360 0 0 0
2019/10/30 23:11:00 BASE 24.04 36 28.50 41 2.2 100 2.2 7 0 982.8 NA 0.0000 -SN BR 2600 360 0 0 0
2019/10/30 23:12:00 BASE 25.22 37 28.50 41 2.2 100 2.2 7 0 982.8 NA 0.0000 -SN BR 2800 360 0 0 0
2019/10/30 23:13:00 BASE 25.33 35 28.81 35 2.2 100 2.2 7 0 982.7 NA 0.2540 -SN BR 2300 390 0 0 0
2019/10/30 23:14:00 BASE 25.36 35 30.51 30 2.2 100 2.2 6 0 982.8 NA 0.0000 -SN BR 1800 390 0 0 0
2019/10/30 23:15:00 BASE 24.17 37 30.51 30 2.2 100 2.2 6 0 982.8 NA 0.0000 -SN BR 2000 390 0 0 0
2019/10/30 23:16:00 BASE 24.08 35 30.51 30 2.2 100 2.2 6 0 982.8 NA 0.0000 -SN BR 1900 390 0 0 0
2019/10/30 23:17:00 BASE 25.17 35 30.51 30 2.2 100 2.2 6 0 982.8 NA 0.0000 -SN BR 1900 360 0 0 0
2019/10/30 23:18:00 BASE 24.28 36 30.51 30 2.2 100 2.2 6 0 982.9 NA 0.0000 -SN BR 1700 360 0 0 0
2019/10/30 23:19:00 BASE 22.96 35 30.51 30 2.3 100 2.3 6 0 982.9 NA 0.2540 -SN BR 1900 390 0 0 0
2019/10/30 23:20:00 BASE 22.91 34 30.51 30 2.3 100 2.3 6 0 982.9 NA 0.0000 -SN BR 2000 390 0 0 0
2019/10/30 23:21:00 BASE 22.15 34 30.51 30 2.3 100 2.3 6 0 982.9 NA 0.0000 -SN BR 2200 360 0 0 0
2019/10/30 23:22:00 BASE 22.85 36 30.51 30 2.2 100 2.2 6 0 982.9 NA 0.0000 -SN BR 1900 360 0 0 0
2019/10/30 23:23:00 BASE 23.62 37 30.51 30 2.2 100 2.2 5 0 982.9 NA 0.0000 -SN BR 2100 360 0 0 0
2019/10/30 23:24:00 BASE 24.53 38 29.32 32 2.2 100 2.2 5 0 982.8 NA 0.2540 -SN BR 2000 360 0 0 0
2019/10/30 23:25:00 BASE 25.66 37 29.32 32 2.2 100 2.2 5 0 982.8 NA 0.0000 -SN BR 1800 360 0 0 0
2019/10/30 23:26:00 BASE 25.58 35 29.32 32 2.2 100 2.2 5 0 982.7 NA 0.0000 -SN BR 1700 360 0 0 0
2019/10/30 23:27:00 BASE 26.11 33 33.03 24 2.2 100 2.2 5 0 982.8 NA 0.0000 -SN BR 1600 360 0 0 0
2019/10/30 23:28:00 BASE 24.80 32 33.03 24 2.2 100 2.2 5 0 982.8 NA 0.0000 -SN BR 1500 360 0 0 0
2019/10/30 23:29:00 BASE 24.18 32 33.03 24 2.2 100 2.2 5 0 982.8 NA 0.2540 -SN BR 1600 360 0 0 0
2019/10/30 23:30:00 BASE 24.27 33 33.03 24 2.2 100 2.2 4 0 982.9 NA 0.0000 -SN BR 1700 360 0 0 0
2019/10/30 23:31:00 BASE 24.63 33 33.03 24 2.2 100 2.2 4 0 982.8 NA 0.0000 -SN BR 1900 360 0 0 0
2019/10/30 23:32:00 BASE 25.35 35 33.03 24 2.2 100 2.2 4 0 982.9 NA 0.0000 -SN BR 1500 360 0 0 0
2019/10/30 23:33:00 BASE 24.11 35 33.03 24 2.2 100 2.2 4 0 982.9 NA 0.0000 -SN BR 1800 360 0 0 0
2019/10/30 23:34:00 BASE 24.54 34 33.03 24 2.2 100 2.2 3 0 982.8 NA 0.2540 -SN BR 1700 360 0 0 0
2019/10/30 23:35:00 BASE 24.66 37 33.03 24 2.2 100 2.2 3 0 982.9 NA 0.0000 -SN BR 1800 330 0 0 0
2019/10/30 23:36:00 BASE 23.98 38 33.03 24 2.2 100 2.2 3 0 982.8 NA 0.0000 -SN BR 1800 330 0 0 0
2019/10/30 23:37:00 BASE 22.63 36 28.50 25 2.2 100 2.2 3 0 982.9 NA 0.0000 -SN BR 2300 360 0 0 0
2019/10/30 23:38:00 BASE 20.41 35 28.50 25 2.2 100 2.2 3 0 982.9 NA 0.0000 -SN BR 2300 360 0 0 0
2019/10/30 23:39:00 BASE 21.18 33 28.35 34 2.2 100 2.2 3 0 982.9 NA 0.2540 -SN BR 2200 330 0 0 0
2019/10/30 23:40:00 BASE 22.13 34 28.35 34 2.2 100 2.2 3 0 982.9 NA 0.0000 -SN BR 2000 330 0 0 0
2019/10/30 23:41:00 BASE 21.14 37 28.35 34 2.2 100 2.2 2 0 982.9 NA 0.0000 -SN BR 2100 360 0 0 0
2019/10/30 23:42:00 BASE 21.82 38 28.35 34 2.2 100 2.2 2 0 982.9 NA 0.0000 -SN BR 2300 330 0 0 0
2019/10/30 23:43:00 BASE 23.95 37 28.76 37 2.2 100 2.2 2 0 982.9 NA 0.0000 -SN BR 2300 330 0 0 0
2019/10/30 23:44:00 BASE 23.69 35 28.76 37 2.2 100 2.2 2 0 982.9 NA 0.2540 -SN BR 2100 330 0 0 0
2019/10/30 23:45:00 BASE 21.65 35 28.76 37 2.2 100 2.2 2 0 983.0 NA 0.0000 -SN BR 1900 360 0 0 0
2019/10/30 23:46:00 BASE 22.03 35 28.76 37 2.3 100 2.3 2 0 982.8 NA 0.0000 -SN BR 2900 330 0 0 0
2019/10/30 23:47:00 BASE 23.28 32 28.76 37 2.3 100 2.3 2 0 982.9 NA 0.0000 -SN BR 2000 360 0 0 0
2019/10/30 23:48:00 BASE 24.16 32 28.86 28 2.3 100 2.3 1 0 982.8 NA 0.0000 -SN BR 2000 360 0 0 0
2019/10/30 23:49:00 BASE 25.30 34 28.86 28 2.3 100 2.3 1 0 982.8 NA 0.2540 -SN BR 3400 360 0 0 0
2019/10/30 23:50:00 BASE 24.92 33 30.51 32 2.3 100 2.3 1 0 982.8 NA 0.0000 -SN BR 3700 360 0 0 0
2019/10/30 23:51:00 BASE 24.81 33 31.79 33 2.3 100 2.3 1 0 982.7 NA 0.0000 -SN BR 3100 360 0 0 0
2019/10/30 23:52:00 BASE 26.11 35 32.62 35 2.3 100 2.3 1 0 982.7 NA 0.0000 -SN BR 3200 360 0 0 0
2019/10/30 23:53:00 BASE 26.41 34 32.62 35 2.3 100 2.3 1 0 982.7 NA 0.0000 -SN BR 3500 330 0 0 0
2019/10/30 23:54:00 BASE 25.33 32 32.62 35 2.4 100 2.4 1 0 982.7 NA 0.0000 -SN BR 3400 360 0 0 0
2019/10/30 23:55:00 BASE 23.89 32 32.62 35 2.4 100 2.4 1 0 982.8 NA 0.2540 -SN BR 3700 360 0 0 0
2019/10/30 23:56:00 BASE 23.90 34 32.62 35 2.4 100 2.4 1 0 982.8 NA 0.0000 -SN BR 4700 330 0 0 0
2019/10/30 23:57:00 BASE 23.76 34 32.62 35 2.3 100 2.3 1 0 982.9 NA 0.0000 -SN BR 3500 330 0 0 0
2019/10/30 23:58:00 BASE 22.70 32 32.62 35 2.3 100 2.3 1 0 982.9 NA 0.0000 -SN BR 4200 330 0 0 0
2019/10/30 23:59:00 BASE 22.67 32 32.62 35 2.3 100 2.3 1 0 982.9 NA 0.2540 -SN BR 4000 330 0 0 0